<?xml version="1.0" encoding="UTF-8" standalone="no" ?>
<gpx xmlns="http://www.topografix.com/GPX/1/1" xmlns:xsi="http://www.w3.org/2001/XMLSchema-instance" xsi:schemaLocation="http://www.topografix.com/GPX/1/1 http://www.topografix.com/GPX/1/1/gpx.xsd" version="1.1" creator="VisuGPX - https://www.visugpx.com">
  <metadata>
    <name>dfci st symphorien descente bois st symphorien</name>
  </metadata>
  <trk>
    <name><![CDATA[dfci st symphorien descente bois st symphorien_1]]></name>
    <trkseg>
      <trkpt lat="44.1857" lon="6.01909">
        <ele>674.383</ele>
        <time>2019-11-10T12:48:10Z</time>
      </trkpt>
      <trkpt lat="44.1857" lon="6.01909">
        <ele>673.811</ele>
        <time>2019-11-10T12:48:16Z</time>
      </trkpt>
      <trkpt lat="44.1857" lon="6.01909">
        <ele>673.396</ele>
        <time>2019-11-10T12:48:21Z</time>
      </trkpt>
      <trkpt lat="44.1857" lon="6.01909">
        <ele>670.889</ele>
        <time>2019-11-10T12:48:27Z</time>
      </trkpt>
      <trkpt lat="44.1857" lon="6.01909">
        <ele>670.559</ele>
        <time>2019-11-10T12:48:33Z</time>
      </trkpt>
      <trkpt lat="44.1857" lon="6.01909">
        <ele>670.263</ele>
        <time>2019-11-10T12:48:39Z</time>
      </trkpt>
      <trkpt lat="44.1857" lon="6.01909">
        <ele>669.97</ele>
        <time>2019-11-10T12:48:44Z</time>
      </trkpt>
      <trkpt lat="44.1857" lon="6.01909">
        <ele>669.656</ele>
        <time>2019-11-10T12:48:50Z</time>
      </trkpt>
      <trkpt lat="44.1857" lon="6.01909">
        <ele>669.357</ele>
        <time>2019-11-10T12:48:55Z</time>
      </trkpt>
      <trkpt lat="44.1857" lon="6.01909">
        <ele>668.643</ele>
        <time>2019-11-10T12:49:01Z</time>
      </trkpt>
      <trkpt lat="44.1857" lon="6.01909">
        <ele>668.063</ele>
        <time>2019-11-10T12:49:07Z</time>
      </trkpt>
      <trkpt lat="44.1857" lon="6.01909">
        <ele>666.449</ele>
        <time>2019-11-10T12:49:12Z</time>
      </trkpt>
      <trkpt lat="44.1857" lon="6.01909">
        <ele>665.125</ele>
        <time>2019-11-10T12:49:18Z</time>
      </trkpt>
      <trkpt lat="44.1857" lon="6.01909">
        <ele>664.525</ele>
        <time>2019-11-10T12:49:24Z</time>
      </trkpt>
      <trkpt lat="44.1857" lon="6.01909">
        <ele>664.355</ele>
        <time>2019-11-10T12:49:29Z</time>
      </trkpt>
      <trkpt lat="44.1857" lon="6.01909">
        <ele>664.339</ele>
        <time>2019-11-10T12:49:35Z</time>
      </trkpt>
      <trkpt lat="44.1857" lon="6.01909">
        <ele>664.404</ele>
        <time>2019-11-10T12:49:40Z</time>
      </trkpt>
      <trkpt lat="44.1857" lon="6.01909">
        <ele>664.386</ele>
        <time>2019-11-10T12:49:46Z</time>
      </trkpt>
      <trkpt lat="44.1857" lon="6.01909">
        <ele>664.374</ele>
        <time>2019-11-10T12:49:52Z</time>
      </trkpt>
      <trkpt lat="44.1857" lon="6.01909">
        <ele>664.393</ele>
        <time>2019-11-10T12:49:58Z</time>
      </trkpt>
      <trkpt lat="44.1857" lon="6.01909">
        <ele>664.423</ele>
        <time>2019-11-10T12:50:04Z</time>
      </trkpt>
      <trkpt lat="44.1857" lon="6.01909">
        <ele>664.477</ele>
        <time>2019-11-10T12:50:10Z</time>
      </trkpt>
      <trkpt lat="44.1857" lon="6.01909">
        <ele>664.508</ele>
        <time>2019-11-10T12:50:15Z</time>
      </trkpt>
      <trkpt lat="44.1857" lon="6.01909">
        <ele>664.542</ele>
        <time>2019-11-10T12:50:20Z</time>
      </trkpt>
      <trkpt lat="44.1857" lon="6.01909">
        <ele>664.609</ele>
        <time>2019-11-10T12:50:25Z</time>
      </trkpt>
      <trkpt lat="44.1857" lon="6.01909">
        <ele>664.514</ele>
        <time>2019-11-10T12:50:31Z</time>
      </trkpt>
      <trkpt lat="44.1857" lon="6.01909">
        <ele>663.276</ele>
        <time>2019-11-10T12:50:37Z</time>
      </trkpt>
      <trkpt lat="44.1857" lon="6.01909">
        <ele>661.838</ele>
        <time>2019-11-10T12:50:43Z</time>
      </trkpt>
      <trkpt lat="44.18573" lon="6.01919">
        <ele>660.793</ele>
        <time>2019-11-10T12:50:49Z</time>
      </trkpt>
      <trkpt lat="44.18573" lon="6.01919">
        <ele>659.661</ele>
        <time>2019-11-10T12:50:54Z</time>
      </trkpt>
      <trkpt lat="44.18573" lon="6.01919">
        <ele>659.17</ele>
        <time>2019-11-10T12:51:00Z</time>
      </trkpt>
      <trkpt lat="44.18573" lon="6.01919">
        <ele>658.942</ele>
        <time>2019-11-10T12:51:05Z</time>
      </trkpt>
      <trkpt lat="44.18573" lon="6.01919">
        <ele>658.689</ele>
        <time>2019-11-10T12:51:11Z</time>
      </trkpt>
      <trkpt lat="44.18579" lon="6.01935">
        <ele>657.663</ele>
        <time>2019-11-10T12:51:17Z</time>
      </trkpt>
      <trkpt lat="44.18585" lon="6.01942">
        <ele>656.743</ele>
        <time>2019-11-10T12:51:22Z</time>
      </trkpt>
      <trkpt lat="44.1859" lon="6.01956">
        <ele>656.205</ele>
        <time>2019-11-10T12:51:28Z</time>
      </trkpt>
      <trkpt lat="44.18595" lon="6.01975">
        <ele>655.835</ele>
        <time>2019-11-10T12:51:34Z</time>
      </trkpt>
      <trkpt lat="44.18599" lon="6.01994">
        <ele>655.636</ele>
        <time>2019-11-10T12:51:40Z</time>
      </trkpt>
      <trkpt lat="44.18605" lon="6.02012">
        <ele>655.066</ele>
        <time>2019-11-10T12:51:46Z</time>
      </trkpt>
      <trkpt lat="44.18612" lon="6.02031">
        <ele>654.889</ele>
        <time>2019-11-10T12:51:52Z</time>
      </trkpt>
      <trkpt lat="44.18619" lon="6.02048">
        <ele>654.872</ele>
        <time>2019-11-10T12:51:57Z</time>
      </trkpt>
      <trkpt lat="44.18623" lon="6.02063">
        <ele>655.305</ele>
        <time>2019-11-10T12:52:02Z</time>
      </trkpt>
      <trkpt lat="44.18628" lon="6.02078">
        <ele>656.087</ele>
        <time>2019-11-10T12:52:08Z</time>
      </trkpt>
      <trkpt lat="44.18631" lon="6.02086">
        <ele>656.226</ele>
        <time>2019-11-10T12:52:14Z</time>
      </trkpt>
      <trkpt lat="44.18631" lon="6.02087">
        <ele>655.508</ele>
        <time>2019-11-10T12:52:20Z</time>
      </trkpt>
      <trkpt lat="44.18637" lon="6.02101">
        <ele>654.544</ele>
        <time>2019-11-10T12:52:26Z</time>
      </trkpt>
      <trkpt lat="44.18651" lon="6.02128">
        <ele>653.886</ele>
        <time>2019-11-10T12:52:31Z</time>
      </trkpt>
      <trkpt lat="44.1868" lon="6.02159">
        <ele>651.945</ele>
        <time>2019-11-10T12:52:37Z</time>
      </trkpt>
      <trkpt lat="44.18701" lon="6.02167">
        <ele>649.633</ele>
        <time>2019-11-10T12:52:42Z</time>
      </trkpt>
      <trkpt lat="44.18694" lon="6.02199">
        <ele>649.04</ele>
        <time>2019-11-10T12:52:48Z</time>
      </trkpt>
      <trkpt lat="44.1869" lon="6.02214">
        <ele>649.232</ele>
        <time>2019-11-10T12:52:53Z</time>
      </trkpt>
      <trkpt lat="44.18691" lon="6.02231">
        <ele>649.534</ele>
        <time>2019-11-10T12:52:59Z</time>
      </trkpt>
      <trkpt lat="44.18691" lon="6.02244">
        <ele>650.443</ele>
        <time>2019-11-10T12:53:04Z</time>
      </trkpt>
      <trkpt lat="44.18695" lon="6.02255">
        <ele>651.474</ele>
        <time>2019-11-10T12:53:10Z</time>
      </trkpt>
      <trkpt lat="44.187" lon="6.02275">
        <ele>651.941</ele>
        <time>2019-11-10T12:53:16Z</time>
      </trkpt>
      <trkpt lat="44.18705" lon="6.02293">
        <ele>652.393</ele>
        <time>2019-11-10T12:53:21Z</time>
      </trkpt>
      <trkpt lat="44.18703" lon="6.02317">
        <ele>653.545</ele>
        <time>2019-11-10T12:53:27Z</time>
      </trkpt>
      <trkpt lat="44.18703" lon="6.0234">
        <ele>654.848</ele>
        <time>2019-11-10T12:53:33Z</time>
      </trkpt>
      <trkpt lat="44.18706" lon="6.02358">
        <ele>655.752</ele>
        <time>2019-11-10T12:53:38Z</time>
      </trkpt>
      <trkpt lat="44.18711" lon="6.02376">
        <ele>656.726</ele>
        <time>2019-11-10T12:53:43Z</time>
      </trkpt>
      <trkpt lat="44.18715" lon="6.02393">
        <ele>657.777</ele>
        <time>2019-11-10T12:53:49Z</time>
      </trkpt>
      <trkpt lat="44.18722" lon="6.0241">
        <ele>658.421</ele>
        <time>2019-11-10T12:53:55Z</time>
      </trkpt>
      <trkpt lat="44.1873" lon="6.02427">
        <ele>658.815</ele>
        <time>2019-11-10T12:54:01Z</time>
      </trkpt>
      <trkpt lat="44.18743" lon="6.02433">
        <ele>658.315</ele>
        <time>2019-11-10T12:54:07Z</time>
      </trkpt>
      <trkpt lat="44.18753" lon="6.02434">
        <ele>658.545</ele>
        <time>2019-11-10T12:54:13Z</time>
      </trkpt>
      <trkpt lat="44.18761" lon="6.02435">
        <ele>659.388</ele>
        <time>2019-11-10T12:54:18Z</time>
      </trkpt>
      <trkpt lat="44.18775" lon="6.0244">
        <ele>660.357</ele>
        <time>2019-11-10T12:54:23Z</time>
      </trkpt>
      <trkpt lat="44.18787" lon="6.02457">
        <ele>661.596</ele>
        <time>2019-11-10T12:54:29Z</time>
      </trkpt>
      <trkpt lat="44.18795" lon="6.0248">
        <ele>662.212</ele>
        <time>2019-11-10T12:54:35Z</time>
      </trkpt>
      <trkpt lat="44.18808" lon="6.02494">
        <ele>662.594</ele>
        <time>2019-11-10T12:54:40Z</time>
      </trkpt>
      <trkpt lat="44.18822" lon="6.0251">
        <ele>662.615</ele>
        <time>2019-11-10T12:54:46Z</time>
      </trkpt>
      <trkpt lat="44.18839" lon="6.02524">
        <ele>662.333</ele>
        <time>2019-11-10T12:54:52Z</time>
      </trkpt>
      <trkpt lat="44.1885" lon="6.02529">
        <ele>662.564</ele>
        <time>2019-11-10T12:54:57Z</time>
      </trkpt>
      <trkpt lat="44.18865" lon="6.02532">
        <ele>663.156</ele>
        <time>2019-11-10T12:55:02Z</time>
      </trkpt>
      <trkpt lat="44.18878" lon="6.02537">
        <ele>663.351</ele>
        <time>2019-11-10T12:55:07Z</time>
      </trkpt>
      <trkpt lat="44.18892" lon="6.02546">
        <ele>663.992</ele>
        <time>2019-11-10T12:55:13Z</time>
      </trkpt>
      <trkpt lat="44.18906" lon="6.02552">
        <ele>665.069</ele>
        <time>2019-11-10T12:55:18Z</time>
      </trkpt>
      <trkpt lat="44.18922" lon="6.02553">
        <ele>665.869</ele>
        <time>2019-11-10T12:55:24Z</time>
      </trkpt>
      <trkpt lat="44.18936" lon="6.02549">
        <ele>666.052</ele>
        <time>2019-11-10T12:55:29Z</time>
      </trkpt>
      <trkpt lat="44.18951" lon="6.0255">
        <ele>666.376</ele>
        <time>2019-11-10T12:55:35Z</time>
      </trkpt>
      <trkpt lat="44.18965" lon="6.02544">
        <ele>666.408</ele>
        <time>2019-11-10T12:55:40Z</time>
      </trkpt>
      <trkpt lat="44.18976" lon="6.02529">
        <ele>667.115</ele>
        <time>2019-11-10T12:55:46Z</time>
      </trkpt>
      <trkpt lat="44.18987" lon="6.02519">
        <ele>667.813</ele>
        <time>2019-11-10T12:55:51Z</time>
      </trkpt>
      <trkpt lat="44.19004" lon="6.02516">
        <ele>668.335</ele>
        <time>2019-11-10T12:55:57Z</time>
      </trkpt>
      <trkpt lat="44.19025" lon="6.02515">
        <ele>669.1</ele>
        <time>2019-11-10T12:56:03Z</time>
      </trkpt>
      <trkpt lat="44.1904" lon="6.02512">
        <ele>668.953</ele>
        <time>2019-11-10T12:56:08Z</time>
      </trkpt>
      <trkpt lat="44.19053" lon="6.02509">
        <ele>668.89</ele>
        <time>2019-11-10T12:56:13Z</time>
      </trkpt>
      <trkpt lat="44.19073" lon="6.02516">
        <ele>669.12</ele>
        <time>2019-11-10T12:56:19Z</time>
      </trkpt>
      <trkpt lat="44.19085" lon="6.02535">
        <ele>669.213</ele>
        <time>2019-11-10T12:56:25Z</time>
      </trkpt>
      <trkpt lat="44.19097" lon="6.02554">
        <ele>669.264</ele>
        <time>2019-11-10T12:56:31Z</time>
      </trkpt>
      <trkpt lat="44.19107" lon="6.02569">
        <ele>669.834</ele>
        <time>2019-11-10T12:56:36Z</time>
      </trkpt>
      <trkpt lat="44.19117" lon="6.02591">
        <ele>670.553</ele>
        <time>2019-11-10T12:56:42Z</time>
      </trkpt>
      <trkpt lat="44.19125" lon="6.02609">
        <ele>671.393</ele>
        <time>2019-11-10T12:56:47Z</time>
      </trkpt>
      <trkpt lat="44.19133" lon="6.02628">
        <ele>672.427</ele>
        <time>2019-11-10T12:56:53Z</time>
      </trkpt>
      <trkpt lat="44.19138" lon="6.0263">
        <ele>672.991</ele>
        <time>2019-11-10T12:56:58Z</time>
      </trkpt>
      <trkpt lat="44.19141" lon="6.02623">
        <ele>673.331</ele>
        <time>2019-11-10T12:57:03Z</time>
      </trkpt>
      <trkpt lat="44.19136" lon="6.02606">
        <ele>673.898</ele>
        <time>2019-11-10T12:57:09Z</time>
      </trkpt>
      <trkpt lat="44.19131" lon="6.02588">
        <ele>674.57</ele>
        <time>2019-11-10T12:57:14Z</time>
      </trkpt>
      <trkpt lat="44.1913" lon="6.02569">
        <ele>675.252</ele>
        <time>2019-11-10T12:57:19Z</time>
      </trkpt>
      <trkpt lat="44.19136" lon="6.02548">
        <ele>675.809</ele>
        <time>2019-11-10T12:57:25Z</time>
      </trkpt>
      <trkpt lat="44.19144" lon="6.02527">
        <ele>676.662</ele>
        <time>2019-11-10T12:57:31Z</time>
      </trkpt>
      <trkpt lat="44.19152" lon="6.02512">
        <ele>677.484</ele>
        <time>2019-11-10T12:57:36Z</time>
      </trkpt>
      <trkpt lat="44.19166" lon="6.02503">
        <ele>678.331</ele>
        <time>2019-11-10T12:57:42Z</time>
      </trkpt>
      <trkpt lat="44.19178" lon="6.02513">
        <ele>678.68</ele>
        <time>2019-11-10T12:57:48Z</time>
      </trkpt>
      <trkpt lat="44.19182" lon="6.02529">
        <ele>679.286</ele>
        <time>2019-11-10T12:57:53Z</time>
      </trkpt>
      <trkpt lat="44.19185" lon="6.02543">
        <ele>679.941</ele>
        <time>2019-11-10T12:57:58Z</time>
      </trkpt>
      <trkpt lat="44.19191" lon="6.02556">
        <ele>680.839</ele>
        <time>2019-11-10T12:58:03Z</time>
      </trkpt>
      <trkpt lat="44.19195" lon="6.0257">
        <ele>681.851</ele>
        <time>2019-11-10T12:58:08Z</time>
      </trkpt>
      <trkpt lat="44.19203" lon="6.02584">
        <ele>682.342</ele>
        <time>2019-11-10T12:58:14Z</time>
      </trkpt>
      <trkpt lat="44.1921" lon="6.02595">
        <ele>682.49</ele>
        <time>2019-11-10T12:58:19Z</time>
      </trkpt>
      <trkpt lat="44.1922" lon="6.02608">
        <ele>683.129</ele>
        <time>2019-11-10T12:58:25Z</time>
      </trkpt>
      <trkpt lat="44.19234" lon="6.0262">
        <ele>683.615</ele>
        <time>2019-11-10T12:58:31Z</time>
      </trkpt>
      <trkpt lat="44.19243" lon="6.02627">
        <ele>684.079</ele>
        <time>2019-11-10T12:58:36Z</time>
      </trkpt>
      <trkpt lat="44.19255" lon="6.02632">
        <ele>684.666</ele>
        <time>2019-11-10T12:58:42Z</time>
      </trkpt>
      <trkpt lat="44.19268" lon="6.02629">
        <ele>685.065</ele>
        <time>2019-11-10T12:58:48Z</time>
      </trkpt>
      <trkpt lat="44.19275" lon="6.02618">
        <ele>685.748</ele>
        <time>2019-11-10T12:58:54Z</time>
      </trkpt>
      <trkpt lat="44.1928" lon="6.026">
        <ele>686.821</ele>
        <time>2019-11-10T12:59:00Z</time>
      </trkpt>
      <trkpt lat="44.19281" lon="6.02582">
        <ele>688.129</ele>
        <time>2019-11-10T12:59:06Z</time>
      </trkpt>
      <trkpt lat="44.19284" lon="6.02566">
        <ele>689.415</ele>
        <time>2019-11-10T12:59:12Z</time>
      </trkpt>
      <trkpt lat="44.19287" lon="6.02552">
        <ele>690.445</ele>
        <time>2019-11-10T12:59:17Z</time>
      </trkpt>
      <trkpt lat="44.1929" lon="6.02537">
        <ele>692.153</ele>
        <time>2019-11-10T12:59:23Z</time>
      </trkpt>
      <trkpt lat="44.19294" lon="6.02526">
        <ele>693.701</ele>
        <time>2019-11-10T12:59:28Z</time>
      </trkpt>
      <trkpt lat="44.193" lon="6.02511">
        <ele>695.361</ele>
        <time>2019-11-10T12:59:34Z</time>
      </trkpt>
      <trkpt lat="44.19307" lon="6.02498">
        <ele>696.385</ele>
        <time>2019-11-10T12:59:40Z</time>
      </trkpt>
      <trkpt lat="44.19315" lon="6.02486">
        <ele>697.666</ele>
        <time>2019-11-10T12:59:46Z</time>
      </trkpt>
      <trkpt lat="44.19327" lon="6.0248">
        <ele>698.868</ele>
        <time>2019-11-10T12:59:52Z</time>
      </trkpt>
      <trkpt lat="44.1934" lon="6.02474">
        <ele>699.844</ele>
        <time>2019-11-10T12:59:58Z</time>
      </trkpt>
      <trkpt lat="44.19352" lon="6.02471">
        <ele>700.332</ele>
        <time>2019-11-10T13:00:04Z</time>
      </trkpt>
      <trkpt lat="44.1936" lon="6.02469">
        <ele>700.951</ele>
        <time>2019-11-10T13:00:09Z</time>
      </trkpt>
      <trkpt lat="44.19372" lon="6.02469">
        <ele>702.006</ele>
        <time>2019-11-10T13:00:15Z</time>
      </trkpt>
      <trkpt lat="44.19381" lon="6.02469">
        <ele>703.186</ele>
        <time>2019-11-10T13:00:20Z</time>
      </trkpt>
      <trkpt lat="44.19388" lon="6.0247">
        <ele>704.349</ele>
        <time>2019-11-10T13:00:25Z</time>
      </trkpt>
      <trkpt lat="44.194" lon="6.02469">
        <ele>705.447</ele>
        <time>2019-11-10T13:00:31Z</time>
      </trkpt>
      <trkpt lat="44.19408" lon="6.02465">
        <ele>706.134</ele>
        <time>2019-11-10T13:00:36Z</time>
      </trkpt>
      <trkpt lat="44.19418" lon="6.0246">
        <ele>706.823</ele>
        <time>2019-11-10T13:00:42Z</time>
      </trkpt>
      <trkpt lat="44.19428" lon="6.02459">
        <ele>707.788</ele>
        <time>2019-11-10T13:00:48Z</time>
      </trkpt>
      <trkpt lat="44.1944" lon="6.02456">
        <ele>708.615</ele>
        <time>2019-11-10T13:00:54Z</time>
      </trkpt>
      <trkpt lat="44.1945" lon="6.02454">
        <ele>709.393</ele>
        <time>2019-11-10T13:01:00Z</time>
      </trkpt>
      <trkpt lat="44.1946" lon="6.02454">
        <ele>709.93</ele>
        <time>2019-11-10T13:01:05Z</time>
      </trkpt>
      <trkpt lat="44.19473" lon="6.02454">
        <ele>710.476</ele>
        <time>2019-11-10T13:01:11Z</time>
      </trkpt>
      <trkpt lat="44.19481" lon="6.02457">
        <ele>710.947</ele>
        <time>2019-11-10T13:01:16Z</time>
      </trkpt>
      <trkpt lat="44.19493" lon="6.0246">
        <ele>711.914</ele>
        <time>2019-11-10T13:01:22Z</time>
      </trkpt>
      <trkpt lat="44.19502" lon="6.02457">
        <ele>712.8</ele>
        <time>2019-11-10T13:01:27Z</time>
      </trkpt>
      <trkpt lat="44.19502" lon="6.02444">
        <ele>713.864</ele>
        <time>2019-11-10T13:01:33Z</time>
      </trkpt>
      <trkpt lat="44.19501" lon="6.0244">
        <ele>714.407</ele>
        <time>2019-11-10T13:01:39Z</time>
      </trkpt>
      <trkpt lat="44.19495" lon="6.02431">
        <ele>715.505</ele>
        <time>2019-11-10T13:01:45Z</time>
      </trkpt>
      <trkpt lat="44.19486" lon="6.02424">
        <ele>716.291</ele>
        <time>2019-11-10T13:01:51Z</time>
      </trkpt>
      <trkpt lat="44.19477" lon="6.02416">
        <ele>717.205</ele>
        <time>2019-11-10T13:01:57Z</time>
      </trkpt>
      <trkpt lat="44.19469" lon="6.0241">
        <ele>718.146</ele>
        <time>2019-11-10T13:02:02Z</time>
      </trkpt>
      <trkpt lat="44.1946" lon="6.02405">
        <ele>718.869</ele>
        <time>2019-11-10T13:02:07Z</time>
      </trkpt>
      <trkpt lat="44.1945" lon="6.02397">
        <ele>719.766</ele>
        <time>2019-11-10T13:02:13Z</time>
      </trkpt>
      <trkpt lat="44.1944" lon="6.02389">
        <ele>720.714</ele>
        <time>2019-11-10T13:02:19Z</time>
      </trkpt>
      <trkpt lat="44.19434" lon="6.02373">
        <ele>721.669</ele>
        <time>2019-11-10T13:02:25Z</time>
      </trkpt>
      <trkpt lat="44.19439" lon="6.02361">
        <ele>722.769</ele>
        <time>2019-11-10T13:02:31Z</time>
      </trkpt>
      <trkpt lat="44.19448" lon="6.02367">
        <ele>723.81</ele>
        <time>2019-11-10T13:02:37Z</time>
      </trkpt>
      <trkpt lat="44.19455" lon="6.02376">
        <ele>725.032</ele>
        <time>2019-11-10T13:02:42Z</time>
      </trkpt>
      <trkpt lat="44.19463" lon="6.02382">
        <ele>726.113</ele>
        <time>2019-11-10T13:02:47Z</time>
      </trkpt>
      <trkpt lat="44.19473" lon="6.02386">
        <ele>727.019</ele>
        <time>2019-11-10T13:02:53Z</time>
      </trkpt>
      <trkpt lat="44.19483" lon="6.02391">
        <ele>727.684</ele>
        <time>2019-11-10T13:02:58Z</time>
      </trkpt>
      <trkpt lat="44.19493" lon="6.02395">
        <ele>728.597</ele>
        <time>2019-11-10T13:03:04Z</time>
      </trkpt>
      <trkpt lat="44.19504" lon="6.024">
        <ele>729.402</ele>
        <time>2019-11-10T13:03:10Z</time>
      </trkpt>
      <trkpt lat="44.19512" lon="6.02409">
        <ele>730.24</ele>
        <time>2019-11-10T13:03:16Z</time>
      </trkpt>
      <trkpt lat="44.19518" lon="6.02416">
        <ele>730.898</ele>
        <time>2019-11-10T13:03:21Z</time>
      </trkpt>
      <trkpt lat="44.19526" lon="6.02422">
        <ele>731.441</ele>
        <time>2019-11-10T13:03:26Z</time>
      </trkpt>
      <trkpt lat="44.19536" lon="6.02425">
        <ele>731.586</ele>
        <time>2019-11-10T13:03:32Z</time>
      </trkpt>
      <trkpt lat="44.19546" lon="6.02433">
        <ele>732.12</ele>
        <time>2019-11-10T13:03:37Z</time>
      </trkpt>
      <trkpt lat="44.19554" lon="6.02437">
        <ele>733.071</ele>
        <time>2019-11-10T13:03:42Z</time>
      </trkpt>
      <trkpt lat="44.19562" lon="6.02438">
        <ele>733.466</ele>
        <time>2019-11-10T13:03:47Z</time>
      </trkpt>
      <trkpt lat="44.19574" lon="6.0244">
        <ele>733.819</ele>
        <time>2019-11-10T13:03:53Z</time>
      </trkpt>
      <trkpt lat="44.19581" lon="6.02444">
        <ele>734.028</ele>
        <time>2019-11-10T13:03:59Z</time>
      </trkpt>
      <trkpt lat="44.19588" lon="6.02452">
        <ele>735.067</ele>
        <time>2019-11-10T13:04:05Z</time>
      </trkpt>
      <trkpt lat="44.19594" lon="6.02462">
        <ele>736.224</ele>
        <time>2019-11-10T13:04:11Z</time>
      </trkpt>
      <trkpt lat="44.19598" lon="6.02474">
        <ele>737.717</ele>
        <time>2019-11-10T13:04:17Z</time>
      </trkpt>
      <trkpt lat="44.19598" lon="6.02488">
        <ele>738.85</ele>
        <time>2019-11-10T13:04:23Z</time>
      </trkpt>
      <trkpt lat="44.19601" lon="6.02505">
        <ele>740.238</ele>
        <time>2019-11-10T13:04:29Z</time>
      </trkpt>
      <trkpt lat="44.19605" lon="6.0252">
        <ele>740.889</ele>
        <time>2019-11-10T13:04:35Z</time>
      </trkpt>
      <trkpt lat="44.19607" lon="6.02538">
        <ele>741.222</ele>
        <time>2019-11-10T13:04:41Z</time>
      </trkpt>
      <trkpt lat="44.19608" lon="6.02553">
        <ele>741.394</ele>
        <time>2019-11-10T13:04:46Z</time>
      </trkpt>
      <trkpt lat="44.19607" lon="6.02565">
        <ele>741.957</ele>
        <time>2019-11-10T13:04:51Z</time>
      </trkpt>
      <trkpt lat="44.19611" lon="6.02578">
        <ele>742.873</ele>
        <time>2019-11-10T13:04:57Z</time>
      </trkpt>
      <trkpt lat="44.19615" lon="6.02587">
        <ele>743.852</ele>
        <time>2019-11-10T13:05:02Z</time>
      </trkpt>
      <trkpt lat="44.19619" lon="6.02602">
        <ele>745.454</ele>
        <time>2019-11-10T13:05:08Z</time>
      </trkpt>
      <trkpt lat="44.19624" lon="6.02615">
        <ele>746.772</ele>
        <time>2019-11-10T13:05:13Z</time>
      </trkpt>
      <trkpt lat="44.19629" lon="6.02629">
        <ele>747.901</ele>
        <time>2019-11-10T13:05:18Z</time>
      </trkpt>
      <trkpt lat="44.19635" lon="6.02644">
        <ele>749.072</ele>
        <time>2019-11-10T13:05:24Z</time>
      </trkpt>
      <trkpt lat="44.19643" lon="6.02662">
        <ele>750.208</ele>
        <time>2019-11-10T13:05:30Z</time>
      </trkpt>
      <trkpt lat="44.19647" lon="6.02679">
        <ele>750.736</ele>
        <time>2019-11-10T13:05:35Z</time>
      </trkpt>
      <trkpt lat="44.19649" lon="6.02701">
        <ele>751.413</ele>
        <time>2019-11-10T13:05:41Z</time>
      </trkpt>
      <trkpt lat="44.19652" lon="6.02716">
        <ele>752.464</ele>
        <time>2019-11-10T13:05:46Z</time>
      </trkpt>
      <trkpt lat="44.19654" lon="6.02735">
        <ele>753.649</ele>
        <time>2019-11-10T13:05:51Z</time>
      </trkpt>
      <trkpt lat="44.19652" lon="6.02753">
        <ele>754.527</ele>
        <time>2019-11-10T13:05:56Z</time>
      </trkpt>
      <trkpt lat="44.19647" lon="6.02769">
        <ele>755.359</ele>
        <time>2019-11-10T13:06:01Z</time>
      </trkpt>
      <trkpt lat="44.19644" lon="6.02789">
        <ele>756.129</ele>
        <time>2019-11-10T13:06:07Z</time>
      </trkpt>
      <trkpt lat="44.19647" lon="6.02799">
        <ele>757.327</ele>
        <time>2019-11-10T13:06:13Z</time>
      </trkpt>
      <trkpt lat="44.19656" lon="6.02797">
        <ele>758.316</ele>
        <time>2019-11-10T13:06:18Z</time>
      </trkpt>
      <trkpt lat="44.19669" lon="6.02792">
        <ele>759.087</ele>
        <time>2019-11-10T13:06:24Z</time>
      </trkpt>
      <trkpt lat="44.1968" lon="6.02793">
        <ele>759.393</ele>
        <time>2019-11-10T13:06:29Z</time>
      </trkpt>
      <trkpt lat="44.1969" lon="6.02791">
        <ele>759.09</ele>
        <time>2019-11-10T13:06:34Z</time>
      </trkpt>
      <trkpt lat="44.19708" lon="6.02786">
        <ele>759.4</ele>
        <time>2019-11-10T13:06:40Z</time>
      </trkpt>
      <trkpt lat="44.19723" lon="6.02775">
        <ele>760.152</ele>
        <time>2019-11-10T13:06:46Z</time>
      </trkpt>
      <trkpt lat="44.19738" lon="6.02756">
        <ele>760.842</ele>
        <time>2019-11-10T13:06:52Z</time>
      </trkpt>
      <trkpt lat="44.19751" lon="6.02737">
        <ele>761.643</ele>
        <time>2019-11-10T13:06:58Z</time>
      </trkpt>
      <trkpt lat="44.19759" lon="6.02715">
        <ele>762.304</ele>
        <time>2019-11-10T13:07:04Z</time>
      </trkpt>
      <trkpt lat="44.19763" lon="6.02694">
        <ele>762.694</ele>
        <time>2019-11-10T13:07:09Z</time>
      </trkpt>
      <trkpt lat="44.19776" lon="6.02674">
        <ele>764.265</ele>
        <time>2019-11-10T13:07:15Z</time>
      </trkpt>
      <trkpt lat="44.19798" lon="6.02668">
        <ele>764.46</ele>
        <time>2019-11-10T13:07:21Z</time>
      </trkpt>
      <trkpt lat="44.19809" lon="6.02679">
        <ele>764.416</ele>
        <time>2019-11-10T13:07:26Z</time>
      </trkpt>
      <trkpt lat="44.19824" lon="6.02692">
        <ele>764.401</ele>
        <time>2019-11-10T13:07:32Z</time>
      </trkpt>
      <trkpt lat="44.19844" lon="6.02682">
        <ele>764.612</ele>
        <time>2019-11-10T13:07:38Z</time>
      </trkpt>
      <trkpt lat="44.19859" lon="6.02665">
        <ele>764.794</ele>
        <time>2019-11-10T13:07:44Z</time>
      </trkpt>
      <trkpt lat="44.19867" lon="6.02642">
        <ele>765.206</ele>
        <time>2019-11-10T13:07:50Z</time>
      </trkpt>
      <trkpt lat="44.19882" lon="6.02628">
        <ele>765.829</ele>
        <time>2019-11-10T13:07:55Z</time>
      </trkpt>
      <trkpt lat="44.19902" lon="6.02619">
        <ele>768.436</ele>
        <time>2019-11-10T13:08:01Z</time>
      </trkpt>
      <trkpt lat="44.19933" lon="6.02624">
        <ele>766.553</ele>
        <time>2019-11-10T13:08:07Z</time>
      </trkpt>
      <trkpt lat="44.19945" lon="6.02641">
        <ele>766.177</ele>
        <time>2019-11-10T13:08:12Z</time>
      </trkpt>
      <trkpt lat="44.19944" lon="6.02677">
        <ele>765.932</ele>
        <time>2019-11-10T13:08:18Z</time>
      </trkpt>
      <trkpt lat="44.19944" lon="6.02711">
        <ele>766.393</ele>
        <time>2019-11-10T13:08:24Z</time>
      </trkpt>
      <trkpt lat="44.19958" lon="6.02719">
        <ele>766.548</ele>
        <time>2019-11-10T13:08:29Z</time>
      </trkpt>
      <trkpt lat="44.19975" lon="6.02716">
        <ele>767.863</ele>
        <time>2019-11-10T13:08:34Z</time>
      </trkpt>
      <trkpt lat="44.19991" lon="6.02718">
        <ele>768.877</ele>
        <time>2019-11-10T13:08:39Z</time>
      </trkpt>
      <trkpt lat="44.20009" lon="6.02721">
        <ele>770.658</ele>
        <time>2019-11-10T13:08:44Z</time>
      </trkpt>
      <trkpt lat="44.2003" lon="6.02715">
        <ele>773.427</ele>
        <time>2019-11-10T13:08:50Z</time>
      </trkpt>
      <trkpt lat="44.20059" lon="6.02712">
        <ele>774.824</ele>
        <time>2019-11-10T13:08:56Z</time>
      </trkpt>
      <trkpt lat="44.20074" lon="6.02723">
        <ele>774.883</ele>
        <time>2019-11-10T13:09:01Z</time>
      </trkpt>
      <trkpt lat="44.20096" lon="6.02745">
        <ele>775.621</ele>
        <time>2019-11-10T13:09:07Z</time>
      </trkpt>
      <trkpt lat="44.20109" lon="6.02773">
        <ele>777.586</ele>
        <time>2019-11-10T13:09:13Z</time>
      </trkpt>
      <trkpt lat="44.20099" lon="6.02787">
        <ele>777.733</ele>
        <time>2019-11-10T13:09:19Z</time>
      </trkpt>
      <trkpt lat="44.2008" lon="6.02786">
        <ele>777.695</ele>
        <time>2019-11-10T13:09:25Z</time>
      </trkpt>
      <trkpt lat="44.2007" lon="6.02796">
        <ele>777.794</ele>
        <time>2019-11-10T13:09:30Z</time>
      </trkpt>
      <trkpt lat="44.20074" lon="6.02809">
        <ele>777.3</ele>
        <time>2019-11-10T13:09:36Z</time>
      </trkpt>
      <trkpt lat="44.2008" lon="6.02825">
        <ele>777.093</ele>
        <time>2019-11-10T13:09:42Z</time>
      </trkpt>
      <trkpt lat="44.20085" lon="6.02844">
        <ele>777.496</ele>
        <time>2019-11-10T13:09:47Z</time>
      </trkpt>
      <trkpt lat="44.20086" lon="6.02864">
        <ele>778.123</ele>
        <time>2019-11-10T13:09:52Z</time>
      </trkpt>
      <trkpt lat="44.20085" lon="6.02893">
        <ele>779.084</ele>
        <time>2019-11-10T13:09:58Z</time>
      </trkpt>
      <trkpt lat="44.2008" lon="6.02917">
        <ele>779.817</ele>
        <time>2019-11-10T13:10:03Z</time>
      </trkpt>
      <trkpt lat="44.20062" lon="6.02937">
        <ele>781.249</ele>
        <time>2019-11-10T13:10:09Z</time>
      </trkpt>
      <trkpt lat="44.20041" lon="6.02946">
        <ele>782.668</ele>
        <time>2019-11-10T13:10:15Z</time>
      </trkpt>
      <trkpt lat="44.20019" lon="6.02951">
        <ele>783.222</ele>
        <time>2019-11-10T13:10:21Z</time>
      </trkpt>
      <trkpt lat="44.19999" lon="6.02969">
        <ele>784.384</ele>
        <time>2019-11-10T13:10:27Z</time>
      </trkpt>
      <trkpt lat="44.19992" lon="6.03004">
        <ele>784.469</ele>
        <time>2019-11-10T13:10:33Z</time>
      </trkpt>
      <trkpt lat="44.20012" lon="6.03028">
        <ele>780.834</ele>
        <time>2019-11-10T13:10:38Z</time>
      </trkpt>
      <trkpt lat="44.2005" lon="6.03021">
        <ele>776.005</ele>
        <time>2019-11-10T13:10:44Z</time>
      </trkpt>
      <trkpt lat="44.20087" lon="6.03009">
        <ele>771.891</ele>
        <time>2019-11-10T13:10:49Z</time>
      </trkpt>
      <trkpt lat="44.20117" lon="6.03022">
        <ele>770.809</ele>
        <time>2019-11-10T13:10:54Z</time>
      </trkpt>
      <trkpt lat="44.20112" lon="6.03046">
        <ele>770.243</ele>
        <time>2019-11-10T13:11:00Z</time>
      </trkpt>
      <trkpt lat="44.2011" lon="6.03066">
        <ele>769.63</ele>
        <time>2019-11-10T13:11:06Z</time>
      </trkpt>
      <trkpt lat="44.2011" lon="6.03074">
        <ele>769.441</ele>
        <time>2019-11-10T13:11:11Z</time>
      </trkpt>
      <trkpt lat="44.20114" lon="6.03088">
        <ele>769.582</ele>
        <time>2019-11-10T13:11:17Z</time>
      </trkpt>
      <trkpt lat="44.20121" lon="6.03097">
        <ele>769.056</ele>
        <time>2019-11-10T13:11:23Z</time>
      </trkpt>
      <trkpt lat="44.2013" lon="6.03099">
        <ele>768.438</ele>
        <time>2019-11-10T13:11:28Z</time>
      </trkpt>
      <trkpt lat="44.2014" lon="6.03104">
        <ele>768.456</ele>
        <time>2019-11-10T13:11:34Z</time>
      </trkpt>
      <trkpt lat="44.20149" lon="6.03114">
        <ele>769.068</ele>
        <time>2019-11-10T13:11:39Z</time>
      </trkpt>
      <trkpt lat="44.20159" lon="6.03128">
        <ele>769.838</ele>
        <time>2019-11-10T13:11:44Z</time>
      </trkpt>
      <trkpt lat="44.2017" lon="6.03141">
        <ele>769.941</ele>
        <time>2019-11-10T13:11:50Z</time>
      </trkpt>
      <trkpt lat="44.20178" lon="6.03152">
        <ele>769.866</ele>
        <time>2019-11-10T13:11:55Z</time>
      </trkpt>
      <trkpt lat="44.20189" lon="6.03167">
        <ele>769.838</ele>
        <time>2019-11-10T13:12:01Z</time>
      </trkpt>
      <trkpt lat="44.20194" lon="6.03184">
        <ele>770.368</ele>
        <time>2019-11-10T13:12:06Z</time>
      </trkpt>
      <trkpt lat="44.20204" lon="6.03202">
        <ele>771.342</ele>
        <time>2019-11-10T13:12:12Z</time>
      </trkpt>
      <trkpt lat="44.20214" lon="6.03228">
        <ele>772.704</ele>
        <time>2019-11-10T13:12:17Z</time>
      </trkpt>
      <trkpt lat="44.20203" lon="6.03241">
        <ele>775.349</ele>
        <time>2019-11-10T13:12:22Z</time>
      </trkpt>
      <trkpt lat="44.2019" lon="6.03249">
        <ele>776.154</ele>
        <time>2019-11-10T13:12:27Z</time>
      </trkpt>
      <trkpt lat="44.20177" lon="6.03252">
        <ele>776.802</ele>
        <time>2019-11-10T13:12:32Z</time>
      </trkpt>
      <trkpt lat="44.20162" lon="6.03248">
        <ele>777.737</ele>
        <time>2019-11-10T13:12:38Z</time>
      </trkpt>
      <trkpt lat="44.20144" lon="6.03246">
        <ele>778.951</ele>
        <time>2019-11-10T13:12:44Z</time>
      </trkpt>
      <trkpt lat="44.20129" lon="6.03246">
        <ele>780.091</ele>
        <time>2019-11-10T13:12:50Z</time>
      </trkpt>
      <trkpt lat="44.20116" lon="6.03239">
        <ele>780.954</ele>
        <time>2019-11-10T13:12:56Z</time>
      </trkpt>
      <trkpt lat="44.20106" lon="6.03232">
        <ele>781.59</ele>
        <time>2019-11-10T13:13:01Z</time>
      </trkpt>
      <trkpt lat="44.20091" lon="6.03223">
        <ele>781.974</ele>
        <time>2019-11-10T13:13:07Z</time>
      </trkpt>
      <trkpt lat="44.20083" lon="6.03225">
        <ele>782.186</ele>
        <time>2019-11-10T13:13:13Z</time>
      </trkpt>
      <trkpt lat="44.2008" lon="6.0323">
        <ele>782.291</ele>
        <time>2019-11-10T13:13:18Z</time>
      </trkpt>
      <trkpt lat="44.20076" lon="6.03237">
        <ele>782.418</ele>
        <time>2019-11-10T13:13:23Z</time>
      </trkpt>
      <trkpt lat="44.2007" lon="6.03247">
        <ele>782.614</ele>
        <time>2019-11-10T13:13:29Z</time>
      </trkpt>
      <trkpt lat="44.20066" lon="6.03258">
        <ele>782.971</ele>
        <time>2019-11-10T13:13:34Z</time>
      </trkpt>
      <trkpt lat="44.20062" lon="6.03273">
        <ele>783.581</ele>
        <time>2019-11-10T13:13:40Z</time>
      </trkpt>
      <trkpt lat="44.20059" lon="6.03289">
        <ele>783.994</ele>
        <time>2019-11-10T13:13:46Z</time>
      </trkpt>
      <trkpt lat="44.20053" lon="6.03304">
        <ele>784.228</ele>
        <time>2019-11-10T13:13:52Z</time>
      </trkpt>
      <trkpt lat="44.20043" lon="6.03313">
        <ele>784.579</ele>
        <time>2019-11-10T13:13:58Z</time>
      </trkpt>
      <trkpt lat="44.20036" lon="6.0332">
        <ele>785.304</ele>
        <time>2019-11-10T13:14:03Z</time>
      </trkpt>
      <trkpt lat="44.20029" lon="6.03333">
        <ele>786.573</ele>
        <time>2019-11-10T13:14:09Z</time>
      </trkpt>
      <trkpt lat="44.20023" lon="6.03347">
        <ele>787.001</ele>
        <time>2019-11-10T13:14:14Z</time>
      </trkpt>
      <trkpt lat="44.2002" lon="6.03359">
        <ele>787.204</ele>
        <time>2019-11-10T13:14:19Z</time>
      </trkpt>
      <trkpt lat="44.20012" lon="6.03373">
        <ele>787.468</ele>
        <time>2019-11-10T13:14:25Z</time>
      </trkpt>
      <trkpt lat="44.20001" lon="6.03387">
        <ele>787.815</ele>
        <time>2019-11-10T13:14:31Z</time>
      </trkpt>
      <trkpt lat="44.19991" lon="6.03401">
        <ele>788.31</ele>
        <time>2019-11-10T13:14:37Z</time>
      </trkpt>
      <trkpt lat="44.19982" lon="6.03415">
        <ele>788.561</ele>
        <time>2019-11-10T13:14:42Z</time>
      </trkpt>
      <trkpt lat="44.19971" lon="6.03427">
        <ele>788.883</ele>
        <time>2019-11-10T13:14:48Z</time>
      </trkpt>
      <trkpt lat="44.19958" lon="6.03432">
        <ele>789.792</ele>
        <time>2019-11-10T13:14:54Z</time>
      </trkpt>
      <trkpt lat="44.19945" lon="6.03438">
        <ele>790.943</ele>
        <time>2019-11-10T13:14:59Z</time>
      </trkpt>
      <trkpt lat="44.19928" lon="6.03442">
        <ele>792.279</ele>
        <time>2019-11-10T13:15:04Z</time>
      </trkpt>
      <trkpt lat="44.19906" lon="6.03448">
        <ele>793.687</ele>
        <time>2019-11-10T13:15:10Z</time>
      </trkpt>
      <trkpt lat="44.19886" lon="6.03448">
        <ele>794.663</ele>
        <time>2019-11-10T13:15:16Z</time>
      </trkpt>
      <trkpt lat="44.19867" lon="6.03447">
        <ele>795.496</ele>
        <time>2019-11-10T13:15:22Z</time>
      </trkpt>
      <trkpt lat="44.1985" lon="6.03433">
        <ele>796.325</ele>
        <time>2019-11-10T13:15:28Z</time>
      </trkpt>
      <trkpt lat="44.1983" lon="6.03424">
        <ele>796.978</ele>
        <time>2019-11-10T13:15:34Z</time>
      </trkpt>
      <trkpt lat="44.1982" lon="6.03428">
        <ele>797.53</ele>
        <time>2019-11-10T13:15:39Z</time>
      </trkpt>
      <trkpt lat="44.19817" lon="6.03437">
        <ele>798.327</ele>
        <time>2019-11-10T13:15:45Z</time>
      </trkpt>
      <trkpt lat="44.19818" lon="6.03461">
        <ele>798.44</ele>
        <time>2019-11-10T13:15:51Z</time>
      </trkpt>
      <trkpt lat="44.1982" lon="6.03483">
        <ele>798.11</ele>
        <time>2019-11-10T13:15:56Z</time>
      </trkpt>
      <trkpt lat="44.19824" lon="6.03507">
        <ele>797.887</ele>
        <time>2019-11-10T13:16:02Z</time>
      </trkpt>
      <trkpt lat="44.19824" lon="6.03528">
        <ele>797.8</ele>
        <time>2019-11-10T13:16:07Z</time>
      </trkpt>
      <trkpt lat="44.19811" lon="6.03543">
        <ele>798.255</ele>
        <time>2019-11-10T13:16:13Z</time>
      </trkpt>
      <trkpt lat="44.19792" lon="6.03558">
        <ele>798.152</ele>
        <time>2019-11-10T13:16:19Z</time>
      </trkpt>
      <trkpt lat="44.19773" lon="6.03562">
        <ele>798.633</ele>
        <time>2019-11-10T13:16:24Z</time>
      </trkpt>
      <trkpt lat="44.19754" lon="6.03565">
        <ele>799.771</ele>
        <time>2019-11-10T13:16:30Z</time>
      </trkpt>
      <trkpt lat="44.1974" lon="6.03575">
        <ele>800.62</ele>
        <time>2019-11-10T13:16:36Z</time>
      </trkpt>
      <trkpt lat="44.19724" lon="6.03589">
        <ele>801.227</ele>
        <time>2019-11-10T13:16:42Z</time>
      </trkpt>
      <trkpt lat="44.19713" lon="6.03601">
        <ele>801.656</ele>
        <time>2019-11-10T13:16:47Z</time>
      </trkpt>
      <trkpt lat="44.19701" lon="6.03618">
        <ele>801.933</ele>
        <time>2019-11-10T13:16:52Z</time>
      </trkpt>
      <trkpt lat="44.19682" lon="6.03629">
        <ele>802.263</ele>
        <time>2019-11-10T13:16:58Z</time>
      </trkpt>
      <trkpt lat="44.19667" lon="6.03637">
        <ele>802.766</ele>
        <time>2019-11-10T13:17:04Z</time>
      </trkpt>
      <trkpt lat="44.19659" lon="6.03649">
        <ele>803.207</ele>
        <time>2019-11-10T13:17:09Z</time>
      </trkpt>
      <trkpt lat="44.19655" lon="6.03661">
        <ele>803.556</ele>
        <time>2019-11-10T13:17:14Z</time>
      </trkpt>
      <trkpt lat="44.1965" lon="6.03675">
        <ele>804.171</ele>
        <time>2019-11-10T13:17:19Z</time>
      </trkpt>
      <trkpt lat="44.19643" lon="6.03689">
        <ele>804.758</ele>
        <time>2019-11-10T13:17:25Z</time>
      </trkpt>
      <trkpt lat="44.19633" lon="6.03697">
        <ele>805.559</ele>
        <time>2019-11-10T13:17:30Z</time>
      </trkpt>
      <trkpt lat="44.19616" lon="6.03697">
        <ele>806.416</ele>
        <time>2019-11-10T13:17:36Z</time>
      </trkpt>
      <trkpt lat="44.19604" lon="6.0369">
        <ele>806.93</ele>
        <time>2019-11-10T13:17:41Z</time>
      </trkpt>
      <trkpt lat="44.19594" lon="6.03689">
        <ele>807.418</ele>
        <time>2019-11-10T13:17:46Z</time>
      </trkpt>
      <trkpt lat="44.19592" lon="6.03699">
        <ele>807.687</ele>
        <time>2019-11-10T13:17:52Z</time>
      </trkpt>
      <trkpt lat="44.19597" lon="6.03704">
        <ele>807.942</ele>
        <time>2019-11-10T13:17:58Z</time>
      </trkpt>
      <trkpt lat="44.19607" lon="6.03713">
        <ele>807.702</ele>
        <time>2019-11-10T13:18:04Z</time>
      </trkpt>
      <trkpt lat="44.19615" lon="6.03721">
        <ele>807.61</ele>
        <time>2019-11-10T13:18:09Z</time>
      </trkpt>
      <trkpt lat="44.19627" lon="6.03722">
        <ele>807.589</ele>
        <time>2019-11-10T13:18:15Z</time>
      </trkpt>
      <trkpt lat="44.19633" lon="6.03717">
        <ele>807.879</ele>
        <time>2019-11-10T13:18:20Z</time>
      </trkpt>
      <trkpt lat="44.19642" lon="6.03711">
        <ele>808.222</ele>
        <time>2019-11-10T13:18:25Z</time>
      </trkpt>
      <trkpt lat="44.19652" lon="6.03704">
        <ele>808.824</ele>
        <time>2019-11-10T13:18:31Z</time>
      </trkpt>
      <trkpt lat="44.19663" lon="6.03695">
        <ele>809.189</ele>
        <time>2019-11-10T13:18:37Z</time>
      </trkpt>
      <trkpt lat="44.19672" lon="6.03689">
        <ele>809.723</ele>
        <time>2019-11-10T13:18:42Z</time>
      </trkpt>
      <trkpt lat="44.19685" lon="6.03686">
        <ele>810.898</ele>
        <time>2019-11-10T13:18:48Z</time>
      </trkpt>
      <trkpt lat="44.19694" lon="6.03686">
        <ele>811.56</ele>
        <time>2019-11-10T13:18:54Z</time>
      </trkpt>
      <trkpt lat="44.19705" lon="6.03684">
        <ele>812.467</ele>
        <time>2019-11-10T13:19:00Z</time>
      </trkpt>
      <trkpt lat="44.19714" lon="6.03678">
        <ele>813.638</ele>
        <time>2019-11-10T13:19:05Z</time>
      </trkpt>
      <trkpt lat="44.19724" lon="6.03673">
        <ele>815.151</ele>
        <time>2019-11-10T13:19:10Z</time>
      </trkpt>
      <trkpt lat="44.19736" lon="6.0367">
        <ele>816.703</ele>
        <time>2019-11-10T13:19:16Z</time>
      </trkpt>
      <trkpt lat="44.19747" lon="6.03666">
        <ele>817.957</ele>
        <time>2019-11-10T13:19:21Z</time>
      </trkpt>
      <trkpt lat="44.1976" lon="6.0366">
        <ele>818.75</ele>
        <time>2019-11-10T13:19:27Z</time>
      </trkpt>
      <trkpt lat="44.19773" lon="6.03653">
        <ele>819.585</ele>
        <time>2019-11-10T13:19:32Z</time>
      </trkpt>
      <trkpt lat="44.19787" lon="6.03648">
        <ele>820.023</ele>
        <time>2019-11-10T13:19:37Z</time>
      </trkpt>
      <trkpt lat="44.19798" lon="6.03638">
        <ele>820.328</ele>
        <time>2019-11-10T13:19:42Z</time>
      </trkpt>
      <trkpt lat="44.19813" lon="6.03624">
        <ele>820.95</ele>
        <time>2019-11-10T13:19:48Z</time>
      </trkpt>
      <trkpt lat="44.19832" lon="6.03614">
        <ele>821.434</ele>
        <time>2019-11-10T13:19:54Z</time>
      </trkpt>
      <trkpt lat="44.19848" lon="6.03611">
        <ele>821.829</ele>
        <time>2019-11-10T13:19:59Z</time>
      </trkpt>
      <trkpt lat="44.19867" lon="6.03604">
        <ele>825.899</ele>
        <time>2019-11-10T13:20:05Z</time>
      </trkpt>
      <trkpt lat="44.19888" lon="6.03596">
        <ele>827.334</ele>
        <time>2019-11-10T13:20:11Z</time>
      </trkpt>
      <trkpt lat="44.19915" lon="6.03593">
        <ele>826.117</ele>
        <time>2019-11-10T13:20:17Z</time>
      </trkpt>
      <trkpt lat="44.19936" lon="6.03582">
        <ele>825.29</ele>
        <time>2019-11-10T13:20:23Z</time>
      </trkpt>
      <trkpt lat="44.19951" lon="6.03567">
        <ele>826.435</ele>
        <time>2019-11-10T13:20:28Z</time>
      </trkpt>
      <trkpt lat="44.19972" lon="6.0356">
        <ele>827.019</ele>
        <time>2019-11-10T13:20:34Z</time>
      </trkpt>
      <trkpt lat="44.19988" lon="6.03556">
        <ele>827.272</ele>
        <time>2019-11-10T13:20:39Z</time>
      </trkpt>
      <trkpt lat="44.20003" lon="6.03539">
        <ele>827.461</ele>
        <time>2019-11-10T13:20:45Z</time>
      </trkpt>
      <trkpt lat="44.20012" lon="6.03526">
        <ele>827.83</ele>
        <time>2019-11-10T13:20:51Z</time>
      </trkpt>
      <trkpt lat="44.2002" lon="6.03511">
        <ele>828.3</ele>
        <time>2019-11-10T13:20:57Z</time>
      </trkpt>
      <trkpt lat="44.2003" lon="6.03495">
        <ele>828.833</ele>
        <time>2019-11-10T13:21:03Z</time>
      </trkpt>
      <trkpt lat="44.20043" lon="6.03484">
        <ele>830.714</ele>
        <time>2019-11-10T13:21:08Z</time>
      </trkpt>
      <trkpt lat="44.20055" lon="6.03469">
        <ele>831.714</ele>
        <time>2019-11-10T13:21:14Z</time>
      </trkpt>
      <trkpt lat="44.20061" lon="6.03456">
        <ele>832.512</ele>
        <time>2019-11-10T13:21:19Z</time>
      </trkpt>
      <trkpt lat="44.20065" lon="6.03442">
        <ele>833.156</ele>
        <time>2019-11-10T13:21:24Z</time>
      </trkpt>
      <trkpt lat="44.20068" lon="6.03424">
        <ele>833.687</ele>
        <time>2019-11-10T13:21:30Z</time>
      </trkpt>
      <trkpt lat="44.20075" lon="6.03407">
        <ele>834.19</ele>
        <time>2019-11-10T13:21:36Z</time>
      </trkpt>
      <trkpt lat="44.20087" lon="6.03405">
        <ele>834.549</ele>
        <time>2019-11-10T13:21:41Z</time>
      </trkpt>
      <trkpt lat="44.20092" lon="6.0342">
        <ele>834.854</ele>
        <time>2019-11-10T13:21:47Z</time>
      </trkpt>
      <trkpt lat="44.20092" lon="6.03437">
        <ele>835.891</ele>
        <time>2019-11-10T13:21:53Z</time>
      </trkpt>
      <trkpt lat="44.20094" lon="6.03448">
        <ele>836.786</ele>
        <time>2019-11-10T13:21:58Z</time>
      </trkpt>
      <trkpt lat="44.20102" lon="6.03455">
        <ele>837.308</ele>
        <time>2019-11-10T13:22:04Z</time>
      </trkpt>
      <trkpt lat="44.20109" lon="6.03457">
        <ele>837.417</ele>
        <time>2019-11-10T13:22:09Z</time>
      </trkpt>
      <trkpt lat="44.20117" lon="6.03453">
        <ele>837.775</ele>
        <time>2019-11-10T13:22:14Z</time>
      </trkpt>
      <trkpt lat="44.20124" lon="6.03441">
        <ele>838.786</ele>
        <time>2019-11-10T13:22:20Z</time>
      </trkpt>
      <trkpt lat="44.20128" lon="6.03433">
        <ele>839.464</ele>
        <time>2019-11-10T13:22:25Z</time>
      </trkpt>
      <trkpt lat="44.20136" lon="6.03429">
        <ele>840.559</ele>
        <time>2019-11-10T13:22:31Z</time>
      </trkpt>
      <trkpt lat="44.20146" lon="6.0343">
        <ele>841.094</ele>
        <time>2019-11-10T13:22:37Z</time>
      </trkpt>
      <trkpt lat="44.20156" lon="6.03438">
        <ele>841.314</ele>
        <time>2019-11-10T13:22:43Z</time>
      </trkpt>
      <trkpt lat="44.20161" lon="6.03446">
        <ele>841.261</ele>
        <time>2019-11-10T13:22:48Z</time>
      </trkpt>
      <trkpt lat="44.20167" lon="6.03452">
        <ele>841.605</ele>
        <time>2019-11-10T13:22:54Z</time>
      </trkpt>
      <trkpt lat="44.20177" lon="6.03461">
        <ele>842.477</ele>
        <time>2019-11-10T13:23:00Z</time>
      </trkpt>
      <trkpt lat="44.20185" lon="6.03466">
        <ele>843.549</ele>
        <time>2019-11-10T13:23:05Z</time>
      </trkpt>
      <trkpt lat="44.20192" lon="6.03472">
        <ele>844.578</ele>
        <time>2019-11-10T13:23:10Z</time>
      </trkpt>
      <trkpt lat="44.20202" lon="6.03476">
        <ele>845.174</ele>
        <time>2019-11-10T13:23:16Z</time>
      </trkpt>
      <trkpt lat="44.2021" lon="6.03479">
        <ele>845.688</ele>
        <time>2019-11-10T13:23:21Z</time>
      </trkpt>
      <trkpt lat="44.20222" lon="6.03482">
        <ele>846.137</ele>
        <time>2019-11-10T13:23:27Z</time>
      </trkpt>
      <trkpt lat="44.20233" lon="6.03484">
        <ele>846.646</ele>
        <time>2019-11-10T13:23:32Z</time>
      </trkpt>
      <trkpt lat="44.2024" lon="6.03485">
        <ele>846.994</ele>
        <time>2019-11-10T13:23:37Z</time>
      </trkpt>
      <trkpt lat="44.20248" lon="6.03488">
        <ele>847.483</ele>
        <time>2019-11-10T13:23:43Z</time>
      </trkpt>
      <trkpt lat="44.20258" lon="6.03492">
        <ele>848.238</ele>
        <time>2019-11-10T13:23:49Z</time>
      </trkpt>
      <trkpt lat="44.20265" lon="6.03497">
        <ele>848.684</ele>
        <time>2019-11-10T13:23:54Z</time>
      </trkpt>
      <trkpt lat="44.20272" lon="6.03499">
        <ele>849.388</ele>
        <time>2019-11-10T13:23:59Z</time>
      </trkpt>
      <trkpt lat="44.20281" lon="6.03505">
        <ele>850.357</ele>
        <time>2019-11-10T13:24:05Z</time>
      </trkpt>
      <trkpt lat="44.20291" lon="6.0351">
        <ele>851.432</ele>
        <time>2019-11-10T13:24:11Z</time>
      </trkpt>
      <trkpt lat="44.20299" lon="6.03518">
        <ele>852.805</ele>
        <time>2019-11-10T13:24:17Z</time>
      </trkpt>
      <trkpt lat="44.20309" lon="6.03526">
        <ele>854.184</ele>
        <time>2019-11-10T13:24:22Z</time>
      </trkpt>
      <trkpt lat="44.20318" lon="6.03532">
        <ele>855.478</ele>
        <time>2019-11-10T13:24:28Z</time>
      </trkpt>
      <trkpt lat="44.20327" lon="6.0354">
        <ele>856.745</ele>
        <time>2019-11-10T13:24:34Z</time>
      </trkpt>
      <trkpt lat="44.2034" lon="6.03548">
        <ele>858.413</ele>
        <time>2019-11-10T13:24:40Z</time>
      </trkpt>
      <trkpt lat="44.20349" lon="6.03555">
        <ele>859.813</ele>
        <time>2019-11-10T13:24:46Z</time>
      </trkpt>
      <trkpt lat="44.20357" lon="6.03559">
        <ele>860.751</ele>
        <time>2019-11-10T13:24:51Z</time>
      </trkpt>
      <trkpt lat="44.20364" lon="6.03565">
        <ele>861.659</ele>
        <time>2019-11-10T13:24:57Z</time>
      </trkpt>
      <trkpt lat="44.20372" lon="6.03573">
        <ele>862.621</ele>
        <time>2019-11-10T13:25:03Z</time>
      </trkpt>
      <trkpt lat="44.20377" lon="6.03579">
        <ele>864.005</ele>
        <time>2019-11-10T13:25:08Z</time>
      </trkpt>
      <trkpt lat="44.20387" lon="6.03589">
        <ele>865.736</ele>
        <time>2019-11-10T13:25:14Z</time>
      </trkpt>
      <trkpt lat="44.20392" lon="6.03593">
        <ele>866.459</ele>
        <time>2019-11-10T13:25:19Z</time>
      </trkpt>
      <trkpt lat="44.204" lon="6.03597">
        <ele>867.556</ele>
        <time>2019-11-10T13:25:25Z</time>
      </trkpt>
      <trkpt lat="44.20408" lon="6.03604">
        <ele>868.81</ele>
        <time>2019-11-10T13:25:30Z</time>
      </trkpt>
      <trkpt lat="44.20416" lon="6.03609">
        <ele>871.504</ele>
        <time>2019-11-10T13:25:36Z</time>
      </trkpt>
      <trkpt lat="44.20426" lon="6.03619">
        <ele>874.262</ele>
        <time>2019-11-10T13:25:42Z</time>
      </trkpt>
      <trkpt lat="44.20435" lon="6.03627">
        <ele>874.928</ele>
        <time>2019-11-10T13:25:47Z</time>
      </trkpt>
      <trkpt lat="44.20446" lon="6.03633">
        <ele>874.784</ele>
        <time>2019-11-10T13:25:52Z</time>
      </trkpt>
      <trkpt lat="44.20457" lon="6.03634">
        <ele>873.962</ele>
        <time>2019-11-10T13:25:58Z</time>
      </trkpt>
      <trkpt lat="44.20471" lon="6.03631">
        <ele>873.666</ele>
        <time>2019-11-10T13:26:04Z</time>
      </trkpt>
      <trkpt lat="44.20482" lon="6.03626">
        <ele>873.668</ele>
        <time>2019-11-10T13:26:10Z</time>
      </trkpt>
      <trkpt lat="44.20488" lon="6.03619">
        <ele>874.329</ele>
        <time>2019-11-10T13:26:15Z</time>
      </trkpt>
      <trkpt lat="44.205" lon="6.03613">
        <ele>875.471</ele>
        <time>2019-11-10T13:26:21Z</time>
      </trkpt>
      <trkpt lat="44.20511" lon="6.03608">
        <ele>876.347</ele>
        <time>2019-11-10T13:26:26Z</time>
      </trkpt>
      <trkpt lat="44.20522" lon="6.03603">
        <ele>877.149</ele>
        <time>2019-11-10T13:26:32Z</time>
      </trkpt>
      <trkpt lat="44.20532" lon="6.03593">
        <ele>878.053</ele>
        <time>2019-11-10T13:26:38Z</time>
      </trkpt>
      <trkpt lat="44.20542" lon="6.03587">
        <ele>879.115</ele>
        <time>2019-11-10T13:26:44Z</time>
      </trkpt>
      <trkpt lat="44.20553" lon="6.03586">
        <ele>880.637</ele>
        <time>2019-11-10T13:26:50Z</time>
      </trkpt>
      <trkpt lat="44.20566" lon="6.0359">
        <ele>881.61</ele>
        <time>2019-11-10T13:26:56Z</time>
      </trkpt>
      <trkpt lat="44.20577" lon="6.0359">
        <ele>882.298</ele>
        <time>2019-11-10T13:27:02Z</time>
      </trkpt>
      <trkpt lat="44.20588" lon="6.03593">
        <ele>883.479</ele>
        <time>2019-11-10T13:27:08Z</time>
      </trkpt>
      <trkpt lat="44.20602" lon="6.03594">
        <ele>884.034</ele>
        <time>2019-11-10T13:27:14Z</time>
      </trkpt>
      <trkpt lat="44.20615" lon="6.03594">
        <ele>884.189</ele>
        <time>2019-11-10T13:27:20Z</time>
      </trkpt>
      <trkpt lat="44.20627" lon="6.03593">
        <ele>884.072</ele>
        <time>2019-11-10T13:27:26Z</time>
      </trkpt>
      <trkpt lat="44.20638" lon="6.03593">
        <ele>884.562</ele>
        <time>2019-11-10T13:27:32Z</time>
      </trkpt>
      <trkpt lat="44.2065" lon="6.03594">
        <ele>885.243</ele>
        <time>2019-11-10T13:27:38Z</time>
      </trkpt>
      <trkpt lat="44.20665" lon="6.03598">
        <ele>885.369</ele>
        <time>2019-11-10T13:27:44Z</time>
      </trkpt>
      <trkpt lat="44.20677" lon="6.03608">
        <ele>885.244</ele>
        <time>2019-11-10T13:27:50Z</time>
      </trkpt>
      <trkpt lat="44.20685" lon="6.03609">
        <ele>885.157</ele>
        <time>2019-11-10T13:27:56Z</time>
      </trkpt>
      <trkpt lat="44.20696" lon="6.03613">
        <ele>885.67</ele>
        <time>2019-11-10T13:28:02Z</time>
      </trkpt>
      <trkpt lat="44.20704" lon="6.03609">
        <ele>886.674</ele>
        <time>2019-11-10T13:28:08Z</time>
      </trkpt>
      <trkpt lat="44.20706" lon="6.03596">
        <ele>888.045</ele>
        <time>2019-11-10T13:28:14Z</time>
      </trkpt>
      <trkpt lat="44.2071" lon="6.03586">
        <ele>889.526</ele>
        <time>2019-11-10T13:28:20Z</time>
      </trkpt>
      <trkpt lat="44.20716" lon="6.03579">
        <ele>890.542</ele>
        <time>2019-11-10T13:28:25Z</time>
      </trkpt>
      <trkpt lat="44.20725" lon="6.03579">
        <ele>892.178</ele>
        <time>2019-11-10T13:28:31Z</time>
      </trkpt>
      <trkpt lat="44.20733" lon="6.03586">
        <ele>893.012</ele>
        <time>2019-11-10T13:28:36Z</time>
      </trkpt>
      <trkpt lat="44.2074" lon="6.03596">
        <ele>893.755</ele>
        <time>2019-11-10T13:28:42Z</time>
      </trkpt>
      <trkpt lat="44.20746" lon="6.03603">
        <ele>895.014</ele>
        <time>2019-11-10T13:28:47Z</time>
      </trkpt>
      <trkpt lat="44.20749" lon="6.03616">
        <ele>896.036</ele>
        <time>2019-11-10T13:28:52Z</time>
      </trkpt>
      <trkpt lat="44.20754" lon="6.0363">
        <ele>896.744</ele>
        <time>2019-11-10T13:28:58Z</time>
      </trkpt>
      <trkpt lat="44.20756" lon="6.03639">
        <ele>897.592</ele>
        <time>2019-11-10T13:29:03Z</time>
      </trkpt>
      <trkpt lat="44.2076" lon="6.03651">
        <ele>898.845</ele>
        <time>2019-11-10T13:29:09Z</time>
      </trkpt>
      <trkpt lat="44.20763" lon="6.03663">
        <ele>899.869</ele>
        <time>2019-11-10T13:29:14Z</time>
      </trkpt>
      <trkpt lat="44.20765" lon="6.03677">
        <ele>901.192</ele>
        <time>2019-11-10T13:29:20Z</time>
      </trkpt>
      <trkpt lat="44.20769" lon="6.03693">
        <ele>901.847</ele>
        <time>2019-11-10T13:29:26Z</time>
      </trkpt>
      <trkpt lat="44.20773" lon="6.03706">
        <ele>901.774</ele>
        <time>2019-11-10T13:29:32Z</time>
      </trkpt>
      <trkpt lat="44.20775" lon="6.03716">
        <ele>902.33</ele>
        <time>2019-11-10T13:29:38Z</time>
      </trkpt>
      <trkpt lat="44.20777" lon="6.03725">
        <ele>903.255</ele>
        <time>2019-11-10T13:29:44Z</time>
      </trkpt>
      <trkpt lat="44.20782" lon="6.03733">
        <ele>904.442</ele>
        <time>2019-11-10T13:29:50Z</time>
      </trkpt>
      <trkpt lat="44.20791" lon="6.03735">
        <ele>905.999</ele>
        <time>2019-11-10T13:29:56Z</time>
      </trkpt>
      <trkpt lat="44.20802" lon="6.03736">
        <ele>907.65</ele>
        <time>2019-11-10T13:30:02Z</time>
      </trkpt>
      <trkpt lat="44.20809" lon="6.03735">
        <ele>908.996</ele>
        <time>2019-11-10T13:30:08Z</time>
      </trkpt>
      <trkpt lat="44.2082" lon="6.0373">
        <ele>910.405</ele>
        <time>2019-11-10T13:30:14Z</time>
      </trkpt>
      <trkpt lat="44.20828" lon="6.03729">
        <ele>912.24</ele>
        <time>2019-11-10T13:30:19Z</time>
      </trkpt>
      <trkpt lat="44.20836" lon="6.03725">
        <ele>914.016</ele>
        <time>2019-11-10T13:30:24Z</time>
      </trkpt>
      <trkpt lat="44.20845" lon="6.03726">
        <ele>915.82</ele>
        <time>2019-11-10T13:30:30Z</time>
      </trkpt>
      <trkpt lat="44.20858" lon="6.03724">
        <ele>917.399</ele>
        <time>2019-11-10T13:30:36Z</time>
      </trkpt>
      <trkpt lat="44.20871" lon="6.03722">
        <ele>918.844</ele>
        <time>2019-11-10T13:30:42Z</time>
      </trkpt>
      <trkpt lat="44.20881" lon="6.03718">
        <ele>919.833</ele>
        <time>2019-11-10T13:30:48Z</time>
      </trkpt>
      <trkpt lat="44.20892" lon="6.03715">
        <ele>920.959</ele>
        <time>2019-11-10T13:30:54Z</time>
      </trkpt>
      <trkpt lat="44.20897" lon="6.03716">
        <ele>922.127</ele>
        <time>2019-11-10T13:31:00Z</time>
      </trkpt>
      <trkpt lat="44.20902" lon="6.0372">
        <ele>922.62</ele>
        <time>2019-11-10T13:31:06Z</time>
      </trkpt>
      <trkpt lat="44.20907" lon="6.03731">
        <ele>922.931</ele>
        <time>2019-11-10T13:31:12Z</time>
      </trkpt>
      <trkpt lat="44.20913" lon="6.03737">
        <ele>922.993</ele>
        <time>2019-11-10T13:31:17Z</time>
      </trkpt>
      <trkpt lat="44.20913" lon="6.03737">
        <ele>922.811</ele>
        <time>2019-11-10T13:31:23Z</time>
      </trkpt>
      <trkpt lat="44.20913" lon="6.03737">
        <ele>922.702</ele>
        <time>2019-11-10T13:31:28Z</time>
      </trkpt>
      <trkpt lat="44.20913" lon="6.03737">
        <ele>922.556</ele>
        <time>2019-11-10T13:31:34Z</time>
      </trkpt>
      <trkpt lat="44.20913" lon="6.03737">
        <ele>922.712</ele>
        <time>2019-11-10T13:31:39Z</time>
      </trkpt>
      <trkpt lat="44.20913" lon="6.03737">
        <ele>922.841</ele>
        <time>2019-11-10T13:31:45Z</time>
      </trkpt>
      <trkpt lat="44.20913" lon="6.03737">
        <ele>922.823</ele>
        <time>2019-11-10T13:31:50Z</time>
      </trkpt>
      <trkpt lat="44.20913" lon="6.03737">
        <ele>922.61</ele>
        <time>2019-11-10T13:31:56Z</time>
      </trkpt>
      <trkpt lat="44.20913" lon="6.03738">
        <ele>921.703</ele>
        <time>2019-11-10T13:32:02Z</time>
      </trkpt>
      <trkpt lat="44.20912" lon="6.03738">
        <ele>921.706</ele>
        <time>2019-11-10T13:32:08Z</time>
      </trkpt>
      <trkpt lat="44.20912" lon="6.03738">
        <ele>921.749</ele>
        <time>2019-11-10T13:32:13Z</time>
      </trkpt>
      <trkpt lat="44.20913" lon="6.03739">
        <ele>922.409</ele>
        <time>2019-11-10T13:32:18Z</time>
      </trkpt>
      <trkpt lat="44.20915" lon="6.03741">
        <ele>922.73</ele>
        <time>2019-11-10T13:32:23Z</time>
      </trkpt>
      <trkpt lat="44.20916" lon="6.03739">
        <ele>922.872</ele>
        <time>2019-11-10T13:32:29Z</time>
      </trkpt>
      <trkpt lat="44.20915" lon="6.0374">
        <ele>922.812</ele>
        <time>2019-11-10T13:32:34Z</time>
      </trkpt>
      <trkpt lat="44.20915" lon="6.0374">
        <ele>922.827</ele>
        <time>2019-11-10T13:32:39Z</time>
      </trkpt>
      <trkpt lat="44.20915" lon="6.0374">
        <ele>923.094</ele>
        <time>2019-11-10T13:32:45Z</time>
      </trkpt>
      <trkpt lat="44.20913" lon="6.03742">
        <ele>923.574</ele>
        <time>2019-11-10T13:32:50Z</time>
      </trkpt>
      <trkpt lat="44.20913" lon="6.03742">
        <ele>923.619</ele>
        <time>2019-11-10T13:32:56Z</time>
      </trkpt>
      <trkpt lat="44.20913" lon="6.03742">
        <ele>923.621</ele>
        <time>2019-11-10T13:33:02Z</time>
      </trkpt>
      <trkpt lat="44.20912" lon="6.03742">
        <ele>923.611</ele>
        <time>2019-11-10T13:33:07Z</time>
      </trkpt>
      <trkpt lat="44.20912" lon="6.03741">
        <ele>923.672</ele>
        <time>2019-11-10T13:33:13Z</time>
      </trkpt>
      <trkpt lat="44.20912" lon="6.03741">
        <ele>923.911</ele>
        <time>2019-11-10T13:33:19Z</time>
      </trkpt>
      <trkpt lat="44.20912" lon="6.03741">
        <ele>924.125</ele>
        <time>2019-11-10T13:33:24Z</time>
      </trkpt>
      <trkpt lat="44.20914" lon="6.03744">
        <ele>924.808</ele>
        <time>2019-11-10T13:33:30Z</time>
      </trkpt>
      <trkpt lat="44.20914" lon="6.03744">
        <ele>924.67</ele>
        <time>2019-11-10T13:33:36Z</time>
      </trkpt>
      <trkpt lat="44.20914" lon="6.03744">
        <ele>924.642</ele>
        <time>2019-11-10T13:33:41Z</time>
      </trkpt>
      <trkpt lat="44.20914" lon="6.03744">
        <ele>924.81</ele>
        <time>2019-11-10T13:33:47Z</time>
      </trkpt>
      <trkpt lat="44.20914" lon="6.03744">
        <ele>925.128</ele>
        <time>2019-11-10T13:33:52Z</time>
      </trkpt>
      <trkpt lat="44.20916" lon="6.03743">
        <ele>926.595</ele>
        <time>2019-11-10T13:33:58Z</time>
      </trkpt>
      <trkpt lat="44.20915" lon="6.03742">
        <ele>927.612</ele>
        <time>2019-11-10T13:34:04Z</time>
      </trkpt>
      <trkpt lat="44.20915" lon="6.03742">
        <ele>927.67</ele>
        <time>2019-11-10T13:34:10Z</time>
      </trkpt>
      <trkpt lat="44.20915" lon="6.03742">
        <ele>927.665</ele>
        <time>2019-11-10T13:34:15Z</time>
      </trkpt>
      <trkpt lat="44.20915" lon="6.03742">
        <ele>927.759</ele>
        <time>2019-11-10T13:34:21Z</time>
      </trkpt>
      <trkpt lat="44.20915" lon="6.03742">
        <ele>927.795</ele>
        <time>2019-11-10T13:34:26Z</time>
      </trkpt>
      <trkpt lat="44.20915" lon="6.03742">
        <ele>928.374</ele>
        <time>2019-11-10T13:34:32Z</time>
      </trkpt>
      <trkpt lat="44.20915" lon="6.03742">
        <ele>928.405</ele>
        <time>2019-11-10T13:34:38Z</time>
      </trkpt>
      <trkpt lat="44.20915" lon="6.03742">
        <ele>928.289</ele>
        <time>2019-11-10T13:34:43Z</time>
      </trkpt>
      <trkpt lat="44.20915" lon="6.03742">
        <ele>928.069</ele>
        <time>2019-11-10T13:34:49Z</time>
      </trkpt>
      <trkpt lat="44.20914" lon="6.03743">
        <ele>927.51</ele>
        <time>2019-11-10T13:34:54Z</time>
      </trkpt>
      <trkpt lat="44.20914" lon="6.03742">
        <ele>927.46</ele>
        <time>2019-11-10T13:35:00Z</time>
      </trkpt>
      <trkpt lat="44.20914" lon="6.03742">
        <ele>927.068</ele>
        <time>2019-11-10T13:35:06Z</time>
      </trkpt>
      <trkpt lat="44.20914" lon="6.03743">
        <ele>926.268</ele>
        <time>2019-11-10T13:35:11Z</time>
      </trkpt>
      <trkpt lat="44.2092" lon="6.03754">
        <ele>925.515</ele>
        <time>2019-11-10T13:35:17Z</time>
      </trkpt>
      <trkpt lat="44.20924" lon="6.03767">
        <ele>925.375</ele>
        <time>2019-11-10T13:35:23Z</time>
      </trkpt>
      <trkpt lat="44.2093" lon="6.03785">
        <ele>925.853</ele>
        <time>2019-11-10T13:35:29Z</time>
      </trkpt>
      <trkpt lat="44.20933" lon="6.0381">
        <ele>926.97</ele>
        <time>2019-11-10T13:35:35Z</time>
      </trkpt>
      <trkpt lat="44.20933" lon="6.03832">
        <ele>928.524</ele>
        <time>2019-11-10T13:35:41Z</time>
      </trkpt>
      <trkpt lat="44.20926" lon="6.03847">
        <ele>930.56</ele>
        <time>2019-11-10T13:35:46Z</time>
      </trkpt>
      <trkpt lat="44.20918" lon="6.03863">
        <ele>932.658</ele>
        <time>2019-11-10T13:35:52Z</time>
      </trkpt>
      <trkpt lat="44.20915" lon="6.03879">
        <ele>934.288</ele>
        <time>2019-11-10T13:35:57Z</time>
      </trkpt>
      <trkpt lat="44.20911" lon="6.03901">
        <ele>935.754</ele>
        <time>2019-11-10T13:36:03Z</time>
      </trkpt>
      <trkpt lat="44.20903" lon="6.03917">
        <ele>935.997</ele>
        <time>2019-11-10T13:36:09Z</time>
      </trkpt>
      <trkpt lat="44.20883" lon="6.03937">
        <ele>934.785</ele>
        <time>2019-11-10T13:36:15Z</time>
      </trkpt>
      <trkpt lat="44.20859" lon="6.03945">
        <ele>935.615</ele>
        <time>2019-11-10T13:36:20Z</time>
      </trkpt>
      <trkpt lat="44.20854" lon="6.03978">
        <ele>931.772</ele>
        <time>2019-11-10T13:36:26Z</time>
      </trkpt>
      <trkpt lat="44.20875" lon="6.03991">
        <ele>925.917</ele>
        <time>2019-11-10T13:36:32Z</time>
      </trkpt>
      <trkpt lat="44.209" lon="6.03985">
        <ele>924.165</ele>
        <time>2019-11-10T13:36:37Z</time>
      </trkpt>
      <trkpt lat="44.20931" lon="6.03982">
        <ele>926.51</ele>
        <time>2019-11-10T13:36:43Z</time>
      </trkpt>
      <trkpt lat="44.20958" lon="6.03996">
        <ele>927.315</ele>
        <time>2019-11-10T13:36:49Z</time>
      </trkpt>
      <trkpt lat="44.20959" lon="6.04025">
        <ele>924.383</ele>
        <time>2019-11-10T13:36:55Z</time>
      </trkpt>
      <trkpt lat="44.20935" lon="6.04012">
        <ele>922.704</ele>
        <time>2019-11-10T13:37:01Z</time>
      </trkpt>
      <trkpt lat="44.20896" lon="6.0403">
        <ele>920.706</ele>
        <time>2019-11-10T13:37:07Z</time>
      </trkpt>
      <trkpt lat="44.20856" lon="6.04033">
        <ele>918.696</ele>
        <time>2019-11-10T13:37:13Z</time>
      </trkpt>
      <trkpt lat="44.20819" lon="6.04029">
        <ele>914.965</ele>
        <time>2019-11-10T13:37:18Z</time>
      </trkpt>
      <trkpt lat="44.20776" lon="6.04006">
        <ele>909.568</ele>
        <time>2019-11-10T13:37:24Z</time>
      </trkpt>
      <trkpt lat="44.20757" lon="6.04014">
        <ele>907.533</ele>
        <time>2019-11-10T13:37:29Z</time>
      </trkpt>
      <trkpt lat="44.20778" lon="6.04039">
        <ele>900.064</ele>
        <time>2019-11-10T13:37:35Z</time>
      </trkpt>
      <trkpt lat="44.20818" lon="6.04054">
        <ele>895.92</ele>
        <time>2019-11-10T13:37:41Z</time>
      </trkpt>
      <trkpt lat="44.20856" lon="6.04084">
        <ele>896.252</ele>
        <time>2019-11-10T13:37:47Z</time>
      </trkpt>
      <trkpt lat="44.20902" lon="6.0411">
        <ele>893.709</ele>
        <time>2019-11-10T13:37:53Z</time>
      </trkpt>
      <trkpt lat="44.20931" lon="6.04157">
        <ele>889.734</ele>
        <time>2019-11-10T13:37:58Z</time>
      </trkpt>
      <trkpt lat="44.20911" lon="6.04205">
        <ele>882.322</ele>
        <time>2019-11-10T13:38:04Z</time>
      </trkpt>
      <trkpt lat="44.20896" lon="6.04252">
        <ele>880.445</ele>
        <time>2019-11-10T13:38:09Z</time>
      </trkpt>
      <trkpt lat="44.20902" lon="6.04284">
        <ele>881.179</ele>
        <time>2019-11-10T13:38:14Z</time>
      </trkpt>
      <trkpt lat="44.20936" lon="6.04308">
        <ele>882.444</ele>
        <time>2019-11-10T13:38:20Z</time>
      </trkpt>
      <trkpt lat="44.20929" lon="6.04339">
        <ele>877.61</ele>
        <time>2019-11-10T13:38:26Z</time>
      </trkpt>
      <trkpt lat="44.20908" lon="6.04358">
        <ele>873.988</ele>
        <time>2019-11-10T13:38:31Z</time>
      </trkpt>
      <trkpt lat="44.20864" lon="6.0438">
        <ele>868.889</ele>
        <time>2019-11-10T13:38:37Z</time>
      </trkpt>
      <trkpt lat="44.20814" lon="6.04388">
        <ele>866.947</ele>
        <time>2019-11-10T13:38:42Z</time>
      </trkpt>
      <trkpt lat="44.20761" lon="6.04353">
        <ele>861.907</ele>
        <time>2019-11-10T13:38:48Z</time>
      </trkpt>
      <trkpt lat="44.20751" lon="6.04298">
        <ele>855.294</ele>
        <time>2019-11-10T13:38:54Z</time>
      </trkpt>
      <trkpt lat="44.20744" lon="6.04273">
        <ele>848.238</ele>
        <time>2019-11-10T13:39:00Z</time>
      </trkpt>
      <trkpt lat="44.20736" lon="6.04319">
        <ele>847.29</ele>
        <time>2019-11-10T13:39:06Z</time>
      </trkpt>
      <trkpt lat="44.20753" lon="6.04389">
        <ele>843.975</ele>
        <time>2019-11-10T13:39:12Z</time>
      </trkpt>
      <trkpt lat="44.20757" lon="6.04443">
        <ele>842.673</ele>
        <time>2019-11-10T13:39:17Z</time>
      </trkpt>
      <trkpt lat="44.2079" lon="6.0448">
        <ele>839.019</ele>
        <time>2019-11-10T13:39:22Z</time>
      </trkpt>
      <trkpt lat="44.20841" lon="6.04509">
        <ele>835.016</ele>
        <time>2019-11-10T13:39:28Z</time>
      </trkpt>
      <trkpt lat="44.20885" lon="6.04522">
        <ele>829.744</ele>
        <time>2019-11-10T13:39:34Z</time>
      </trkpt>
      <trkpt lat="44.20909" lon="6.04507">
        <ele>822.445</ele>
        <time>2019-11-10T13:39:40Z</time>
      </trkpt>
      <trkpt lat="44.20925" lon="6.04506">
        <ele>817.372</ele>
        <time>2019-11-10T13:39:45Z</time>
      </trkpt>
      <trkpt lat="44.20914" lon="6.04536">
        <ele>815.239</ele>
        <time>2019-11-10T13:39:51Z</time>
      </trkpt>
      <trkpt lat="44.20884" lon="6.04554">
        <ele>812.895</ele>
        <time>2019-11-10T13:39:56Z</time>
      </trkpt>
      <trkpt lat="44.20842" lon="6.04573">
        <ele>810.682</ele>
        <time>2019-11-10T13:40:01Z</time>
      </trkpt>
      <trkpt lat="44.208" lon="6.04593">
        <ele>807.991</ele>
        <time>2019-11-10T13:40:06Z</time>
      </trkpt>
      <trkpt lat="44.2074" lon="6.0458">
        <ele>799.849</ele>
        <time>2019-11-10T13:40:12Z</time>
      </trkpt>
      <trkpt lat="44.20672" lon="6.04577">
        <ele>795.173</ele>
        <time>2019-11-10T13:40:18Z</time>
      </trkpt>
      <trkpt lat="44.20614" lon="6.04565">
        <ele>789.799</ele>
        <time>2019-11-10T13:40:24Z</time>
      </trkpt>
      <trkpt lat="44.2058" lon="6.04511">
        <ele>780.575</ele>
        <time>2019-11-10T13:40:30Z</time>
      </trkpt>
      <trkpt lat="44.20537" lon="6.04505">
        <ele>776.101</ele>
        <time>2019-11-10T13:40:36Z</time>
      </trkpt>
      <trkpt lat="44.20523" lon="6.04447">
        <ele>771.556</ele>
        <time>2019-11-10T13:40:42Z</time>
      </trkpt>
      <trkpt lat="44.20492" lon="6.044">
        <ele>765.238</ele>
        <time>2019-11-10T13:40:47Z</time>
      </trkpt>
      <trkpt lat="44.20462" lon="6.04343">
        <ele>758.22</ele>
        <time>2019-11-10T13:40:53Z</time>
      </trkpt>
      <trkpt lat="44.20444" lon="6.04333">
        <ele>752.509</ele>
        <time>2019-11-10T13:40:58Z</time>
      </trkpt>
      <trkpt lat="44.2045" lon="6.04378">
        <ele>748.615</ele>
        <time>2019-11-10T13:41:04Z</time>
      </trkpt>
      <trkpt lat="44.20463" lon="6.04427">
        <ele>746.759</ele>
        <time>2019-11-10T13:41:10Z</time>
      </trkpt>
      <trkpt lat="44.20467" lon="6.04478">
        <ele>746.498</ele>
        <time>2019-11-10T13:41:15Z</time>
      </trkpt>
      <trkpt lat="44.20452" lon="6.04525">
        <ele>746.022</ele>
        <time>2019-11-10T13:41:20Z</time>
      </trkpt>
      <trkpt lat="44.20459" lon="6.0458">
        <ele>745.179</ele>
        <time>2019-11-10T13:41:25Z</time>
      </trkpt>
      <trkpt lat="44.20485" lon="6.04655">
        <ele>744.772</ele>
        <time>2019-11-10T13:41:31Z</time>
      </trkpt>
      <trkpt lat="44.20503" lon="6.04685">
        <ele>738.327</ele>
        <time>2019-11-10T13:41:37Z</time>
      </trkpt>
      <trkpt lat="44.20477" lon="6.04684">
        <ele>731.181</ele>
        <time>2019-11-10T13:41:42Z</time>
      </trkpt>
      <trkpt lat="44.20423" lon="6.04679">
        <ele>729.317</ele>
        <time>2019-11-10T13:41:48Z</time>
      </trkpt>
      <trkpt lat="44.20377" lon="6.0468">
        <ele>725.862</ele>
        <time>2019-11-10T13:41:53Z</time>
      </trkpt>
      <trkpt lat="44.20341" lon="6.04723">
        <ele>721.037</ele>
        <time>2019-11-10T13:41:59Z</time>
      </trkpt>
      <trkpt lat="44.20308" lon="6.04731">
        <ele>718.807</ele>
        <time>2019-11-10T13:42:04Z</time>
      </trkpt>
      <trkpt lat="44.20267" lon="6.04731">
        <ele>710.967</ele>
        <time>2019-11-10T13:42:10Z</time>
      </trkpt>
      <trkpt lat="44.20234" lon="6.04757">
        <ele>707.428</ele>
        <time>2019-11-10T13:42:15Z</time>
      </trkpt>
      <trkpt lat="44.20197" lon="6.04746">
        <ele>703.924</ele>
        <time>2019-11-10T13:42:21Z</time>
      </trkpt>
      <trkpt lat="44.20157" lon="6.04747">
        <ele>705.197</ele>
        <time>2019-11-10T13:42:27Z</time>
      </trkpt>
      <trkpt lat="44.2012" lon="6.04757">
        <ele>703.417</ele>
        <time>2019-11-10T13:42:33Z</time>
      </trkpt>
      <trkpt lat="44.20092" lon="6.04789">
        <ele>701.698</ele>
        <time>2019-11-10T13:42:39Z</time>
      </trkpt>
      <trkpt lat="44.2005" lon="6.04814">
        <ele>709.062</ele>
        <time>2019-11-10T13:42:45Z</time>
      </trkpt>
      <trkpt lat="44.20005" lon="6.04821">
        <ele>705.529</ele>
        <time>2019-11-10T13:42:51Z</time>
      </trkpt>
      <trkpt lat="44.1998" lon="6.04849">
        <ele>697.771</ele>
        <time>2019-11-10T13:42:57Z</time>
      </trkpt>
      <trkpt lat="44.1995" lon="6.04865">
        <ele>692.849</ele>
        <time>2019-11-10T13:43:02Z</time>
      </trkpt>
      <trkpt lat="44.19914" lon="6.04872">
        <ele>691.076</ele>
        <time>2019-11-10T13:43:07Z</time>
      </trkpt>
      <trkpt lat="44.19876" lon="6.04882">
        <ele>692.153</ele>
        <time>2019-11-10T13:43:13Z</time>
      </trkpt>
      <trkpt lat="44.19842" lon="6.04908">
        <ele>696.088</ele>
        <time>2019-11-10T13:43:19Z</time>
      </trkpt>
      <trkpt lat="44.19813" lon="6.04928">
        <ele>697.935</ele>
        <time>2019-11-10T13:43:24Z</time>
      </trkpt>
      <trkpt lat="44.19774" lon="6.0495">
        <ele>692.234</ele>
        <time>2019-11-10T13:43:30Z</time>
      </trkpt>
      <trkpt lat="44.19742" lon="6.04961">
        <ele>685.55</ele>
        <time>2019-11-10T13:43:35Z</time>
      </trkpt>
      <trkpt lat="44.19716" lon="6.0497">
        <ele>686.617</ele>
        <time>2019-11-10T13:43:40Z</time>
      </trkpt>
      <trkpt lat="44.19708" lon="6.0497">
        <ele>685.822</ele>
        <time>2019-11-10T13:43:46Z</time>
      </trkpt>
      <trkpt lat="44.19696" lon="6.04977">
        <ele>685.737</ele>
        <time>2019-11-10T13:43:52Z</time>
      </trkpt>
      <trkpt lat="44.19679" lon="6.04986">
        <ele>687.411</ele>
        <time>2019-11-10T13:43:58Z</time>
      </trkpt>
      <trkpt lat="44.19661" lon="6.04996">
        <ele>687.77</ele>
        <time>2019-11-10T13:44:03Z</time>
      </trkpt>
      <trkpt lat="44.19643" lon="6.05004">
        <ele>687.409</ele>
        <time>2019-11-10T13:44:09Z</time>
      </trkpt>
      <trkpt lat="44.19622" lon="6.04997">
        <ele>687.857</ele>
        <time>2019-11-10T13:44:15Z</time>
      </trkpt>
      <trkpt lat="44.19604" lon="6.04991">
        <ele>687.311</ele>
        <time>2019-11-10T13:44:20Z</time>
      </trkpt>
      <trkpt lat="44.19585" lon="6.04993">
        <ele>686.874</ele>
        <time>2019-11-10T13:44:26Z</time>
      </trkpt>
      <trkpt lat="44.19585" lon="6.04993">
        <ele>686.688</ele>
        <time>2019-11-10T13:44:32Z</time>
      </trkpt>
      <trkpt lat="44.19585" lon="6.04993">
        <ele>686.404</ele>
        <time>2019-11-10T13:44:37Z</time>
      </trkpt>
      <trkpt lat="44.19585" lon="6.04993">
        <ele>686.174</ele>
        <time>2019-11-10T13:44:43Z</time>
      </trkpt>
      <trkpt lat="44.19585" lon="6.04993">
        <ele>686.048</ele>
        <time>2019-11-10T13:44:48Z</time>
      </trkpt>
      <trkpt lat="44.19585" lon="6.04993">
        <ele>685.973</ele>
        <time>2019-11-10T13:44:54Z</time>
      </trkpt>
      <trkpt lat="44.19585" lon="6.04993">
        <ele>685.892</ele>
        <time>2019-11-10T13:44:59Z</time>
      </trkpt>
      <trkpt lat="44.19585" lon="6.04993">
        <ele>685.734</ele>
        <time>2019-11-10T13:45:05Z</time>
      </trkpt>
      <trkpt lat="44.19585" lon="6.04993">
        <ele>685.61</ele>
        <time>2019-11-10T13:45:10Z</time>
      </trkpt>
      <trkpt lat="44.19585" lon="6.04993">
        <ele>685.413</ele>
        <time>2019-11-10T13:45:16Z</time>
      </trkpt>
      <trkpt lat="44.19585" lon="6.04993">
        <ele>684.845</ele>
        <time>2019-11-10T13:45:22Z</time>
      </trkpt>
      <trkpt lat="44.19569" lon="6.04993">
        <ele>684.265</ele>
        <time>2019-11-10T13:45:27Z</time>
      </trkpt>
      <trkpt lat="44.19551" lon="6.04992">
        <ele>685.034</ele>
        <time>2019-11-10T13:45:32Z</time>
      </trkpt>
      <trkpt lat="44.19534" lon="6.04982">
        <ele>684.904</ele>
        <time>2019-11-10T13:45:37Z</time>
      </trkpt>
      <trkpt lat="44.19506" lon="6.04965">
        <ele>684.401</ele>
        <time>2019-11-10T13:45:43Z</time>
      </trkpt>
      <trkpt lat="44.19477" lon="6.04956">
        <ele>687.965</ele>
        <time>2019-11-10T13:45:49Z</time>
      </trkpt>
      <trkpt lat="44.19457" lon="6.04944">
        <ele>689.519</ele>
        <time>2019-11-10T13:45:54Z</time>
      </trkpt>
      <trkpt lat="44.19439" lon="6.04922">
        <ele>685.467</ele>
        <time>2019-11-10T13:45:59Z</time>
      </trkpt>
      <trkpt lat="44.19414" lon="6.04899">
        <ele>683.523</ele>
        <time>2019-11-10T13:46:05Z</time>
      </trkpt>
      <trkpt lat="44.19391" lon="6.04884">
        <ele>682.087</ele>
        <time>2019-11-10T13:46:10Z</time>
      </trkpt>
      <trkpt lat="44.19367" lon="6.0487">
        <ele>679.309</ele>
        <time>2019-11-10T13:46:15Z</time>
      </trkpt>
      <trkpt lat="44.19345" lon="6.04839">
        <ele>678.77</ele>
        <time>2019-11-10T13:46:21Z</time>
      </trkpt>
      <trkpt lat="44.19319" lon="6.04808">
        <ele>676.699</ele>
        <time>2019-11-10T13:46:27Z</time>
      </trkpt>
      <trkpt lat="44.19293" lon="6.04778">
        <ele>675.145</ele>
        <time>2019-11-10T13:46:33Z</time>
      </trkpt>
      <trkpt lat="44.19272" lon="6.04755">
        <ele>679.32</ele>
        <time>2019-11-10T13:46:38Z</time>
      </trkpt>
      <trkpt lat="44.19242" lon="6.04737">
        <ele>677.363</ele>
        <time>2019-11-10T13:46:44Z</time>
      </trkpt>
      <trkpt lat="44.19214" lon="6.04731">
        <ele>679.819</ele>
        <time>2019-11-10T13:46:49Z</time>
      </trkpt>
      <trkpt lat="44.19181" lon="6.04714">
        <ele>676.353</ele>
        <time>2019-11-10T13:46:55Z</time>
      </trkpt>
      <trkpt lat="44.19152" lon="6.04697">
        <ele>674.172</ele>
        <time>2019-11-10T13:47:00Z</time>
      </trkpt>
      <trkpt lat="44.19126" lon="6.04687">
        <ele>673.849</ele>
        <time>2019-11-10T13:47:05Z</time>
      </trkpt>
      <trkpt lat="44.19108" lon="6.04667">
        <ele>674.503</ele>
        <time>2019-11-10T13:47:11Z</time>
      </trkpt>
      <trkpt lat="44.19086" lon="6.0464">
        <ele>676.386</ele>
        <time>2019-11-10T13:47:17Z</time>
      </trkpt>
      <trkpt lat="44.19059" lon="6.04617">
        <ele>677.787</ele>
        <time>2019-11-10T13:47:23Z</time>
      </trkpt>
      <trkpt lat="44.19026" lon="6.04615">
        <ele>680.579</ele>
        <time>2019-11-10T13:47:29Z</time>
      </trkpt>
      <trkpt lat="44.19003" lon="6.04594">
        <ele>677.014</ele>
        <time>2019-11-10T13:47:34Z</time>
      </trkpt>
      <trkpt lat="44.18982" lon="6.0457">
        <ele>674.596</ele>
        <time>2019-11-10T13:47:39Z</time>
      </trkpt>
      <trkpt lat="44.18961" lon="6.0454">
        <ele>674.013</ele>
        <time>2019-11-10T13:47:45Z</time>
      </trkpt>
      <trkpt lat="44.18943" lon="6.04504">
        <ele>671.766</ele>
        <time>2019-11-10T13:47:51Z</time>
      </trkpt>
      <trkpt lat="44.18914" lon="6.04481">
        <ele>669.489</ele>
        <time>2019-11-10T13:47:57Z</time>
      </trkpt>
      <trkpt lat="44.18886" lon="6.04461">
        <ele>670.273</ele>
        <time>2019-11-10T13:48:02Z</time>
      </trkpt>
      <trkpt lat="44.18852" lon="6.0444">
        <ele>667.937</ele>
        <time>2019-11-10T13:48:08Z</time>
      </trkpt>
      <trkpt lat="44.18825" lon="6.04427">
        <ele>664.739</ele>
        <time>2019-11-10T13:48:13Z</time>
      </trkpt>
      <trkpt lat="44.18795" lon="6.04415">
        <ele>664.074</ele>
        <time>2019-11-10T13:48:19Z</time>
      </trkpt>
      <trkpt lat="44.18769" lon="6.04412">
        <ele>664.046</ele>
        <time>2019-11-10T13:48:25Z</time>
      </trkpt>
      <trkpt lat="44.18749" lon="6.0441">
        <ele>664.157</ele>
        <time>2019-11-10T13:48:31Z</time>
      </trkpt>
      <trkpt lat="44.18732" lon="6.04393">
        <ele>664.312</ele>
        <time>2019-11-10T13:48:37Z</time>
      </trkpt>
      <trkpt lat="44.18722" lon="6.04378">
        <ele>664.006</ele>
        <time>2019-11-10T13:48:42Z</time>
      </trkpt>
      <trkpt lat="44.18717" lon="6.04374">
        <ele>663.865</ele>
        <time>2019-11-10T13:48:47Z</time>
      </trkpt>
      <trkpt lat="44.18712" lon="6.04383">
        <ele>664.084</ele>
        <time>2019-11-10T13:48:53Z</time>
      </trkpt>
      <trkpt lat="44.18712" lon="6.04384">
        <ele>664.471</ele>
        <time>2019-11-10T13:48:58Z</time>
      </trkpt>
      <trkpt lat="44.18705" lon="6.04388">
        <ele>664.735</ele>
        <time>2019-11-10T13:49:03Z</time>
      </trkpt>
      <trkpt lat="44.18702" lon="6.04388">
        <ele>664.968</ele>
        <time>2019-11-10T13:49:09Z</time>
      </trkpt>
      <trkpt lat="44.18702" lon="6.04388">
        <ele>665.006</ele>
        <time>2019-11-10T13:49:15Z</time>
      </trkpt>
      <trkpt lat="44.18702" lon="6.04388">
        <ele>665.017</ele>
        <time>2019-11-10T13:49:20Z</time>
      </trkpt>
      <trkpt lat="44.18702" lon="6.04388">
        <ele>665.071</ele>
        <time>2019-11-10T13:49:25Z</time>
      </trkpt>
      <trkpt lat="44.18702" lon="6.04388">
        <ele>665.136</ele>
        <time>2019-11-10T13:49:30Z</time>
      </trkpt>
      <trkpt lat="44.18702" lon="6.04388">
        <ele>665.241</ele>
        <time>2019-11-10T13:49:36Z</time>
      </trkpt>
      <trkpt lat="44.18702" lon="6.04388">
        <ele>665.248</ele>
        <time>2019-11-10T13:49:42Z</time>
      </trkpt>
      <trkpt lat="44.18688" lon="6.04399">
        <ele>661.592</ele>
        <time>2019-11-10T13:49:48Z</time>
      </trkpt>
      <trkpt lat="44.18687" lon="6.04414">
        <ele>660.686</ele>
        <time>2019-11-10T13:49:54Z</time>
      </trkpt>
      <trkpt lat="44.18684" lon="6.04429">
        <ele>660.421</ele>
        <time>2019-11-10T13:50:00Z</time>
      </trkpt>
      <trkpt lat="44.18688" lon="6.04438">
        <ele>660.671</ele>
        <time>2019-11-10T13:50:06Z</time>
      </trkpt>
      <trkpt lat="44.18693" lon="6.04447">
        <ele>661.366</ele>
        <time>2019-11-10T13:50:12Z</time>
      </trkpt>
      <trkpt lat="44.18696" lon="6.04452">
        <ele>661.885</ele>
        <time>2019-11-10T13:50:18Z</time>
      </trkpt>
      <trkpt lat="44.18697" lon="6.04458">
        <ele>662.787</ele>
        <time>2019-11-10T13:50:23Z</time>
      </trkpt>
      <trkpt lat="44.187" lon="6.04475">
        <ele>663.95</ele>
        <time>2019-11-10T13:50:28Z</time>
      </trkpt>
      <trkpt lat="44.18708" lon="6.04503">
        <ele>666.042</ele>
        <time>2019-11-10T13:50:34Z</time>
      </trkpt>
      <trkpt lat="44.18714" lon="6.04522">
        <ele>668.399</ele>
        <time>2019-11-10T13:50:40Z</time>
      </trkpt>
      <trkpt lat="44.18714" lon="6.04523">
        <ele>669.418</ele>
        <time>2019-11-10T13:50:46Z</time>
      </trkpt>
      <trkpt lat="44.1872" lon="6.04539">
        <ele>670.254</ele>
        <time>2019-11-10T13:50:51Z</time>
      </trkpt>
      <trkpt lat="44.1872" lon="6.04539">
        <ele>671.407</ele>
        <time>2019-11-10T13:50:56Z</time>
      </trkpt>
      <trkpt lat="44.18728" lon="6.04554">
        <ele>672.897</ele>
        <time>2019-11-10T13:51:02Z</time>
      </trkpt>
      <trkpt lat="44.18728" lon="6.04554">
        <ele>673.821</ele>
        <time>2019-11-10T13:51:07Z</time>
      </trkpt>
      <trkpt lat="44.18738" lon="6.04578">
        <ele>674.623</ele>
        <time>2019-11-10T13:51:13Z</time>
      </trkpt>
      <trkpt lat="44.18747" lon="6.04596">
        <ele>675.303</ele>
        <time>2019-11-10T13:51:18Z</time>
      </trkpt>
      <trkpt lat="44.18755" lon="6.04619">
        <ele>676.756</ele>
        <time>2019-11-10T13:51:24Z</time>
      </trkpt>
      <trkpt lat="44.18756" lon="6.04622">
        <ele>677.412</ele>
        <time>2019-11-10T13:51:29Z</time>
      </trkpt>
      <trkpt lat="44.18763" lon="6.04626">
        <ele>677.677</ele>
        <time>2019-11-10T13:51:35Z</time>
      </trkpt>
      <trkpt lat="44.18772" lon="6.0463">
        <ele>677.858</ele>
        <time>2019-11-10T13:51:41Z</time>
      </trkpt>
      <trkpt lat="44.18783" lon="6.0464">
        <ele>678.108</ele>
        <time>2019-11-10T13:51:47Z</time>
      </trkpt>
      <trkpt lat="44.18789" lon="6.04649">
        <ele>678.372</ele>
        <time>2019-11-10T13:51:52Z</time>
      </trkpt>
      <trkpt lat="44.18792" lon="6.04685">
        <ele>678.764</ele>
        <time>2019-11-10T13:51:58Z</time>
      </trkpt>
      <trkpt lat="44.18785" lon="6.04683">
        <ele>680.601</ele>
        <time>2019-11-10T13:52:04Z</time>
      </trkpt>
      <trkpt lat="44.18778" lon="6.04676">
        <ele>681.752</ele>
        <time>2019-11-10T13:52:10Z</time>
      </trkpt>
      <trkpt lat="44.18778" lon="6.04676">
        <ele>683.014</ele>
        <time>2019-11-10T13:52:15Z</time>
      </trkpt>
      <trkpt lat="44.18769" lon="6.0468">
        <ele>684.528</ele>
        <time>2019-11-10T13:52:21Z</time>
      </trkpt>
      <trkpt lat="44.18774" lon="6.04683">
        <ele>685.042</ele>
        <time>2019-11-10T13:52:26Z</time>
      </trkpt>
      <trkpt lat="44.18781" lon="6.04692">
        <ele>686.136</ele>
        <time>2019-11-10T13:52:32Z</time>
      </trkpt>
      <trkpt lat="44.18789" lon="6.04707">
        <ele>686.991</ele>
        <time>2019-11-10T13:52:38Z</time>
      </trkpt>
      <trkpt lat="44.18791" lon="6.04724">
        <ele>688.673</ele>
        <time>2019-11-10T13:52:44Z</time>
      </trkpt>
      <trkpt lat="44.18788" lon="6.04736">
        <ele>689.296</ele>
        <time>2019-11-10T13:52:49Z</time>
      </trkpt>
      <trkpt lat="44.18784" lon="6.04749">
        <ele>690.368</ele>
        <time>2019-11-10T13:52:54Z</time>
      </trkpt>
      <trkpt lat="44.18779" lon="6.04762">
        <ele>690.954</ele>
        <time>2019-11-10T13:53:00Z</time>
      </trkpt>
      <trkpt lat="44.18772" lon="6.04765">
        <ele>691.72</ele>
        <time>2019-11-10T13:53:05Z</time>
      </trkpt>
      <trkpt lat="44.18762" lon="6.04764">
        <ele>692.66</ele>
        <time>2019-11-10T13:53:10Z</time>
      </trkpt>
      <trkpt lat="44.1875" lon="6.0476">
        <ele>694.383</ele>
        <time>2019-11-10T13:53:16Z</time>
      </trkpt>
      <trkpt lat="44.18736" lon="6.04748">
        <ele>696.709</ele>
        <time>2019-11-10T13:53:22Z</time>
      </trkpt>
      <trkpt lat="44.18726" lon="6.04738">
        <ele>698.595</ele>
        <time>2019-11-10T13:53:27Z</time>
      </trkpt>
      <trkpt lat="44.18717" lon="6.04728">
        <ele>700.282</ele>
        <time>2019-11-10T13:53:33Z</time>
      </trkpt>
      <trkpt lat="44.18712" lon="6.04724">
        <ele>701.756</ele>
        <time>2019-11-10T13:53:38Z</time>
      </trkpt>
      <trkpt lat="44.18714" lon="6.04721">
        <ele>702.564</ele>
        <time>2019-11-10T13:53:44Z</time>
      </trkpt>
      <trkpt lat="44.18714" lon="6.04725">
        <ele>702.986</ele>
        <time>2019-11-10T13:53:49Z</time>
      </trkpt>
      <trkpt lat="44.18719" lon="6.04737">
        <ele>703.556</ele>
        <time>2019-11-10T13:53:55Z</time>
      </trkpt>
      <trkpt lat="44.1872" lon="6.04748">
        <ele>704.755</ele>
        <time>2019-11-10T13:54:01Z</time>
      </trkpt>
      <trkpt lat="44.1872" lon="6.04759">
        <ele>705.285</ele>
        <time>2019-11-10T13:54:06Z</time>
      </trkpt>
      <trkpt lat="44.18721" lon="6.04779">
        <ele>707.391</ele>
        <time>2019-11-10T13:54:12Z</time>
      </trkpt>
      <trkpt lat="44.18722" lon="6.0479">
        <ele>709.273</ele>
        <time>2019-11-10T13:54:17Z</time>
      </trkpt>
      <trkpt lat="44.18722" lon="6.04803">
        <ele>710.878</ele>
        <time>2019-11-10T13:54:22Z</time>
      </trkpt>
      <trkpt lat="44.18721" lon="6.04823">
        <ele>712.399</ele>
        <time>2019-11-10T13:54:27Z</time>
      </trkpt>
      <trkpt lat="44.1872" lon="6.04833">
        <ele>713.467</ele>
        <time>2019-11-10T13:54:32Z</time>
      </trkpt>
      <trkpt lat="44.18717" lon="6.04855">
        <ele>714.623</ele>
        <time>2019-11-10T13:54:38Z</time>
      </trkpt>
      <trkpt lat="44.18711" lon="6.04877">
        <ele>715.555</ele>
        <time>2019-11-10T13:54:44Z</time>
      </trkpt>
      <trkpt lat="44.18705" lon="6.04892">
        <ele>715.547</ele>
        <time>2019-11-10T13:54:50Z</time>
      </trkpt>
      <trkpt lat="44.187" lon="6.04909">
        <ele>714.965</ele>
        <time>2019-11-10T13:54:56Z</time>
      </trkpt>
      <trkpt lat="44.18697" lon="6.04923">
        <ele>714.277</ele>
        <time>2019-11-10T13:55:02Z</time>
      </trkpt>
      <trkpt lat="44.18693" lon="6.04932">
        <ele>713.67</ele>
        <time>2019-11-10T13:55:07Z</time>
      </trkpt>
      <trkpt lat="44.18691" lon="6.04943">
        <ele>713.369</ele>
        <time>2019-11-10T13:55:12Z</time>
      </trkpt>
      <trkpt lat="44.18685" lon="6.04955">
        <ele>713.627</ele>
        <time>2019-11-10T13:55:18Z</time>
      </trkpt>
      <trkpt lat="44.18684" lon="6.04969">
        <ele>713.984</ele>
        <time>2019-11-10T13:55:23Z</time>
      </trkpt>
      <trkpt lat="44.18685" lon="6.04979">
        <ele>714.548</ele>
        <time>2019-11-10T13:55:28Z</time>
      </trkpt>
      <trkpt lat="44.1868" lon="6.0499">
        <ele>715.881</ele>
        <time>2019-11-10T13:55:33Z</time>
      </trkpt>
      <trkpt lat="44.18675" lon="6.05001">
        <ele>717.716</ele>
        <time>2019-11-10T13:55:39Z</time>
      </trkpt>
      <trkpt lat="44.18662" lon="6.0501">
        <ele>719.827</ele>
        <time>2019-11-10T13:55:45Z</time>
      </trkpt>
      <trkpt lat="44.18653" lon="6.05014">
        <ele>721.71</ele>
        <time>2019-11-10T13:55:50Z</time>
      </trkpt>
      <trkpt lat="44.18643" lon="6.0502">
        <ele>723.189</ele>
        <time>2019-11-10T13:55:56Z</time>
      </trkpt>
      <trkpt lat="44.1863" lon="6.05022">
        <ele>723.981</ele>
        <time>2019-11-10T13:56:02Z</time>
      </trkpt>
      <trkpt lat="44.18614" lon="6.05019">
        <ele>724.293</ele>
        <time>2019-11-10T13:56:08Z</time>
      </trkpt>
      <trkpt lat="44.18603" lon="6.05037">
        <ele>725.088</ele>
        <time>2019-11-10T13:56:14Z</time>
      </trkpt>
      <trkpt lat="44.18597" lon="6.05048">
        <ele>727.035</ele>
        <time>2019-11-10T13:56:20Z</time>
      </trkpt>
      <trkpt lat="44.18593" lon="6.05057">
        <ele>728.502</ele>
        <time>2019-11-10T13:56:25Z</time>
      </trkpt>
      <trkpt lat="44.18592" lon="6.05073">
        <ele>730.686</ele>
        <time>2019-11-10T13:56:31Z</time>
      </trkpt>
      <trkpt lat="44.18587" lon="6.05087">
        <ele>731.977</ele>
        <time>2019-11-10T13:56:36Z</time>
      </trkpt>
      <trkpt lat="44.18581" lon="6.05096">
        <ele>733.335</ele>
        <time>2019-11-10T13:56:41Z</time>
      </trkpt>
      <trkpt lat="44.18571" lon="6.05104">
        <ele>735.512</ele>
        <time>2019-11-10T13:56:47Z</time>
      </trkpt>
      <trkpt lat="44.18567" lon="6.05093">
        <ele>736.728</ele>
        <time>2019-11-10T13:56:53Z</time>
      </trkpt>
      <trkpt lat="44.18564" lon="6.05085">
        <ele>737.663</ele>
        <time>2019-11-10T13:56:58Z</time>
      </trkpt>
      <trkpt lat="44.18561" lon="6.05071">
        <ele>738.583</ele>
        <time>2019-11-10T13:57:04Z</time>
      </trkpt>
      <trkpt lat="44.18559" lon="6.05067">
        <ele>739.247</ele>
        <time>2019-11-10T13:57:09Z</time>
      </trkpt>
      <trkpt lat="44.18553" lon="6.05051">
        <ele>740.137</ele>
        <time>2019-11-10T13:57:15Z</time>
      </trkpt>
      <trkpt lat="44.1855" lon="6.05051">
        <ele>740.519</ele>
        <time>2019-11-10T13:57:20Z</time>
      </trkpt>
      <trkpt lat="44.18552" lon="6.0505">
        <ele>740.824</ele>
        <time>2019-11-10T13:57:25Z</time>
      </trkpt>
      <trkpt lat="44.18556" lon="6.05052">
        <ele>741.711</ele>
        <time>2019-11-10T13:57:31Z</time>
      </trkpt>
      <trkpt lat="44.18555" lon="6.05059">
        <ele>742.915</ele>
        <time>2019-11-10T13:57:36Z</time>
      </trkpt>
      <trkpt lat="44.18553" lon="6.05074">
        <ele>745.365</ele>
        <time>2019-11-10T13:57:42Z</time>
      </trkpt>
      <trkpt lat="44.18552" lon="6.05088">
        <ele>747.687</ele>
        <time>2019-11-10T13:57:47Z</time>
      </trkpt>
      <trkpt lat="44.1855" lon="6.05097">
        <ele>750.3</ele>
        <time>2019-11-10T13:57:52Z</time>
      </trkpt>
      <trkpt lat="44.18547" lon="6.05117">
        <ele>753.062</ele>
        <time>2019-11-10T13:57:58Z</time>
      </trkpt>
      <trkpt lat="44.18543" lon="6.05132">
        <ele>754.455</ele>
        <time>2019-11-10T13:58:03Z</time>
      </trkpt>
      <trkpt lat="44.18538" lon="6.05153">
        <ele>755.9</ele>
        <time>2019-11-10T13:58:09Z</time>
      </trkpt>
      <trkpt lat="44.18531" lon="6.05165">
        <ele>756.375</ele>
        <time>2019-11-10T13:58:14Z</time>
      </trkpt>
      <trkpt lat="44.18519" lon="6.05173">
        <ele>756.371</ele>
        <time>2019-11-10T13:58:20Z</time>
      </trkpt>
      <trkpt lat="44.18501" lon="6.05177">
        <ele>756.058</ele>
        <time>2019-11-10T13:58:26Z</time>
      </trkpt>
      <trkpt lat="44.18487" lon="6.05176">
        <ele>755.73</ele>
        <time>2019-11-10T13:58:32Z</time>
      </trkpt>
      <trkpt lat="44.18476" lon="6.05179">
        <ele>755.57</ele>
        <time>2019-11-10T13:58:37Z</time>
      </trkpt>
      <trkpt lat="44.18467" lon="6.05184">
        <ele>755.316</ele>
        <time>2019-11-10T13:58:42Z</time>
      </trkpt>
      <trkpt lat="44.1846" lon="6.05186">
        <ele>755.297</ele>
        <time>2019-11-10T13:58:47Z</time>
      </trkpt>
      <trkpt lat="44.18448" lon="6.05187">
        <ele>755.124</ele>
        <time>2019-11-10T13:58:53Z</time>
      </trkpt>
      <trkpt lat="44.18434" lon="6.05188">
        <ele>754.404</ele>
        <time>2019-11-10T13:58:59Z</time>
      </trkpt>
      <trkpt lat="44.18424" lon="6.05197">
        <ele>753.237</ele>
        <time>2019-11-10T13:59:05Z</time>
      </trkpt>
      <trkpt lat="44.1842" lon="6.05208">
        <ele>752.369</ele>
        <time>2019-11-10T13:59:11Z</time>
      </trkpt>
      <trkpt lat="44.1842" lon="6.05218">
        <ele>751.731</ele>
        <time>2019-11-10T13:59:16Z</time>
      </trkpt>
      <trkpt lat="44.18423" lon="6.05237">
        <ele>750.68</ele>
        <time>2019-11-10T13:59:22Z</time>
      </trkpt>
      <trkpt lat="44.18423" lon="6.0525">
        <ele>749.701</ele>
        <time>2019-11-10T13:59:27Z</time>
      </trkpt>
      <trkpt lat="44.18424" lon="6.05259">
        <ele>748.141</ele>
        <time>2019-11-10T13:59:33Z</time>
      </trkpt>
      <trkpt lat="44.18424" lon="6.0526">
        <ele>748.24</ele>
        <time>2019-11-10T13:59:38Z</time>
      </trkpt>
      <trkpt lat="44.18422" lon="6.05264">
        <ele>748.776</ele>
        <time>2019-11-10T13:59:43Z</time>
      </trkpt>
      <trkpt lat="44.18423" lon="6.05271">
        <ele>748.956</ele>
        <time>2019-11-10T13:59:48Z</time>
      </trkpt>
      <trkpt lat="44.18429" lon="6.05279">
        <ele>749.046</ele>
        <time>2019-11-10T13:59:54Z</time>
      </trkpt>
      <trkpt lat="44.1843" lon="6.05294">
        <ele>749.263</ele>
        <time>2019-11-10T13:59:59Z</time>
      </trkpt>
      <trkpt lat="44.18434" lon="6.05302">
        <ele>749.651</ele>
        <time>2019-11-10T14:00:05Z</time>
      </trkpt>
      <trkpt lat="44.18437" lon="6.05314">
        <ele>750.098</ele>
        <time>2019-11-10T14:00:10Z</time>
      </trkpt>
      <trkpt lat="44.18442" lon="6.05325">
        <ele>750.627</ele>
        <time>2019-11-10T14:00:15Z</time>
      </trkpt>
      <trkpt lat="44.18446" lon="6.05339">
        <ele>750.723</ele>
        <time>2019-11-10T14:00:21Z</time>
      </trkpt>
      <trkpt lat="44.18449" lon="6.05355">
        <ele>752.004</ele>
        <time>2019-11-10T14:00:27Z</time>
      </trkpt>
      <trkpt lat="44.18451" lon="6.05364">
        <ele>752.934</ele>
        <time>2019-11-10T14:00:32Z</time>
      </trkpt>
      <trkpt lat="44.18451" lon="6.05382">
        <ele>754.153</ele>
        <time>2019-11-10T14:00:38Z</time>
      </trkpt>
      <trkpt lat="44.18452" lon="6.05403">
        <ele>756.061</ele>
        <time>2019-11-10T14:00:44Z</time>
      </trkpt>
      <trkpt lat="44.18454" lon="6.05424">
        <ele>757.597</ele>
        <time>2019-11-10T14:00:49Z</time>
      </trkpt>
      <trkpt lat="44.18457" lon="6.05437">
        <ele>759.086</ele>
        <time>2019-11-10T14:00:55Z</time>
      </trkpt>
      <trkpt lat="44.18462" lon="6.05451">
        <ele>759.875</ele>
        <time>2019-11-10T14:01:00Z</time>
      </trkpt>
      <trkpt lat="44.18467" lon="6.05462">
        <ele>760.771</ele>
        <time>2019-11-10T14:01:05Z</time>
      </trkpt>
      <trkpt lat="44.18472" lon="6.05483">
        <ele>761.537</ele>
        <time>2019-11-10T14:01:11Z</time>
      </trkpt>
      <trkpt lat="44.18476" lon="6.05498">
        <ele>762.223</ele>
        <time>2019-11-10T14:01:16Z</time>
      </trkpt>
      <trkpt lat="44.18476" lon="6.05514">
        <ele>763.108</ele>
        <time>2019-11-10T14:01:22Z</time>
      </trkpt>
      <trkpt lat="44.18475" lon="6.05531">
        <ele>763.67</ele>
        <time>2019-11-10T14:01:28Z</time>
      </trkpt>
      <trkpt lat="44.18473" lon="6.05542">
        <ele>763.784</ele>
        <time>2019-11-10T14:01:33Z</time>
      </trkpt>
      <trkpt lat="44.18474" lon="6.05559">
        <ele>763.674</ele>
        <time>2019-11-10T14:01:39Z</time>
      </trkpt>
      <trkpt lat="44.18476" lon="6.05601">
        <ele>762.852</ele>
        <time>2019-11-10T14:01:45Z</time>
      </trkpt>
      <trkpt lat="44.18476" lon="6.05632">
        <ele>758.168</ele>
        <time>2019-11-10T14:01:50Z</time>
      </trkpt>
      <trkpt lat="44.18471" lon="6.05679">
        <ele>755.577</ele>
        <time>2019-11-10T14:01:55Z</time>
      </trkpt>
      <trkpt lat="44.18463" lon="6.05742">
        <ele>756.32</ele>
        <time>2019-11-10T14:02:01Z</time>
      </trkpt>
      <trkpt lat="44.18438" lon="6.05785">
        <ele>754.826</ele>
        <time>2019-11-10T14:02:06Z</time>
      </trkpt>
      <trkpt lat="44.18419" lon="6.05848">
        <ele>750.515</ele>
        <time>2019-11-10T14:02:12Z</time>
      </trkpt>
      <trkpt lat="44.18408" lon="6.05904">
        <ele>747.767</ele>
        <time>2019-11-10T14:02:17Z</time>
      </trkpt>
      <trkpt lat="44.18409" lon="6.05957">
        <ele>747.23</ele>
        <time>2019-11-10T14:02:22Z</time>
      </trkpt>
      <trkpt lat="44.18398" lon="6.0598">
        <ele>748.732</ele>
        <time>2019-11-10T14:02:28Z</time>
      </trkpt>
      <trkpt lat="44.18391" lon="6.06">
        <ele>750.288</ele>
        <time>2019-11-10T14:02:34Z</time>
      </trkpt>
      <trkpt lat="44.18381" lon="6.06025">
        <ele>751.456</ele>
        <time>2019-11-10T14:02:40Z</time>
      </trkpt>
      <trkpt lat="44.18378" lon="6.06046">
        <ele>751.99</ele>
        <time>2019-11-10T14:02:45Z</time>
      </trkpt>
      <trkpt lat="44.18372" lon="6.06071">
        <ele>752.914</ele>
        <time>2019-11-10T14:02:51Z</time>
      </trkpt>
      <trkpt lat="44.18371" lon="6.06092">
        <ele>753.39</ele>
        <time>2019-11-10T14:02:56Z</time>
      </trkpt>
      <trkpt lat="44.18369" lon="6.06112">
        <ele>754.69</ele>
        <time>2019-11-10T14:03:02Z</time>
      </trkpt>
      <trkpt lat="44.18365" lon="6.06123">
        <ele>755.86</ele>
        <time>2019-11-10T14:03:07Z</time>
      </trkpt>
      <trkpt lat="44.1836" lon="6.06139">
        <ele>757.446</ele>
        <time>2019-11-10T14:03:13Z</time>
      </trkpt>
      <trkpt lat="44.18346" lon="6.0616">
        <ele>758.41</ele>
        <time>2019-11-10T14:03:19Z</time>
      </trkpt>
      <trkpt lat="44.18335" lon="6.06173">
        <ele>759.42</ele>
        <time>2019-11-10T14:03:25Z</time>
      </trkpt>
      <trkpt lat="44.18326" lon="6.06181">
        <ele>760.152</ele>
        <time>2019-11-10T14:03:30Z</time>
      </trkpt>
      <trkpt lat="44.18317" lon="6.06189">
        <ele>761.102</ele>
        <time>2019-11-10T14:03:35Z</time>
      </trkpt>
      <trkpt lat="44.18306" lon="6.06198">
        <ele>761.547</ele>
        <time>2019-11-10T14:03:41Z</time>
      </trkpt>
      <trkpt lat="44.18294" lon="6.06207">
        <ele>761.897</ele>
        <time>2019-11-10T14:03:47Z</time>
      </trkpt>
      <trkpt lat="44.18283" lon="6.06213">
        <ele>762.227</ele>
        <time>2019-11-10T14:03:52Z</time>
      </trkpt>
      <trkpt lat="44.18269" lon="6.0622">
        <ele>763.22</ele>
        <time>2019-11-10T14:03:58Z</time>
      </trkpt>
      <trkpt lat="44.18259" lon="6.06228">
        <ele>763.839</ele>
        <time>2019-11-10T14:04:03Z</time>
      </trkpt>
      <trkpt lat="44.18256" lon="6.06239">
        <ele>763.817</ele>
        <time>2019-11-10T14:04:09Z</time>
      </trkpt>
      <trkpt lat="44.18253" lon="6.06251">
        <ele>764.072</ele>
        <time>2019-11-10T14:04:14Z</time>
      </trkpt>
      <trkpt lat="44.1825" lon="6.06265">
        <ele>764.335</ele>
        <time>2019-11-10T14:04:19Z</time>
      </trkpt>
      <trkpt lat="44.18246" lon="6.06278">
        <ele>765.028</ele>
        <time>2019-11-10T14:04:24Z</time>
      </trkpt>
      <trkpt lat="44.18241" lon="6.06296">
        <ele>766.197</ele>
        <time>2019-11-10T14:04:30Z</time>
      </trkpt>
      <trkpt lat="44.18238" lon="6.06312">
        <ele>767.134</ele>
        <time>2019-11-10T14:04:35Z</time>
      </trkpt>
      <trkpt lat="44.18225" lon="6.06327">
        <ele>768.083</ele>
        <time>2019-11-10T14:04:41Z</time>
      </trkpt>
      <trkpt lat="44.18217" lon="6.06338">
        <ele>769.242</ele>
        <time>2019-11-10T14:04:47Z</time>
      </trkpt>
      <trkpt lat="44.18209" lon="6.06347">
        <ele>770.49</ele>
        <time>2019-11-10T14:04:52Z</time>
      </trkpt>
      <trkpt lat="44.18203" lon="6.06361">
        <ele>771.996</ele>
        <time>2019-11-10T14:04:58Z</time>
      </trkpt>
      <trkpt lat="44.18201" lon="6.06377">
        <ele>773.164</ele>
        <time>2019-11-10T14:05:04Z</time>
      </trkpt>
      <trkpt lat="44.18202" lon="6.06381">
        <ele>774.512</ele>
        <time>2019-11-10T14:05:09Z</time>
      </trkpt>
      <trkpt lat="44.18202" lon="6.06381">
        <ele>774.761</ele>
        <time>2019-11-10T14:05:15Z</time>
      </trkpt>
      <trkpt lat="44.18202" lon="6.06381">
        <ele>774.421</ele>
        <time>2019-11-10T14:05:21Z</time>
      </trkpt>
      <trkpt lat="44.18202" lon="6.06381">
        <ele>774.502</ele>
        <time>2019-11-10T14:05:27Z</time>
      </trkpt>
      <trkpt lat="44.18209" lon="6.06359">
        <ele>774.428</ele>
        <time>2019-11-10T14:05:33Z</time>
      </trkpt>
      <trkpt lat="44.18209" lon="6.06359">
        <ele>774.049</ele>
        <time>2019-11-10T14:05:38Z</time>
      </trkpt>
      <trkpt lat="44.18226" lon="6.06353">
        <ele>773.627</ele>
        <time>2019-11-10T14:05:44Z</time>
      </trkpt>
      <trkpt lat="44.1824" lon="6.06369">
        <ele>772.334</ele>
        <time>2019-11-10T14:05:50Z</time>
      </trkpt>
      <trkpt lat="44.1824" lon="6.06369">
        <ele>771.255</ele>
        <time>2019-11-10T14:05:56Z</time>
      </trkpt>
      <trkpt lat="44.18251" lon="6.0639">
        <ele>770.613</ele>
        <time>2019-11-10T14:06:01Z</time>
      </trkpt>
      <trkpt lat="44.1825" lon="6.06401">
        <ele>769.924</ele>
        <time>2019-11-10T14:06:07Z</time>
      </trkpt>
      <trkpt lat="44.1825" lon="6.06413">
        <ele>770.142</ele>
        <time>2019-11-10T14:06:13Z</time>
      </trkpt>
      <trkpt lat="44.18251" lon="6.06429">
        <ele>771.836</ele>
        <time>2019-11-10T14:06:19Z</time>
      </trkpt>
      <trkpt lat="44.1825" lon="6.06444">
        <ele>773.438</ele>
        <time>2019-11-10T14:06:25Z</time>
      </trkpt>
      <trkpt lat="44.1825" lon="6.06457">
        <ele>775.063</ele>
        <time>2019-11-10T14:06:31Z</time>
      </trkpt>
      <trkpt lat="44.18251" lon="6.06461">
        <ele>775.972</ele>
        <time>2019-11-10T14:06:36Z</time>
      </trkpt>
      <trkpt lat="44.18251" lon="6.06461">
        <ele>777.001</ele>
        <time>2019-11-10T14:06:41Z</time>
      </trkpt>
      <trkpt lat="44.18251" lon="6.06461">
        <ele>778.478</ele>
        <time>2019-11-10T14:06:47Z</time>
      </trkpt>
      <trkpt lat="44.1826" lon="6.06463">
        <ele>779.943</ele>
        <time>2019-11-10T14:06:52Z</time>
      </trkpt>
      <trkpt lat="44.1827" lon="6.06467">
        <ele>781.216</ele>
        <time>2019-11-10T14:06:57Z</time>
      </trkpt>
      <trkpt lat="44.1828" lon="6.06481">
        <ele>781.864</ele>
        <time>2019-11-10T14:07:03Z</time>
      </trkpt>
      <trkpt lat="44.18282" lon="6.06502">
        <ele>782.399</ele>
        <time>2019-11-10T14:07:08Z</time>
      </trkpt>
      <trkpt lat="44.18274" lon="6.06502">
        <ele>783.478</ele>
        <time>2019-11-10T14:07:13Z</time>
      </trkpt>
      <trkpt lat="44.18265" lon="6.06505">
        <ele>784.429</ele>
        <time>2019-11-10T14:07:19Z</time>
      </trkpt>
      <trkpt lat="44.1826" lon="6.06506">
        <ele>785.658</ele>
        <time>2019-11-10T14:07:25Z</time>
      </trkpt>
      <trkpt lat="44.18256" lon="6.06514">
        <ele>786.569</ele>
        <time>2019-11-10T14:07:30Z</time>
      </trkpt>
      <trkpt lat="44.18248" lon="6.06521">
        <ele>787.88</ele>
        <time>2019-11-10T14:07:36Z</time>
      </trkpt>
      <trkpt lat="44.18241" lon="6.06529">
        <ele>789.527</ele>
        <time>2019-11-10T14:07:42Z</time>
      </trkpt>
      <trkpt lat="44.18236" lon="6.06536">
        <ele>790.836</ele>
        <time>2019-11-10T14:07:47Z</time>
      </trkpt>
      <trkpt lat="44.18232" lon="6.06546">
        <ele>792.261</ele>
        <time>2019-11-10T14:07:52Z</time>
      </trkpt>
      <trkpt lat="44.1823" lon="6.06557">
        <ele>793.038</ele>
        <time>2019-11-10T14:07:57Z</time>
      </trkpt>
      <trkpt lat="44.18227" lon="6.0657">
        <ele>793.904</ele>
        <time>2019-11-10T14:08:03Z</time>
      </trkpt>
      <trkpt lat="44.18223" lon="6.0658">
        <ele>794.472</ele>
        <time>2019-11-10T14:08:08Z</time>
      </trkpt>
      <trkpt lat="44.18219" lon="6.06589">
        <ele>795.063</ele>
        <time>2019-11-10T14:08:14Z</time>
      </trkpt>
      <trkpt lat="44.18211" lon="6.06599">
        <ele>797.004</ele>
        <time>2019-11-10T14:08:20Z</time>
      </trkpt>
      <trkpt lat="44.18205" lon="6.06606">
        <ele>798.654</ele>
        <time>2019-11-10T14:08:25Z</time>
      </trkpt>
      <trkpt lat="44.18198" lon="6.06623">
        <ele>800.008</ele>
        <time>2019-11-10T14:08:31Z</time>
      </trkpt>
      <trkpt lat="44.18191" lon="6.06631">
        <ele>800.883</ele>
        <time>2019-11-10T14:08:37Z</time>
      </trkpt>
      <trkpt lat="44.18184" lon="6.06636">
        <ele>801.987</ele>
        <time>2019-11-10T14:08:43Z</time>
      </trkpt>
      <trkpt lat="44.18181" lon="6.06651">
        <ele>803.714</ele>
        <time>2019-11-10T14:08:49Z</time>
      </trkpt>
      <trkpt lat="44.18178" lon="6.0666">
        <ele>804.558</ele>
        <time>2019-11-10T14:08:54Z</time>
      </trkpt>
      <trkpt lat="44.18173" lon="6.0667">
        <ele>805.51</ele>
        <time>2019-11-10T14:09:00Z</time>
      </trkpt>
      <trkpt lat="44.18168" lon="6.06681">
        <ele>806.492</ele>
        <time>2019-11-10T14:09:05Z</time>
      </trkpt>
      <trkpt lat="44.18162" lon="6.06692">
        <ele>807.241</ele>
        <time>2019-11-10T14:09:11Z</time>
      </trkpt>
      <trkpt lat="44.18155" lon="6.06703">
        <ele>808.171</ele>
        <time>2019-11-10T14:09:17Z</time>
      </trkpt>
      <trkpt lat="44.18142" lon="6.06706">
        <ele>808.638</ele>
        <time>2019-11-10T14:09:22Z</time>
      </trkpt>
      <trkpt lat="44.18132" lon="6.0671">
        <ele>809.37</ele>
        <time>2019-11-10T14:09:28Z</time>
      </trkpt>
      <trkpt lat="44.18122" lon="6.06715">
        <ele>809.757</ele>
        <time>2019-11-10T14:09:34Z</time>
      </trkpt>
      <trkpt lat="44.18114" lon="6.06721">
        <ele>809.961</ele>
        <time>2019-11-10T14:09:40Z</time>
      </trkpt>
      <trkpt lat="44.18111" lon="6.06731">
        <ele>809.608</ele>
        <time>2019-11-10T14:09:46Z</time>
      </trkpt>
      <trkpt lat="44.18107" lon="6.06742">
        <ele>809.778</ele>
        <time>2019-11-10T14:09:52Z</time>
      </trkpt>
      <trkpt lat="44.18106" lon="6.06752">
        <ele>810.071</ele>
        <time>2019-11-10T14:09:58Z</time>
      </trkpt>
      <trkpt lat="44.18107" lon="6.06761">
        <ele>810.356</ele>
        <time>2019-11-10T14:10:03Z</time>
      </trkpt>
      <trkpt lat="44.18105" lon="6.06773">
        <ele>811.022</ele>
        <time>2019-11-10T14:10:09Z</time>
      </trkpt>
      <trkpt lat="44.18107" lon="6.06787">
        <ele>811.962</ele>
        <time>2019-11-10T14:10:15Z</time>
      </trkpt>
      <trkpt lat="44.18109" lon="6.06797">
        <ele>813.102</ele>
        <time>2019-11-10T14:10:20Z</time>
      </trkpt>
      <trkpt lat="44.18112" lon="6.06807">
        <ele>813.934</ele>
        <time>2019-11-10T14:10:26Z</time>
      </trkpt>
      <trkpt lat="44.18115" lon="6.06818">
        <ele>814.242</ele>
        <time>2019-11-10T14:10:32Z</time>
      </trkpt>
      <trkpt lat="44.18115" lon="6.06831">
        <ele>814.432</ele>
        <time>2019-11-10T14:10:37Z</time>
      </trkpt>
      <trkpt lat="44.1811" lon="6.06843">
        <ele>814.539</ele>
        <time>2019-11-10T14:10:43Z</time>
      </trkpt>
      <trkpt lat="44.18103" lon="6.06848">
        <ele>814.787</ele>
        <time>2019-11-10T14:10:49Z</time>
      </trkpt>
      <trkpt lat="44.18089" lon="6.06849">
        <ele>815.244</ele>
        <time>2019-11-10T14:10:55Z</time>
      </trkpt>
      <trkpt lat="44.18077" lon="6.06841">
        <ele>816.161</ele>
        <time>2019-11-10T14:11:01Z</time>
      </trkpt>
      <trkpt lat="44.18066" lon="6.06835">
        <ele>817.105</ele>
        <time>2019-11-10T14:11:06Z</time>
      </trkpt>
      <trkpt lat="44.18058" lon="6.06837">
        <ele>818.405</ele>
        <time>2019-11-10T14:11:12Z</time>
      </trkpt>
      <trkpt lat="44.18054" lon="6.06844">
        <ele>819.571</ele>
        <time>2019-11-10T14:11:17Z</time>
      </trkpt>
      <trkpt lat="44.18047" lon="6.06862">
        <ele>820.424</ele>
        <time>2019-11-10T14:11:23Z</time>
      </trkpt>
      <trkpt lat="44.18042" lon="6.06873">
        <ele>820.515</ele>
        <time>2019-11-10T14:11:28Z</time>
      </trkpt>
      <trkpt lat="44.18038" lon="6.06895">
        <ele>820.578</ele>
        <time>2019-11-10T14:11:34Z</time>
      </trkpt>
      <trkpt lat="44.18036" lon="6.06914">
        <ele>821.053</ele>
        <time>2019-11-10T14:11:40Z</time>
      </trkpt>
      <trkpt lat="44.18037" lon="6.06935">
        <ele>821.198</ele>
        <time>2019-11-10T14:11:45Z</time>
      </trkpt>
      <trkpt lat="44.18036" lon="6.06952">
        <ele>821.537</ele>
        <time>2019-11-10T14:11:51Z</time>
      </trkpt>
      <trkpt lat="44.18039" lon="6.06973">
        <ele>822.049</ele>
        <time>2019-11-10T14:11:57Z</time>
      </trkpt>
      <trkpt lat="44.18047" lon="6.06989">
        <ele>822.426</ele>
        <time>2019-11-10T14:12:02Z</time>
      </trkpt>
      <trkpt lat="44.18055" lon="6.07006">
        <ele>823.116</ele>
        <time>2019-11-10T14:12:07Z</time>
      </trkpt>
      <trkpt lat="44.18061" lon="6.07022">
        <ele>824.049</ele>
        <time>2019-11-10T14:12:13Z</time>
      </trkpt>
      <trkpt lat="44.1807" lon="6.07042">
        <ele>824.512</ele>
        <time>2019-11-10T14:12:19Z</time>
      </trkpt>
      <trkpt lat="44.18074" lon="6.07056">
        <ele>825.005</ele>
        <time>2019-11-10T14:12:24Z</time>
      </trkpt>
      <trkpt lat="44.1808" lon="6.07074">
        <ele>825.525</ele>
        <time>2019-11-10T14:12:29Z</time>
      </trkpt>
      <trkpt lat="44.18085" lon="6.07087">
        <ele>826.2</ele>
        <time>2019-11-10T14:12:35Z</time>
      </trkpt>
      <trkpt lat="44.18087" lon="6.071">
        <ele>826.437</ele>
        <time>2019-11-10T14:12:41Z</time>
      </trkpt>
      <trkpt lat="44.18088" lon="6.07113">
        <ele>826.568</ele>
        <time>2019-11-10T14:12:47Z</time>
      </trkpt>
      <trkpt lat="44.18088" lon="6.07123">
        <ele>826.77</ele>
        <time>2019-11-10T14:12:52Z</time>
      </trkpt>
      <trkpt lat="44.18086" lon="6.07135">
        <ele>827.035</ele>
        <time>2019-11-10T14:12:58Z</time>
      </trkpt>
      <trkpt lat="44.18082" lon="6.07148">
        <ele>827.139</ele>
        <time>2019-11-10T14:13:03Z</time>
      </trkpt>
      <trkpt lat="44.1808" lon="6.07155">
        <ele>827.542</ele>
        <time>2019-11-10T14:13:08Z</time>
      </trkpt>
      <trkpt lat="44.18078" lon="6.07165">
        <ele>828.125</ele>
        <time>2019-11-10T14:13:13Z</time>
      </trkpt>
      <trkpt lat="44.18077" lon="6.07181">
        <ele>829.033</ele>
        <time>2019-11-10T14:13:19Z</time>
      </trkpt>
      <trkpt lat="44.18077" lon="6.07194">
        <ele>829.112</ele>
        <time>2019-11-10T14:13:24Z</time>
      </trkpt>
      <trkpt lat="44.18077" lon="6.07209">
        <ele>829.091</ele>
        <time>2019-11-10T14:13:30Z</time>
      </trkpt>
      <trkpt lat="44.18078" lon="6.07224">
        <ele>829.236</ele>
        <time>2019-11-10T14:13:36Z</time>
      </trkpt>
      <trkpt lat="44.18081" lon="6.07238">
        <ele>829.828</ele>
        <time>2019-11-10T14:13:42Z</time>
      </trkpt>
      <trkpt lat="44.18084" lon="6.07254">
        <ele>830.235</ele>
        <time>2019-11-10T14:13:48Z</time>
      </trkpt>
      <trkpt lat="44.18085" lon="6.07266">
        <ele>830.213</ele>
        <time>2019-11-10T14:13:53Z</time>
      </trkpt>
      <trkpt lat="44.18087" lon="6.07279">
        <ele>831.078</ele>
        <time>2019-11-10T14:13:59Z</time>
      </trkpt>
      <trkpt lat="44.18086" lon="6.07293">
        <ele>832.88</ele>
        <time>2019-11-10T14:14:05Z</time>
      </trkpt>
      <trkpt lat="44.18087" lon="6.07309">
        <ele>834.435</ele>
        <time>2019-11-10T14:14:10Z</time>
      </trkpt>
      <trkpt lat="44.18089" lon="6.07325">
        <ele>835.288</ele>
        <time>2019-11-10T14:14:15Z</time>
      </trkpt>
      <trkpt lat="44.18091" lon="6.0734">
        <ele>836.216</ele>
        <time>2019-11-10T14:14:20Z</time>
      </trkpt>
      <trkpt lat="44.18093" lon="6.07358">
        <ele>837.963</ele>
        <time>2019-11-10T14:14:26Z</time>
      </trkpt>
      <trkpt lat="44.18094" lon="6.07374">
        <ele>839.519</ele>
        <time>2019-11-10T14:14:32Z</time>
      </trkpt>
      <trkpt lat="44.18096" lon="6.0739">
        <ele>840.568</ele>
        <time>2019-11-10T14:14:38Z</time>
      </trkpt>
      <trkpt lat="44.18098" lon="6.07411">
        <ele>841.721</ele>
        <time>2019-11-10T14:14:44Z</time>
      </trkpt>
      <trkpt lat="44.18097" lon="6.07418">
        <ele>842.485</ele>
        <time>2019-11-10T14:14:49Z</time>
      </trkpt>
      <trkpt lat="44.18097" lon="6.07429">
        <ele>843.497</ele>
        <time>2019-11-10T14:14:55Z</time>
      </trkpt>
      <trkpt lat="44.18096" lon="6.07436">
        <ele>843.683</ele>
        <time>2019-11-10T14:15:00Z</time>
      </trkpt>
      <trkpt lat="44.18091" lon="6.07431">
        <ele>844.387</ele>
        <time>2019-11-10T14:15:06Z</time>
      </trkpt>
      <trkpt lat="44.18082" lon="6.07426">
        <ele>845.04</ele>
        <time>2019-11-10T14:15:11Z</time>
      </trkpt>
      <trkpt lat="44.1807" lon="6.07414">
        <ele>845.741</ele>
        <time>2019-11-10T14:15:17Z</time>
      </trkpt>
      <trkpt lat="44.18061" lon="6.07403">
        <ele>845.874</ele>
        <time>2019-11-10T14:15:23Z</time>
      </trkpt>
      <trkpt lat="44.18052" lon="6.07392">
        <ele>845.942</ele>
        <time>2019-11-10T14:15:29Z</time>
      </trkpt>
      <trkpt lat="44.18046" lon="6.07383">
        <ele>846.163</ele>
        <time>2019-11-10T14:15:34Z</time>
      </trkpt>
      <trkpt lat="44.18041" lon="6.07374">
        <ele>846.375</ele>
        <time>2019-11-10T14:15:40Z</time>
      </trkpt>
      <trkpt lat="44.18032" lon="6.07367">
        <ele>846.862</ele>
        <time>2019-11-10T14:15:45Z</time>
      </trkpt>
      <trkpt lat="44.18023" lon="6.07356">
        <ele>847.847</ele>
        <time>2019-11-10T14:15:51Z</time>
      </trkpt>
      <trkpt lat="44.18017" lon="6.07346">
        <ele>848.95</ele>
        <time>2019-11-10T14:15:56Z</time>
      </trkpt>
      <trkpt lat="44.1801" lon="6.07334">
        <ele>849.913</ele>
        <time>2019-11-10T14:16:02Z</time>
      </trkpt>
      <trkpt lat="44.18004" lon="6.07325">
        <ele>850.694</ele>
        <time>2019-11-10T14:16:08Z</time>
      </trkpt>
      <trkpt lat="44.17999" lon="6.07321">
        <ele>851.645</ele>
        <time>2019-11-10T14:16:13Z</time>
      </trkpt>
      <trkpt lat="44.17996" lon="6.0732">
        <ele>852.908</ele>
        <time>2019-11-10T14:16:19Z</time>
      </trkpt>
      <trkpt lat="44.17991" lon="6.07317">
        <ele>854.36</ele>
        <time>2019-11-10T14:16:24Z</time>
      </trkpt>
      <trkpt lat="44.17981" lon="6.0731">
        <ele>856.407</ele>
        <time>2019-11-10T14:16:30Z</time>
      </trkpt>
      <trkpt lat="44.17972" lon="6.073">
        <ele>858.273</ele>
        <time>2019-11-10T14:16:35Z</time>
      </trkpt>
      <trkpt lat="44.1797" lon="6.07291">
        <ele>860.635</ele>
        <time>2019-11-10T14:16:41Z</time>
      </trkpt>
      <trkpt lat="44.17971" lon="6.07282">
        <ele>862.593</ele>
        <time>2019-11-10T14:16:47Z</time>
      </trkpt>
      <trkpt lat="44.17969" lon="6.07271">
        <ele>863.436</ele>
        <time>2019-11-10T14:16:53Z</time>
      </trkpt>
      <trkpt lat="44.17966" lon="6.07253">
        <ele>863.634</ele>
        <time>2019-11-10T14:16:59Z</time>
      </trkpt>
      <trkpt lat="44.17966" lon="6.07235">
        <ele>863.614</ele>
        <time>2019-11-10T14:17:05Z</time>
      </trkpt>
      <trkpt lat="44.17968" lon="6.07224">
        <ele>863.478</ele>
        <time>2019-11-10T14:17:10Z</time>
      </trkpt>
      <trkpt lat="44.17968" lon="6.07212">
        <ele>863.575</ele>
        <time>2019-11-10T14:17:15Z</time>
      </trkpt>
      <trkpt lat="44.17965" lon="6.07202">
        <ele>863.602</ele>
        <time>2019-11-10T14:17:21Z</time>
      </trkpt>
      <trkpt lat="44.17962" lon="6.07188">
        <ele>863.829</ele>
        <time>2019-11-10T14:17:27Z</time>
      </trkpt>
      <trkpt lat="44.17957" lon="6.07176">
        <ele>864.272</ele>
        <time>2019-11-10T14:17:33Z</time>
      </trkpt>
      <trkpt lat="44.17951" lon="6.07166">
        <ele>864.533</ele>
        <time>2019-11-10T14:17:39Z</time>
      </trkpt>
      <trkpt lat="44.17945" lon="6.07158">
        <ele>864.767</ele>
        <time>2019-11-10T14:17:45Z</time>
      </trkpt>
      <trkpt lat="44.1794" lon="6.07147">
        <ele>865.244</ele>
        <time>2019-11-10T14:17:51Z</time>
      </trkpt>
      <trkpt lat="44.17942" lon="6.0713">
        <ele>865.573</ele>
        <time>2019-11-10T14:17:56Z</time>
      </trkpt>
      <trkpt lat="44.17939" lon="6.07121">
        <ele>865.864</ele>
        <time>2019-11-10T14:18:01Z</time>
      </trkpt>
      <trkpt lat="44.17932" lon="6.07111">
        <ele>866.708</ele>
        <time>2019-11-10T14:18:07Z</time>
      </trkpt>
      <trkpt lat="44.17926" lon="6.07105">
        <ele>867.993</ele>
        <time>2019-11-10T14:18:13Z</time>
      </trkpt>
      <trkpt lat="44.17918" lon="6.07098">
        <ele>869.343</ele>
        <time>2019-11-10T14:18:18Z</time>
      </trkpt>
      <trkpt lat="44.17913" lon="6.07091">
        <ele>870.971</ele>
        <time>2019-11-10T14:18:24Z</time>
      </trkpt>
      <trkpt lat="44.17906" lon="6.07084">
        <ele>872.142</ele>
        <time>2019-11-10T14:18:29Z</time>
      </trkpt>
      <trkpt lat="44.17902" lon="6.07077">
        <ele>873.404</ele>
        <time>2019-11-10T14:18:35Z</time>
      </trkpt>
      <trkpt lat="44.17895" lon="6.07069">
        <ele>874.601</ele>
        <time>2019-11-10T14:18:40Z</time>
      </trkpt>
      <trkpt lat="44.1789" lon="6.07063">
        <ele>875.198</ele>
        <time>2019-11-10T14:18:45Z</time>
      </trkpt>
      <trkpt lat="44.17883" lon="6.07057">
        <ele>876.044</ele>
        <time>2019-11-10T14:18:50Z</time>
      </trkpt>
      <trkpt lat="44.17882" lon="6.07056">
        <ele>876.839</ele>
        <time>2019-11-10T14:18:55Z</time>
      </trkpt>
      <trkpt lat="44.17885" lon="6.07059">
        <ele>877.214</ele>
        <time>2019-11-10T14:19:01Z</time>
      </trkpt>
      <trkpt lat="44.17893" lon="6.07067">
        <ele>877.324</ele>
        <time>2019-11-10T14:19:07Z</time>
      </trkpt>
      <trkpt lat="44.179" lon="6.07076">
        <ele>877.535</ele>
        <time>2019-11-10T14:19:13Z</time>
      </trkpt>
      <trkpt lat="44.17907" lon="6.07086">
        <ele>877.44</ele>
        <time>2019-11-10T14:19:19Z</time>
      </trkpt>
      <trkpt lat="44.17911" lon="6.07096">
        <ele>877.935</ele>
        <time>2019-11-10T14:19:25Z</time>
      </trkpt>
      <trkpt lat="44.17912" lon="6.07108">
        <ele>878.873</ele>
        <time>2019-11-10T14:19:31Z</time>
      </trkpt>
      <trkpt lat="44.1791" lon="6.0712">
        <ele>879.804</ele>
        <time>2019-11-10T14:19:37Z</time>
      </trkpt>
      <trkpt lat="44.17905" lon="6.07131">
        <ele>880.874</ele>
        <time>2019-11-10T14:19:43Z</time>
      </trkpt>
      <trkpt lat="44.17904" lon="6.07143">
        <ele>881.05</ele>
        <time>2019-11-10T14:19:48Z</time>
      </trkpt>
      <trkpt lat="44.17904" lon="6.07151">
        <ele>882.023</ele>
        <time>2019-11-10T14:19:54Z</time>
      </trkpt>
      <trkpt lat="44.17901" lon="6.0715">
        <ele>883.586</ele>
        <time>2019-11-10T14:19:59Z</time>
      </trkpt>
      <trkpt lat="44.17897" lon="6.07155">
        <ele>884.803</ele>
        <time>2019-11-10T14:20:05Z</time>
      </trkpt>
      <trkpt lat="44.17891" lon="6.0716">
        <ele>886.911</ele>
        <time>2019-11-10T14:20:11Z</time>
      </trkpt>
      <trkpt lat="44.1789" lon="6.07159">
        <ele>888.708</ele>
        <time>2019-11-10T14:20:17Z</time>
      </trkpt>
      <trkpt lat="44.1789" lon="6.0716">
        <ele>889.504</ele>
        <time>2019-11-10T14:20:22Z</time>
      </trkpt>
      <trkpt lat="44.17893" lon="6.07161">
        <ele>890.63</ele>
        <time>2019-11-10T14:20:28Z</time>
      </trkpt>
      <trkpt lat="44.17894" lon="6.07155">
        <ele>891.886</ele>
        <time>2019-11-10T14:20:34Z</time>
      </trkpt>
      <trkpt lat="44.17895" lon="6.07158">
        <ele>892.596</ele>
        <time>2019-11-10T14:20:39Z</time>
      </trkpt>
      <trkpt lat="44.17894" lon="6.07172">
        <ele>893.094</ele>
        <time>2019-11-10T14:20:45Z</time>
      </trkpt>
      <trkpt lat="44.17893" lon="6.07184">
        <ele>893.462</ele>
        <time>2019-11-10T14:20:51Z</time>
      </trkpt>
      <trkpt lat="44.17894" lon="6.07194">
        <ele>893.994</ele>
        <time>2019-11-10T14:20:56Z</time>
      </trkpt>
      <trkpt lat="44.17893" lon="6.07209">
        <ele>894.77</ele>
        <time>2019-11-10T14:21:02Z</time>
      </trkpt>
      <trkpt lat="44.17892" lon="6.0722">
        <ele>895.52</ele>
        <time>2019-11-10T14:21:08Z</time>
      </trkpt>
      <trkpt lat="44.17891" lon="6.07229">
        <ele>896.426</ele>
        <time>2019-11-10T14:21:13Z</time>
      </trkpt>
      <trkpt lat="44.17891" lon="6.07239">
        <ele>897.731</ele>
        <time>2019-11-10T14:21:18Z</time>
      </trkpt>
      <trkpt lat="44.1789" lon="6.07246">
        <ele>898.892</ele>
        <time>2019-11-10T14:21:23Z</time>
      </trkpt>
      <trkpt lat="44.17894" lon="6.07253">
        <ele>899.765</ele>
        <time>2019-11-10T14:21:28Z</time>
      </trkpt>
      <trkpt lat="44.17894" lon="6.0726">
        <ele>900.733</ele>
        <time>2019-11-10T14:21:33Z</time>
      </trkpt>
      <trkpt lat="44.17894" lon="6.07268">
        <ele>901.153</ele>
        <time>2019-11-10T14:21:39Z</time>
      </trkpt>
      <trkpt lat="44.1789" lon="6.07281">
        <ele>901.311</ele>
        <time>2019-11-10T14:21:45Z</time>
      </trkpt>
      <trkpt lat="44.17885" lon="6.07295">
        <ele>901.371</ele>
        <time>2019-11-10T14:21:50Z</time>
      </trkpt>
      <trkpt lat="44.17875" lon="6.07297">
        <ele>901.819</ele>
        <time>2019-11-10T14:21:56Z</time>
      </trkpt>
      <trkpt lat="44.17865" lon="6.07292">
        <ele>902.798</ele>
        <time>2019-11-10T14:22:02Z</time>
      </trkpt>
      <trkpt lat="44.17857" lon="6.07282">
        <ele>903.596</ele>
        <time>2019-11-10T14:22:08Z</time>
      </trkpt>
      <trkpt lat="44.17852" lon="6.07268">
        <ele>904.337</ele>
        <time>2019-11-10T14:22:14Z</time>
      </trkpt>
      <trkpt lat="44.17849" lon="6.07255">
        <ele>904.819</ele>
        <time>2019-11-10T14:22:19Z</time>
      </trkpt>
      <trkpt lat="44.17847" lon="6.07242">
        <ele>904.97</ele>
        <time>2019-11-10T14:22:24Z</time>
      </trkpt>
      <trkpt lat="44.17842" lon="6.07233">
        <ele>905.324</ele>
        <time>2019-11-10T14:22:29Z</time>
      </trkpt>
      <trkpt lat="44.17838" lon="6.07219">
        <ele>905.593</ele>
        <time>2019-11-10T14:22:35Z</time>
      </trkpt>
      <trkpt lat="44.17835" lon="6.07212">
        <ele>905.962</ele>
        <time>2019-11-10T14:22:40Z</time>
      </trkpt>
      <trkpt lat="44.17836" lon="6.07203">
        <ele>906.953</ele>
        <time>2019-11-10T14:22:46Z</time>
      </trkpt>
      <trkpt lat="44.17827" lon="6.07194">
        <ele>907.721</ele>
        <time>2019-11-10T14:22:52Z</time>
      </trkpt>
      <trkpt lat="44.17823" lon="6.0719">
        <ele>908.476</ele>
        <time>2019-11-10T14:22:57Z</time>
      </trkpt>
      <trkpt lat="44.17817" lon="6.07188">
        <ele>909.502</ele>
        <time>2019-11-10T14:23:03Z</time>
      </trkpt>
      <trkpt lat="44.1781" lon="6.07185">
        <ele>910.485</ele>
        <time>2019-11-10T14:23:08Z</time>
      </trkpt>
      <trkpt lat="44.17801" lon="6.07184">
        <ele>911.62</ele>
        <time>2019-11-10T14:23:14Z</time>
      </trkpt>
      <trkpt lat="44.17796" lon="6.07176">
        <ele>913.848</ele>
        <time>2019-11-10T14:23:19Z</time>
      </trkpt>
      <trkpt lat="44.17789" lon="6.07172">
        <ele>914.556</ele>
        <time>2019-11-10T14:23:24Z</time>
      </trkpt>
      <trkpt lat="44.17784" lon="6.07169">
        <ele>915.019</ele>
        <time>2019-11-10T14:23:29Z</time>
      </trkpt>
      <trkpt lat="44.17778" lon="6.07168">
        <ele>915.787</ele>
        <time>2019-11-10T14:23:34Z</time>
      </trkpt>
      <trkpt lat="44.1777" lon="6.07166">
        <ele>916.41</ele>
        <time>2019-11-10T14:23:40Z</time>
      </trkpt>
      <trkpt lat="44.17769" lon="6.0716">
        <ele>916.207</ele>
        <time>2019-11-10T14:23:46Z</time>
      </trkpt>
      <trkpt lat="44.17772" lon="6.07159">
        <ele>916.053</ele>
        <time>2019-11-10T14:23:51Z</time>
      </trkpt>
      <trkpt lat="44.17774" lon="6.0716">
        <ele>915.965</ele>
        <time>2019-11-10T14:23:57Z</time>
      </trkpt>
      <trkpt lat="44.17772" lon="6.07157">
        <ele>916.019</ele>
        <time>2019-11-10T14:24:02Z</time>
      </trkpt>
      <trkpt lat="44.1777" lon="6.07152">
        <ele>916.188</ele>
        <time>2019-11-10T14:24:08Z</time>
      </trkpt>
      <trkpt lat="44.17769" lon="6.07151">
        <ele>916.255</ele>
        <time>2019-11-10T14:24:14Z</time>
      </trkpt>
      <trkpt lat="44.17771" lon="6.0715">
        <ele>915.915</ele>
        <time>2019-11-10T14:24:20Z</time>
      </trkpt>
      <trkpt lat="44.17769" lon="6.07151">
        <ele>915.712</ele>
        <time>2019-11-10T14:24:25Z</time>
      </trkpt>
      <trkpt lat="44.17769" lon="6.07151">
        <ele>915.488</ele>
        <time>2019-11-10T14:24:30Z</time>
      </trkpt>
      <trkpt lat="44.17771" lon="6.0715">
        <ele>915.079</ele>
        <time>2019-11-10T14:24:36Z</time>
      </trkpt>
      <trkpt lat="44.17772" lon="6.0715">
        <ele>915.049</ele>
        <time>2019-11-10T14:24:42Z</time>
      </trkpt>
      <trkpt lat="44.17772" lon="6.07151">
        <ele>914.882</ele>
        <time>2019-11-10T14:24:47Z</time>
      </trkpt>
      <trkpt lat="44.17772" lon="6.07151">
        <ele>914.722</ele>
        <time>2019-11-10T14:24:52Z</time>
      </trkpt>
      <trkpt lat="44.17771" lon="6.07149">
        <ele>914.625</ele>
        <time>2019-11-10T14:24:58Z</time>
      </trkpt>
      <trkpt lat="44.17772" lon="6.07148">
        <ele>914.62</ele>
        <time>2019-11-10T14:25:04Z</time>
      </trkpt>
      <trkpt lat="44.17773" lon="6.07147">
        <ele>914.576</ele>
        <time>2019-11-10T14:25:10Z</time>
      </trkpt>
      <trkpt lat="44.17774" lon="6.0715">
        <ele>914.426</ele>
        <time>2019-11-10T14:25:16Z</time>
      </trkpt>
      <trkpt lat="44.17772" lon="6.07153">
        <ele>914.436</ele>
        <time>2019-11-10T14:25:21Z</time>
      </trkpt>
      <trkpt lat="44.17777" lon="6.07159">
        <ele>914.671</ele>
        <time>2019-11-10T14:25:27Z</time>
      </trkpt>
      <trkpt lat="44.17782" lon="6.07161">
        <ele>915.253</ele>
        <time>2019-11-10T14:25:33Z</time>
      </trkpt>
      <trkpt lat="44.17787" lon="6.07162">
        <ele>915.196</ele>
        <time>2019-11-10T14:25:38Z</time>
      </trkpt>
      <trkpt lat="44.1779" lon="6.07161">
        <ele>915.376</ele>
        <time>2019-11-10T14:25:43Z</time>
      </trkpt>
      <trkpt lat="44.17793" lon="6.0716">
        <ele>915.531</ele>
        <time>2019-11-10T14:25:48Z</time>
      </trkpt>
      <trkpt lat="44.17793" lon="6.07161">
        <ele>914.752</ele>
        <time>2019-11-10T14:25:54Z</time>
      </trkpt>
      <trkpt lat="44.17795" lon="6.07164">
        <ele>914.314</ele>
        <time>2019-11-10T14:26:00Z</time>
      </trkpt>
      <trkpt lat="44.17795" lon="6.07163">
        <ele>914.108</ele>
        <time>2019-11-10T14:26:05Z</time>
      </trkpt>
      <trkpt lat="44.17797" lon="6.07161">
        <ele>913.836</ele>
        <time>2019-11-10T14:26:11Z</time>
      </trkpt>
      <trkpt lat="44.17797" lon="6.07163">
        <ele>913.301</ele>
        <time>2019-11-10T14:26:17Z</time>
      </trkpt>
      <trkpt lat="44.17794" lon="6.07163">
        <ele>913.299</ele>
        <time>2019-11-10T14:26:22Z</time>
      </trkpt>
      <trkpt lat="44.17793" lon="6.07163">
        <ele>913.543</ele>
        <time>2019-11-10T14:26:28Z</time>
      </trkpt>
      <trkpt lat="44.17791" lon="6.07165">
        <ele>914.325</ele>
        <time>2019-11-10T14:26:34Z</time>
      </trkpt>
      <trkpt lat="44.17792" lon="6.07163">
        <ele>914.188</ele>
        <time>2019-11-10T14:26:40Z</time>
      </trkpt>
      <trkpt lat="44.17791" lon="6.07164">
        <ele>914.177</ele>
        <time>2019-11-10T14:26:45Z</time>
      </trkpt>
      <trkpt lat="44.17788" lon="6.07166">
        <ele>914.171</ele>
        <time>2019-11-10T14:26:51Z</time>
      </trkpt>
      <trkpt lat="44.17784" lon="6.07167">
        <ele>914.401</ele>
        <time>2019-11-10T14:26:56Z</time>
      </trkpt>
      <trkpt lat="44.17776" lon="6.07169">
        <ele>914.896</ele>
        <time>2019-11-10T14:27:02Z</time>
      </trkpt>
      <trkpt lat="44.17772" lon="6.07165">
        <ele>915.466</ele>
        <time>2019-11-10T14:27:08Z</time>
      </trkpt>
      <trkpt lat="44.1777" lon="6.07163">
        <ele>915.86</ele>
        <time>2019-11-10T14:27:14Z</time>
      </trkpt>
      <trkpt lat="44.17769" lon="6.07162">
        <ele>916.459</ele>
        <time>2019-11-10T14:27:19Z</time>
      </trkpt>
      <trkpt lat="44.17768" lon="6.07163">
        <ele>916.387</ele>
        <time>2019-11-10T14:27:25Z</time>
      </trkpt>
      <trkpt lat="44.17768" lon="6.07161">
        <ele>916.089</ele>
        <time>2019-11-10T14:27:30Z</time>
      </trkpt>
      <trkpt lat="44.17769" lon="6.07161">
        <ele>915.963</ele>
        <time>2019-11-10T14:27:36Z</time>
      </trkpt>
      <trkpt lat="44.17771" lon="6.07157">
        <ele>915.906</ele>
        <time>2019-11-10T14:27:42Z</time>
      </trkpt>
      <trkpt lat="44.17772" lon="6.07153">
        <ele>915.954</ele>
        <time>2019-11-10T14:27:48Z</time>
      </trkpt>
      <trkpt lat="44.17771" lon="6.07155">
        <ele>916.078</ele>
        <time>2019-11-10T14:27:54Z</time>
      </trkpt>
      <trkpt lat="44.17769" lon="6.07156">
        <ele>916.247</ele>
        <time>2019-11-10T14:28:00Z</time>
      </trkpt>
      <trkpt lat="44.17768" lon="6.07157">
        <ele>916.418</ele>
        <time>2019-11-10T14:28:06Z</time>
      </trkpt>
      <trkpt lat="44.17768" lon="6.07158">
        <ele>916.488</ele>
        <time>2019-11-10T14:28:12Z</time>
      </trkpt>
      <trkpt lat="44.17769" lon="6.07158">
        <ele>916.509</ele>
        <time>2019-11-10T14:28:17Z</time>
      </trkpt>
      <trkpt lat="44.17769" lon="6.07158">
        <ele>916.498</ele>
        <time>2019-11-10T14:28:23Z</time>
      </trkpt>
      <trkpt lat="44.17769" lon="6.07158">
        <ele>916.505</ele>
        <time>2019-11-10T14:28:28Z</time>
      </trkpt>
      <trkpt lat="44.17769" lon="6.07158">
        <ele>916.529</ele>
        <time>2019-11-10T14:28:34Z</time>
      </trkpt>
      <trkpt lat="44.17769" lon="6.07158">
        <ele>916.551</ele>
        <time>2019-11-10T14:28:39Z</time>
      </trkpt>
      <trkpt lat="44.17767" lon="6.07158">
        <ele>916.764</ele>
        <time>2019-11-10T14:28:45Z</time>
      </trkpt>
      <trkpt lat="44.17767" lon="6.07157">
        <ele>916.736</ele>
        <time>2019-11-10T14:28:51Z</time>
      </trkpt>
      <trkpt lat="44.17768" lon="6.07158">
        <ele>916.651</ele>
        <time>2019-11-10T14:28:56Z</time>
      </trkpt>
      <trkpt lat="44.17768" lon="6.07158">
        <ele>916.563</ele>
        <time>2019-11-10T14:29:01Z</time>
      </trkpt>
      <trkpt lat="44.17768" lon="6.07158">
        <ele>916.609</ele>
        <time>2019-11-10T14:29:07Z</time>
      </trkpt>
      <trkpt lat="44.17768" lon="6.07158">
        <ele>916.682</ele>
        <time>2019-11-10T14:29:13Z</time>
      </trkpt>
      <trkpt lat="44.17768" lon="6.07158">
        <ele>916.724</ele>
        <time>2019-11-10T14:29:18Z</time>
      </trkpt>
      <trkpt lat="44.17768" lon="6.07158">
        <ele>916.75</ele>
        <time>2019-11-10T14:29:23Z</time>
      </trkpt>
      <trkpt lat="44.17768" lon="6.07157">
        <ele>916.723</ele>
        <time>2019-11-10T14:29:29Z</time>
      </trkpt>
      <trkpt lat="44.17768" lon="6.07157">
        <ele>916.537</ele>
        <time>2019-11-10T14:29:35Z</time>
      </trkpt>
      <trkpt lat="44.17768" lon="6.07157">
        <ele>916.444</ele>
        <time>2019-11-10T14:29:40Z</time>
      </trkpt>
      <trkpt lat="44.17768" lon="6.07157">
        <ele>916.115</ele>
        <time>2019-11-10T14:29:46Z</time>
      </trkpt>
      <trkpt lat="44.17768" lon="6.07158">
        <ele>916.299</ele>
        <time>2019-11-10T14:29:51Z</time>
      </trkpt>
      <trkpt lat="44.17768" lon="6.07158">
        <ele>916.313</ele>
        <time>2019-11-10T14:29:56Z</time>
      </trkpt>
      <trkpt lat="44.17768" lon="6.07158">
        <ele>916.447</ele>
        <time>2019-11-10T14:30:02Z</time>
      </trkpt>
      <trkpt lat="44.17768" lon="6.07158">
        <ele>916.436</ele>
        <time>2019-11-10T14:30:08Z</time>
      </trkpt>
      <trkpt lat="44.17768" lon="6.07158">
        <ele>916.361</ele>
        <time>2019-11-10T14:30:14Z</time>
      </trkpt>
      <trkpt lat="44.17768" lon="6.07158">
        <ele>916.457</ele>
        <time>2019-11-10T14:30:20Z</time>
      </trkpt>
      <trkpt lat="44.17768" lon="6.07158">
        <ele>917.319</ele>
        <time>2019-11-10T14:30:26Z</time>
      </trkpt>
      <trkpt lat="44.17768" lon="6.07158">
        <ele>917.503</ele>
        <time>2019-11-10T14:30:32Z</time>
      </trkpt>
      <trkpt lat="44.1777" lon="6.07158">
        <ele>918.299</ele>
        <time>2019-11-10T14:30:37Z</time>
      </trkpt>
      <trkpt lat="44.17771" lon="6.07161">
        <ele>918.848</ele>
        <time>2019-11-10T14:30:43Z</time>
      </trkpt>
      <trkpt lat="44.17771" lon="6.07161">
        <ele>918.907</ele>
        <time>2019-11-10T14:30:49Z</time>
      </trkpt>
      <trkpt lat="44.17771" lon="6.07161">
        <ele>918.801</ele>
        <time>2019-11-10T14:30:54Z</time>
      </trkpt>
      <trkpt lat="44.17771" lon="6.07161">
        <ele>918.693</ele>
        <time>2019-11-10T14:31:00Z</time>
      </trkpt>
      <trkpt lat="44.17771" lon="6.0716">
        <ele>918.356</ele>
        <time>2019-11-10T14:31:05Z</time>
      </trkpt>
      <trkpt lat="44.17771" lon="6.0716">
        <ele>918.336</ele>
        <time>2019-11-10T14:31:11Z</time>
      </trkpt>
      <trkpt lat="44.17771" lon="6.0716">
        <ele>918.358</ele>
        <time>2019-11-10T14:31:16Z</time>
      </trkpt>
      <trkpt lat="44.17769" lon="6.07165">
        <ele>918.936</ele>
        <time>2019-11-10T14:31:22Z</time>
      </trkpt>
      <trkpt lat="44.17777" lon="6.07167">
        <ele>919.028</ele>
        <time>2019-11-10T14:31:27Z</time>
      </trkpt>
      <trkpt lat="44.1779" lon="6.07162">
        <ele>918.674</ele>
        <time>2019-11-10T14:31:33Z</time>
      </trkpt>
      <trkpt lat="44.17797" lon="6.0715">
        <ele>918.083</ele>
        <time>2019-11-10T14:31:39Z</time>
      </trkpt>
      <trkpt lat="44.17803" lon="6.07133">
        <ele>917.329</ele>
        <time>2019-11-10T14:31:45Z</time>
      </trkpt>
      <trkpt lat="44.17805" lon="6.07129">
        <ele>916.649</ele>
        <time>2019-11-10T14:31:51Z</time>
      </trkpt>
      <trkpt lat="44.17807" lon="6.07128">
        <ele>915.469</ele>
        <time>2019-11-10T14:31:57Z</time>
      </trkpt>
      <trkpt lat="44.17812" lon="6.07124">
        <ele>914.637</ele>
        <time>2019-11-10T14:32:02Z</time>
      </trkpt>
      <trkpt lat="44.17819" lon="6.07105">
        <ele>913.262</ele>
        <time>2019-11-10T14:32:08Z</time>
      </trkpt>
      <trkpt lat="44.17816" lon="6.07096">
        <ele>912.261</ele>
        <time>2019-11-10T14:32:13Z</time>
      </trkpt>
      <trkpt lat="44.17815" lon="6.07095">
        <ele>911.863</ele>
        <time>2019-11-10T14:32:19Z</time>
      </trkpt>
      <trkpt lat="44.17815" lon="6.07092">
        <ele>911.374</ele>
        <time>2019-11-10T14:32:24Z</time>
      </trkpt>
      <trkpt lat="44.17815" lon="6.07088">
        <ele>911.143</ele>
        <time>2019-11-10T14:32:30Z</time>
      </trkpt>
      <trkpt lat="44.17816" lon="6.07085">
        <ele>911.06</ele>
        <time>2019-11-10T14:32:36Z</time>
      </trkpt>
      <trkpt lat="44.17816" lon="6.07083">
        <ele>910.266</ele>
        <time>2019-11-10T14:32:42Z</time>
      </trkpt>
      <trkpt lat="44.17814" lon="6.0706">
        <ele>909.093</ele>
        <time>2019-11-10T14:32:48Z</time>
      </trkpt>
      <trkpt lat="44.17822" lon="6.07035">
        <ele>907.668</ele>
        <time>2019-11-10T14:32:54Z</time>
      </trkpt>
      <trkpt lat="44.17833" lon="6.06989">
        <ele>903.218</ele>
        <time>2019-11-10T14:33:00Z</time>
      </trkpt>
      <trkpt lat="44.17837" lon="6.06962">
        <ele>899.828</ele>
        <time>2019-11-10T14:33:05Z</time>
      </trkpt>
      <trkpt lat="44.17846" lon="6.06933">
        <ele>897.967</ele>
        <time>2019-11-10T14:33:11Z</time>
      </trkpt>
      <trkpt lat="44.17853" lon="6.06919">
        <ele>896.209</ele>
        <time>2019-11-10T14:33:16Z</time>
      </trkpt>
      <trkpt lat="44.17869" lon="6.06902">
        <ele>894.629</ele>
        <time>2019-11-10T14:33:21Z</time>
      </trkpt>
      <trkpt lat="44.1788" lon="6.06897">
        <ele>892.761</ele>
        <time>2019-11-10T14:33:26Z</time>
      </trkpt>
      <trkpt lat="44.17889" lon="6.06892">
        <ele>890.428</ele>
        <time>2019-11-10T14:33:32Z</time>
      </trkpt>
      <trkpt lat="44.17888" lon="6.06878">
        <ele>888.464</ele>
        <time>2019-11-10T14:33:37Z</time>
      </trkpt>
      <trkpt lat="44.17888" lon="6.06868">
        <ele>886.354</ele>
        <time>2019-11-10T14:33:43Z</time>
      </trkpt>
      <trkpt lat="44.17895" lon="6.0684">
        <ele>884.399</ele>
        <time>2019-11-10T14:33:48Z</time>
      </trkpt>
      <trkpt lat="44.17908" lon="6.06812">
        <ele>882.089</ele>
        <time>2019-11-10T14:33:54Z</time>
      </trkpt>
      <trkpt lat="44.17917" lon="6.06802">
        <ele>879.847</ele>
        <time>2019-11-10T14:34:00Z</time>
      </trkpt>
      <trkpt lat="44.17918" lon="6.06789">
        <ele>876.932</ele>
        <time>2019-11-10T14:34:06Z</time>
      </trkpt>
      <trkpt lat="44.1792" lon="6.06788">
        <ele>875.273</ele>
        <time>2019-11-10T14:34:11Z</time>
      </trkpt>
      <trkpt lat="44.17927" lon="6.06774">
        <ele>873.509</ele>
        <time>2019-11-10T14:34:16Z</time>
      </trkpt>
      <trkpt lat="44.17933" lon="6.06752">
        <ele>871.474</ele>
        <time>2019-11-10T14:34:22Z</time>
      </trkpt>
      <trkpt lat="44.1794" lon="6.06724">
        <ele>869.644</ele>
        <time>2019-11-10T14:34:27Z</time>
      </trkpt>
      <trkpt lat="44.17954" lon="6.06694">
        <ele>866.977</ele>
        <time>2019-11-10T14:34:33Z</time>
      </trkpt>
      <trkpt lat="44.17966" lon="6.06672">
        <ele>864.7</ele>
        <time>2019-11-10T14:34:38Z</time>
      </trkpt>
      <trkpt lat="44.17982" lon="6.06659">
        <ele>861.802</ele>
        <time>2019-11-10T14:34:44Z</time>
      </trkpt>
      <trkpt lat="44.17999" lon="6.06628">
        <ele>854.047</ele>
        <time>2019-11-10T14:34:50Z</time>
      </trkpt>
      <trkpt lat="44.18021" lon="6.06585">
        <ele>845.09</ele>
        <time>2019-11-10T14:34:55Z</time>
      </trkpt>
      <trkpt lat="44.18032" lon="6.06579">
        <ele>843.421</ele>
        <time>2019-11-10T14:35:01Z</time>
      </trkpt>
      <trkpt lat="44.18039" lon="6.06564">
        <ele>841.671</ele>
        <time>2019-11-10T14:35:07Z</time>
      </trkpt>
      <trkpt lat="44.18053" lon="6.06556">
        <ele>835.239</ele>
        <time>2019-11-10T14:35:12Z</time>
      </trkpt>
      <trkpt lat="44.18046" lon="6.06541">
        <ele>832.417</ele>
        <time>2019-11-10T14:35:18Z</time>
      </trkpt>
      <trkpt lat="44.18048" lon="6.06514">
        <ele>829.669</ele>
        <time>2019-11-10T14:35:24Z</time>
      </trkpt>
      <trkpt lat="44.18064" lon="6.06489">
        <ele>826.818</ele>
        <time>2019-11-10T14:35:30Z</time>
      </trkpt>
      <trkpt lat="44.18083" lon="6.06488">
        <ele>823.763</ele>
        <time>2019-11-10T14:35:36Z</time>
      </trkpt>
      <trkpt lat="44.18092" lon="6.06475">
        <ele>820.556</ele>
        <time>2019-11-10T14:35:42Z</time>
      </trkpt>
      <trkpt lat="44.18092" lon="6.06465">
        <ele>817.561</ele>
        <time>2019-11-10T14:35:47Z</time>
      </trkpt>
      <trkpt lat="44.18098" lon="6.06439">
        <ele>814.382</ele>
        <time>2019-11-10T14:35:53Z</time>
      </trkpt>
      <trkpt lat="44.18112" lon="6.06429">
        <ele>812.106</ele>
        <time>2019-11-10T14:35:58Z</time>
      </trkpt>
      <trkpt lat="44.18122" lon="6.06412">
        <ele>810.395</ele>
        <time>2019-11-10T14:36:04Z</time>
      </trkpt>
      <trkpt lat="44.18128" lon="6.06391">
        <ele>807.825</ele>
        <time>2019-11-10T14:36:10Z</time>
      </trkpt>
      <trkpt lat="44.18135" lon="6.06361">
        <ele>805.551</ele>
        <time>2019-11-10T14:36:16Z</time>
      </trkpt>
      <trkpt lat="44.18143" lon="6.06317">
        <ele>802.97</ele>
        <time>2019-11-10T14:36:22Z</time>
      </trkpt>
      <trkpt lat="44.18157" lon="6.06291">
        <ele>800.591</ele>
        <time>2019-11-10T14:36:27Z</time>
      </trkpt>
      <trkpt lat="44.18177" lon="6.06272">
        <ele>797.924</ele>
        <time>2019-11-10T14:36:33Z</time>
      </trkpt>
      <trkpt lat="44.1819" lon="6.06248">
        <ele>794.717</ele>
        <time>2019-11-10T14:36:39Z</time>
      </trkpt>
      <trkpt lat="44.18198" lon="6.06239">
        <ele>792.027</ele>
        <time>2019-11-10T14:36:44Z</time>
      </trkpt>
      <trkpt lat="44.18202" lon="6.06232">
        <ele>788.61</ele>
        <time>2019-11-10T14:36:50Z</time>
      </trkpt>
      <trkpt lat="44.1821" lon="6.06236">
        <ele>785.378</ele>
        <time>2019-11-10T14:36:56Z</time>
      </trkpt>
      <trkpt lat="44.18216" lon="6.06237">
        <ele>782.672</ele>
        <time>2019-11-10T14:37:01Z</time>
      </trkpt>
      <trkpt lat="44.1822" lon="6.06231">
        <ele>781.043</ele>
        <time>2019-11-10T14:37:06Z</time>
      </trkpt>
      <trkpt lat="44.18219" lon="6.06228">
        <ele>779.67</ele>
        <time>2019-11-10T14:37:12Z</time>
      </trkpt>
      <trkpt lat="44.18221" lon="6.06225">
        <ele>778.726</ele>
        <time>2019-11-10T14:37:17Z</time>
      </trkpt>
      <trkpt lat="44.18227" lon="6.06216">
        <ele>777.442</ele>
        <time>2019-11-10T14:37:23Z</time>
      </trkpt>
      <trkpt lat="44.18232" lon="6.06209">
        <ele>775.592</ele>
        <time>2019-11-10T14:37:28Z</time>
      </trkpt>
      <trkpt lat="44.18231" lon="6.06206">
        <ele>773.879</ele>
        <time>2019-11-10T14:37:34Z</time>
      </trkpt>
      <trkpt lat="44.18232" lon="6.06202">
        <ele>772.699</ele>
        <time>2019-11-10T14:37:40Z</time>
      </trkpt>
      <trkpt lat="44.18233" lon="6.062">
        <ele>771.777</ele>
        <time>2019-11-10T14:37:45Z</time>
      </trkpt>
      <trkpt lat="44.18235" lon="6.06197">
        <ele>771.204</ele>
        <time>2019-11-10T14:37:51Z</time>
      </trkpt>
      <trkpt lat="44.18241" lon="6.06186">
        <ele>770.06</ele>
        <time>2019-11-10T14:37:57Z</time>
      </trkpt>
      <trkpt lat="44.18247" lon="6.06179">
        <ele>769.428</ele>
        <time>2019-11-10T14:38:03Z</time>
      </trkpt>
      <trkpt lat="44.18257" lon="6.06174">
        <ele>769.014</ele>
        <time>2019-11-10T14:38:09Z</time>
      </trkpt>
      <trkpt lat="44.18265" lon="6.06169">
        <ele>769.174</ele>
        <time>2019-11-10T14:38:15Z</time>
      </trkpt>
      <trkpt lat="44.18272" lon="6.06167">
        <ele>769.227</ele>
        <time>2019-11-10T14:38:21Z</time>
      </trkpt>
      <trkpt lat="44.18284" lon="6.06164">
        <ele>769.107</ele>
        <time>2019-11-10T14:38:27Z</time>
      </trkpt>
      <trkpt lat="44.18293" lon="6.06164">
        <ele>768.906</ele>
        <time>2019-11-10T14:38:32Z</time>
      </trkpt>
      <trkpt lat="44.18304" lon="6.06156">
        <ele>769.811</ele>
        <time>2019-11-10T14:38:38Z</time>
      </trkpt>
      <trkpt lat="44.18317" lon="6.06148">
        <ele>770.58</ele>
        <time>2019-11-10T14:38:43Z</time>
      </trkpt>
      <trkpt lat="44.18336" lon="6.06133">
        <ele>773.033</ele>
        <time>2019-11-10T14:38:49Z</time>
      </trkpt>
      <trkpt lat="44.18342" lon="6.06114">
        <ele>774.338</ele>
        <time>2019-11-10T14:38:54Z</time>
      </trkpt>
      <trkpt lat="44.18346" lon="6.06085">
        <ele>775.357</ele>
        <time>2019-11-10T14:39:00Z</time>
      </trkpt>
      <trkpt lat="44.18356" lon="6.06039">
        <ele>762.684</ele>
        <time>2019-11-10T14:39:06Z</time>
      </trkpt>
      <trkpt lat="44.18369" lon="6.05999">
        <ele>754.5</ele>
        <time>2019-11-10T14:39:11Z</time>
      </trkpt>
      <trkpt lat="44.184" lon="6.05948">
        <ele>747.618</ele>
        <time>2019-11-10T14:39:17Z</time>
      </trkpt>
      <trkpt lat="44.18398" lon="6.05915">
        <ele>744.433</ele>
        <time>2019-11-10T14:39:23Z</time>
      </trkpt>
      <trkpt lat="44.18403" lon="6.05887">
        <ele>743.178</ele>
        <time>2019-11-10T14:39:29Z</time>
      </trkpt>
      <trkpt lat="44.18409" lon="6.0586">
        <ele>743.883</ele>
        <time>2019-11-10T14:39:35Z</time>
      </trkpt>
      <trkpt lat="44.18415" lon="6.05832">
        <ele>745.045</ele>
        <time>2019-11-10T14:39:41Z</time>
      </trkpt>
      <trkpt lat="44.1842" lon="6.05811">
        <ele>745.982</ele>
        <time>2019-11-10T14:39:46Z</time>
      </trkpt>
      <trkpt lat="44.18427" lon="6.05792">
        <ele>746.493</ele>
        <time>2019-11-10T14:39:51Z</time>
      </trkpt>
      <trkpt lat="44.18439" lon="6.05774">
        <ele>747.009</ele>
        <time>2019-11-10T14:39:57Z</time>
      </trkpt>
      <trkpt lat="44.1845" lon="6.05757">
        <ele>747.551</ele>
        <time>2019-11-10T14:40:02Z</time>
      </trkpt>
      <trkpt lat="44.18458" lon="6.0573">
        <ele>747.881</ele>
        <time>2019-11-10T14:40:08Z</time>
      </trkpt>
      <trkpt lat="44.18461" lon="6.05711">
        <ele>748.681</ele>
        <time>2019-11-10T14:40:14Z</time>
      </trkpt>
      <trkpt lat="44.18463" lon="6.05689">
        <ele>749.272</ele>
        <time>2019-11-10T14:40:19Z</time>
      </trkpt>
      <trkpt lat="44.18465" lon="6.05669">
        <ele>749.778</ele>
        <time>2019-11-10T14:40:24Z</time>
      </trkpt>
      <trkpt lat="44.18468" lon="6.0565">
        <ele>750.452</ele>
        <time>2019-11-10T14:40:29Z</time>
      </trkpt>
      <trkpt lat="44.18471" lon="6.0563">
        <ele>751.5</ele>
        <time>2019-11-10T14:40:35Z</time>
      </trkpt>
      <trkpt lat="44.18469" lon="6.05611">
        <ele>752.929</ele>
        <time>2019-11-10T14:40:41Z</time>
      </trkpt>
      <trkpt lat="44.18466" lon="6.05598">
        <ele>754.169</ele>
        <time>2019-11-10T14:40:46Z</time>
      </trkpt>
      <trkpt lat="44.18463" lon="6.0558">
        <ele>755.814</ele>
        <time>2019-11-10T14:40:52Z</time>
      </trkpt>
      <trkpt lat="44.18463" lon="6.05552">
        <ele>757.206</ele>
        <time>2019-11-10T14:40:58Z</time>
      </trkpt>
      <trkpt lat="44.18465" lon="6.05528">
        <ele>758.754</ele>
        <time>2019-11-10T14:41:04Z</time>
      </trkpt>
      <trkpt lat="44.18465" lon="6.05515">
        <ele>759.714</ele>
        <time>2019-11-10T14:41:10Z</time>
      </trkpt>
      <trkpt lat="44.1847" lon="6.05511">
        <ele>760.189</ele>
        <time>2019-11-10T14:41:15Z</time>
      </trkpt>
      <trkpt lat="44.18466" lon="6.05499">
        <ele>760.385</ele>
        <time>2019-11-10T14:41:21Z</time>
      </trkpt>
      <trkpt lat="44.18452" lon="6.05475">
        <ele>762.73</ele>
        <time>2019-11-10T14:41:26Z</time>
      </trkpt>
      <trkpt lat="44.18437" lon="6.05429">
        <ele>762.5</ele>
        <time>2019-11-10T14:41:32Z</time>
      </trkpt>
      <trkpt lat="44.18432" lon="6.05376">
        <ele>760.496</ele>
        <time>2019-11-10T14:41:38Z</time>
      </trkpt>
      <trkpt lat="44.18418" lon="6.05318">
        <ele>761.331</ele>
        <time>2019-11-10T14:41:44Z</time>
      </trkpt>
      <trkpt lat="44.18415" lon="6.05275">
        <ele>759.296</ele>
        <time>2019-11-10T14:41:49Z</time>
      </trkpt>
      <trkpt lat="44.18416" lon="6.05271">
        <ele>759.24</ele>
        <time>2019-11-10T14:41:54Z</time>
      </trkpt>
      <trkpt lat="44.18416" lon="6.05271">
        <ele>758.813</ele>
        <time>2019-11-10T14:42:00Z</time>
      </trkpt>
      <trkpt lat="44.18418" lon="6.05239">
        <ele>758.213</ele>
        <time>2019-11-10T14:42:05Z</time>
      </trkpt>
      <trkpt lat="44.18419" lon="6.05203">
        <ele>750.869</ele>
        <time>2019-11-10T14:42:10Z</time>
      </trkpt>
      <trkpt lat="44.18443" lon="6.0518">
        <ele>748.872</ele>
        <time>2019-11-10T14:42:16Z</time>
      </trkpt>
      <trkpt lat="44.1847" lon="6.05173">
        <ele>749.425</ele>
        <time>2019-11-10T14:42:21Z</time>
      </trkpt>
      <trkpt lat="44.18511" lon="6.05163">
        <ele>750.795</ele>
        <time>2019-11-10T14:42:27Z</time>
      </trkpt>
      <trkpt lat="44.1853" lon="6.05161">
        <ele>751.1</ele>
        <time>2019-11-10T14:42:32Z</time>
      </trkpt>
      <trkpt lat="44.1854" lon="6.05145">
        <ele>753.629</ele>
        <time>2019-11-10T14:42:37Z</time>
      </trkpt>
      <trkpt lat="44.18567" lon="6.05086">
        <ele>756.334</ele>
        <time>2019-11-10T14:42:43Z</time>
      </trkpt>
      <trkpt lat="44.1859" lon="6.05035">
        <ele>752.002</ele>
        <time>2019-11-10T14:42:48Z</time>
      </trkpt>
      <trkpt lat="44.18628" lon="6.04992">
        <ele>752.265</ele>
        <time>2019-11-10T14:42:54Z</time>
      </trkpt>
      <trkpt lat="44.18673" lon="6.04944">
        <ele>749.862</ele>
        <time>2019-11-10T14:43:00Z</time>
      </trkpt>
      <trkpt lat="44.18694" lon="6.04891">
        <ele>737.18</ele>
        <time>2019-11-10T14:43:05Z</time>
      </trkpt>
      <trkpt lat="44.18698" lon="6.04865">
        <ele>726.934</ele>
        <time>2019-11-10T14:43:11Z</time>
      </trkpt>
      <trkpt lat="44.18698" lon="6.04865">
        <ele>726.456</ele>
        <time>2019-11-10T14:43:17Z</time>
      </trkpt>
      <trkpt lat="44.18698" lon="6.04865">
        <ele>726.391</ele>
        <time>2019-11-10T14:43:23Z</time>
      </trkpt>
      <trkpt lat="44.18698" lon="6.04865">
        <ele>726.343</ele>
        <time>2019-11-10T14:43:28Z</time>
      </trkpt>
      <trkpt lat="44.18698" lon="6.04865">
        <ele>726.296</ele>
        <time>2019-11-10T14:43:33Z</time>
      </trkpt>
      <trkpt lat="44.18698" lon="6.04865">
        <ele>726.227</ele>
        <time>2019-11-10T14:43:39Z</time>
      </trkpt>
      <trkpt lat="44.18698" lon="6.04865">
        <ele>726.179</ele>
        <time>2019-11-10T14:43:45Z</time>
      </trkpt>
      <trkpt lat="44.18698" lon="6.04865">
        <ele>725.645</ele>
        <time>2019-11-10T14:43:50Z</time>
      </trkpt>
      <trkpt lat="44.18698" lon="6.04865">
        <ele>724.714</ele>
        <time>2019-11-10T14:43:56Z</time>
      </trkpt>
      <trkpt lat="44.18698" lon="6.04865">
        <ele>723.649</ele>
        <time>2019-11-10T14:44:02Z</time>
      </trkpt>
      <trkpt lat="44.18698" lon="6.04865">
        <ele>722.907</ele>
        <time>2019-11-10T14:44:07Z</time>
      </trkpt>
      <trkpt lat="44.18698" lon="6.04865">
        <ele>722.126</ele>
        <time>2019-11-10T14:44:13Z</time>
      </trkpt>
      <trkpt lat="44.18698" lon="6.04865">
        <ele>722.043</ele>
        <time>2019-11-10T14:44:18Z</time>
      </trkpt>
      <trkpt lat="44.18689" lon="6.04864">
        <ele>721.471</ele>
        <time>2019-11-10T14:44:24Z</time>
      </trkpt>
      <trkpt lat="44.18689" lon="6.04864">
        <ele>721.152</ele>
        <time>2019-11-10T14:44:30Z</time>
      </trkpt>
      <trkpt lat="44.18689" lon="6.04864">
        <ele>721.078</ele>
        <time>2019-11-10T14:44:36Z</time>
      </trkpt>
      <trkpt lat="44.18689" lon="6.04864">
        <ele>721.155</ele>
        <time>2019-11-10T14:44:42Z</time>
      </trkpt>
      <trkpt lat="44.18689" lon="6.04864">
        <ele>721.253</ele>
        <time>2019-11-10T14:44:48Z</time>
      </trkpt>
      <trkpt lat="44.18689" lon="6.04864">
        <ele>721.418</ele>
        <time>2019-11-10T14:44:53Z</time>
      </trkpt>
      <trkpt lat="44.18689" lon="6.04864">
        <ele>721.53</ele>
        <time>2019-11-10T14:44:59Z</time>
      </trkpt>
      <trkpt lat="44.18689" lon="6.04864">
        <ele>721.572</ele>
        <time>2019-11-10T14:45:05Z</time>
      </trkpt>
      <trkpt lat="44.18689" lon="6.04864">
        <ele>721.596</ele>
        <time>2019-11-10T14:45:11Z</time>
      </trkpt>
      <trkpt lat="44.18689" lon="6.04864">
        <ele>722.324</ele>
        <time>2019-11-10T14:45:16Z</time>
      </trkpt>
      <trkpt lat="44.18689" lon="6.04864">
        <ele>722.508</ele>
        <time>2019-11-10T14:45:22Z</time>
      </trkpt>
      <trkpt lat="44.18679" lon="6.04866">
        <ele>722.331</ele>
        <time>2019-11-10T14:45:28Z</time>
      </trkpt>
      <trkpt lat="44.18679" lon="6.04866">
        <ele>722.196</ele>
        <time>2019-11-10T14:45:34Z</time>
      </trkpt>
      <trkpt lat="44.18679" lon="6.04866">
        <ele>721.938</ele>
        <time>2019-11-10T14:45:39Z</time>
      </trkpt>
      <trkpt lat="44.18679" lon="6.04866">
        <ele>721.826</ele>
        <time>2019-11-10T14:45:44Z</time>
      </trkpt>
      <trkpt lat="44.18679" lon="6.04866">
        <ele>721.609</ele>
        <time>2019-11-10T14:45:50Z</time>
      </trkpt>
      <trkpt lat="44.18679" lon="6.04866">
        <ele>721.497</ele>
        <time>2019-11-10T14:45:55Z</time>
      </trkpt>
      <trkpt lat="44.18679" lon="6.04866">
        <ele>721.471</ele>
        <time>2019-11-10T14:46:00Z</time>
      </trkpt>
      <trkpt lat="44.18679" lon="6.04866">
        <ele>721.469</ele>
        <time>2019-11-10T14:46:05Z</time>
      </trkpt>
      <trkpt lat="44.18679" lon="6.04866">
        <ele>722.088</ele>
        <time>2019-11-10T14:46:11Z</time>
      </trkpt>
      <trkpt lat="44.18679" lon="6.04866">
        <ele>722.892</ele>
        <time>2019-11-10T14:46:17Z</time>
      </trkpt>
      <trkpt lat="44.18692" lon="6.04836">
        <ele>723.339</ele>
        <time>2019-11-10T14:46:23Z</time>
      </trkpt>
      <trkpt lat="44.18701" lon="6.04827">
        <ele>723.128</ele>
        <time>2019-11-10T14:46:28Z</time>
      </trkpt>
      <trkpt lat="44.18707" lon="6.04812">
        <ele>721.148</ele>
        <time>2019-11-10T14:46:33Z</time>
      </trkpt>
      <trkpt lat="44.18719" lon="6.04795">
        <ele>720.462</ele>
        <time>2019-11-10T14:46:38Z</time>
      </trkpt>
      <trkpt lat="44.18728" lon="6.04764">
        <ele>720.043</ele>
        <time>2019-11-10T14:46:44Z</time>
      </trkpt>
      <trkpt lat="44.18741" lon="6.0472">
        <ele>708.947</ele>
        <time>2019-11-10T14:46:50Z</time>
      </trkpt>
      <trkpt lat="44.18747" lon="6.04693">
        <ele>705.096</ele>
        <time>2019-11-10T14:46:56Z</time>
      </trkpt>
      <trkpt lat="44.18765" lon="6.04667">
        <ele>699.585</ele>
        <time>2019-11-10T14:47:02Z</time>
      </trkpt>
      <trkpt lat="44.18769" lon="6.04655">
        <ele>697.966</ele>
        <time>2019-11-10T14:47:08Z</time>
      </trkpt>
      <trkpt lat="44.18754" lon="6.04641">
        <ele>694.678</ele>
        <time>2019-11-10T14:47:14Z</time>
      </trkpt>
      <trkpt lat="44.18732" lon="6.046">
        <ele>685.485</ele>
        <time>2019-11-10T14:47:20Z</time>
      </trkpt>
      <trkpt lat="44.18703" lon="6.04569">
        <ele>681.12</ele>
        <time>2019-11-10T14:47:25Z</time>
      </trkpt>
      <trkpt lat="44.18688" lon="6.04505">
        <ele>679.188</ele>
        <time>2019-11-10T14:47:30Z</time>
      </trkpt>
      <trkpt lat="44.18669" lon="6.04453">
        <ele>675.886</ele>
        <time>2019-11-10T14:47:36Z</time>
      </trkpt>
      <trkpt lat="44.18685" lon="6.04392">
        <ele>669.342</ele>
        <time>2019-11-10T14:47:42Z</time>
      </trkpt>
      <trkpt lat="44.18708" lon="6.04375">
        <ele>668.879</ele>
        <time>2019-11-10T14:47:47Z</time>
      </trkpt>
      <trkpt lat="44.18708" lon="6.0437">
        <ele>667.743</ele>
        <time>2019-11-10T14:47:53Z</time>
      </trkpt>
      <trkpt lat="44.18716" lon="6.04363">
        <ele>667.227</ele>
        <time>2019-11-10T14:47:59Z</time>
      </trkpt>
      <trkpt lat="44.18718" lon="6.04351">
        <ele>666.954</ele>
        <time>2019-11-10T14:48:04Z</time>
      </trkpt>
      <trkpt lat="44.18721" lon="6.04332">
        <ele>666.458</ele>
        <time>2019-11-10T14:48:10Z</time>
      </trkpt>
      <trkpt lat="44.18726" lon="6.04314">
        <ele>666.39</ele>
        <time>2019-11-10T14:48:16Z</time>
      </trkpt>
      <trkpt lat="44.18729" lon="6.04285">
        <ele>666.813</ele>
        <time>2019-11-10T14:48:22Z</time>
      </trkpt>
      <trkpt lat="44.18727" lon="6.04267">
        <ele>667.297</ele>
        <time>2019-11-10T14:48:27Z</time>
      </trkpt>
      <trkpt lat="44.18725" lon="6.04255">
        <ele>667.618</ele>
        <time>2019-11-10T14:48:32Z</time>
      </trkpt>
      <trkpt lat="44.18722" lon="6.0424">
        <ele>668.074</ele>
        <time>2019-11-10T14:48:37Z</time>
      </trkpt>
      <trkpt lat="44.1872" lon="6.04233">
        <ele>669.106</ele>
        <time>2019-11-10T14:48:43Z</time>
      </trkpt>
      <trkpt lat="44.1872" lon="6.04233">
        <ele>669.369</ele>
        <time>2019-11-10T14:48:49Z</time>
      </trkpt>
      <trkpt lat="44.1872" lon="6.04233">
        <ele>669.774</ele>
        <time>2019-11-10T14:48:55Z</time>
      </trkpt>
      <trkpt lat="44.1872" lon="6.04233">
        <ele>669.846</ele>
        <time>2019-11-10T14:49:00Z</time>
      </trkpt>
      <trkpt lat="44.1872" lon="6.04233">
        <ele>669.87</ele>
        <time>2019-11-10T14:49:05Z</time>
      </trkpt>
      <trkpt lat="44.1872" lon="6.04233">
        <ele>669.901</ele>
        <time>2019-11-10T14:49:11Z</time>
      </trkpt>
      <trkpt lat="44.1872" lon="6.04233">
        <ele>669.946</ele>
        <time>2019-11-10T14:49:16Z</time>
      </trkpt>
      <trkpt lat="44.1872" lon="6.04233">
        <ele>670.009</ele>
        <time>2019-11-10T14:49:22Z</time>
      </trkpt>
      <trkpt lat="44.1872" lon="6.04233">
        <ele>669.929</ele>
        <time>2019-11-10T14:49:27Z</time>
      </trkpt>
      <trkpt lat="44.1872" lon="6.04233">
        <ele>669.825</ele>
        <time>2019-11-10T14:49:33Z</time>
      </trkpt>
      <trkpt lat="44.1872" lon="6.04233">
        <ele>669.791</ele>
        <time>2019-11-10T14:49:39Z</time>
      </trkpt>
      <trkpt lat="44.18713" lon="6.04196">
        <ele>670.776</ele>
        <time>2019-11-10T14:49:45Z</time>
      </trkpt>
      <trkpt lat="44.18713" lon="6.04166">
        <ele>671.781</ele>
        <time>2019-11-10T14:49:51Z</time>
      </trkpt>
      <trkpt lat="44.18715" lon="6.04153">
        <ele>672.365</ele>
        <time>2019-11-10T14:49:56Z</time>
      </trkpt>
      <trkpt lat="44.18713" lon="6.0414">
        <ele>672.991</ele>
        <time>2019-11-10T14:50:01Z</time>
      </trkpt>
      <trkpt lat="44.18717" lon="6.04127">
        <ele>673.844</ele>
        <time>2019-11-10T14:50:06Z</time>
      </trkpt>
      <trkpt lat="44.18724" lon="6.04109">
        <ele>674.462</ele>
        <time>2019-11-10T14:50:11Z</time>
      </trkpt>
      <trkpt lat="44.1874" lon="6.04094">
        <ele>675.432</ele>
        <time>2019-11-10T14:50:17Z</time>
      </trkpt>
      <trkpt lat="44.1875" lon="6.04083">
        <ele>676.274</ele>
        <time>2019-11-10T14:50:22Z</time>
      </trkpt>
      <trkpt lat="44.18753" lon="6.04072">
        <ele>677.066</ele>
        <time>2019-11-10T14:50:27Z</time>
      </trkpt>
      <trkpt lat="44.18746" lon="6.04059">
        <ele>678.388</ele>
        <time>2019-11-10T14:50:33Z</time>
      </trkpt>
      <trkpt lat="44.18743" lon="6.04041">
        <ele>678.93</ele>
        <time>2019-11-10T14:50:38Z</time>
      </trkpt>
      <trkpt lat="44.18734" lon="6.04025">
        <ele>679.824</ele>
        <time>2019-11-10T14:50:44Z</time>
      </trkpt>
      <trkpt lat="44.18726" lon="6.0401">
        <ele>680.767</ele>
        <time>2019-11-10T14:50:50Z</time>
      </trkpt>
      <trkpt lat="44.18724" lon="6.03996">
        <ele>681.805</ele>
        <time>2019-11-10T14:50:55Z</time>
      </trkpt>
      <trkpt lat="44.18717" lon="6.03979">
        <ele>683.718</ele>
        <time>2019-11-10T14:51:01Z</time>
      </trkpt>
      <trkpt lat="44.18715" lon="6.03962">
        <ele>685.91</ele>
        <time>2019-11-10T14:51:07Z</time>
      </trkpt>
      <trkpt lat="44.1871" lon="6.03944">
        <ele>688.6</ele>
        <time>2019-11-10T14:51:13Z</time>
      </trkpt>
      <trkpt lat="44.18699" lon="6.03942">
        <ele>692.034</ele>
        <time>2019-11-10T14:51:19Z</time>
      </trkpt>
      <trkpt lat="44.18689" lon="6.0394">
        <ele>694.681</ele>
        <time>2019-11-10T14:51:25Z</time>
      </trkpt>
      <trkpt lat="44.1868" lon="6.03937">
        <ele>695.944</ele>
        <time>2019-11-10T14:51:31Z</time>
      </trkpt>
      <trkpt lat="44.18666" lon="6.03934">
        <ele>697.427</ele>
        <time>2019-11-10T14:51:37Z</time>
      </trkpt>
      <trkpt lat="44.1865" lon="6.03929">
        <ele>698.276</ele>
        <time>2019-11-10T14:51:43Z</time>
      </trkpt>
      <trkpt lat="44.18636" lon="6.03925">
        <ele>698.669</ele>
        <time>2019-11-10T14:51:48Z</time>
      </trkpt>
      <trkpt lat="44.1862" lon="6.03919">
        <ele>699.72</ele>
        <time>2019-11-10T14:51:54Z</time>
      </trkpt>
      <trkpt lat="44.18604" lon="6.03912">
        <ele>700.467</ele>
        <time>2019-11-10T14:52:00Z</time>
      </trkpt>
      <trkpt lat="44.1859" lon="6.03896">
        <ele>701.099</ele>
        <time>2019-11-10T14:52:05Z</time>
      </trkpt>
      <trkpt lat="44.1859" lon="6.03871">
        <ele>701.233</ele>
        <time>2019-11-10T14:52:11Z</time>
      </trkpt>
      <trkpt lat="44.18589" lon="6.03849">
        <ele>701.77</ele>
        <time>2019-11-10T14:52:17Z</time>
      </trkpt>
      <trkpt lat="44.18583" lon="6.03834">
        <ele>702.055</ele>
        <time>2019-11-10T14:52:22Z</time>
      </trkpt>
      <trkpt lat="44.18571" lon="6.03829">
        <ele>702.597</ele>
        <time>2019-11-10T14:52:28Z</time>
      </trkpt>
      <trkpt lat="44.18556" lon="6.03827">
        <ele>702.854</ele>
        <time>2019-11-10T14:52:33Z</time>
      </trkpt>
      <trkpt lat="44.18543" lon="6.03828">
        <ele>703.03</ele>
        <time>2019-11-10T14:52:38Z</time>
      </trkpt>
      <trkpt lat="44.18526" lon="6.03836">
        <ele>703.596</ele>
        <time>2019-11-10T14:52:44Z</time>
      </trkpt>
      <trkpt lat="44.18512" lon="6.03838">
        <ele>703.911</ele>
        <time>2019-11-10T14:52:49Z</time>
      </trkpt>
      <trkpt lat="44.18492" lon="6.03838">
        <ele>704.385</ele>
        <time>2019-11-10T14:52:55Z</time>
      </trkpt>
      <trkpt lat="44.18472" lon="6.0384">
        <ele>705.066</ele>
        <time>2019-11-10T14:53:00Z</time>
      </trkpt>
      <trkpt lat="44.18453" lon="6.0384">
        <ele>705.614</ele>
        <time>2019-11-10T14:53:06Z</time>
      </trkpt>
      <trkpt lat="44.18438" lon="6.03831">
        <ele>706.095</ele>
        <time>2019-11-10T14:53:11Z</time>
      </trkpt>
      <trkpt lat="44.18434" lon="6.03807">
        <ele>706.534</ele>
        <time>2019-11-10T14:53:17Z</time>
      </trkpt>
      <trkpt lat="44.18437" lon="6.03782">
        <ele>707.66</ele>
        <time>2019-11-10T14:53:23Z</time>
      </trkpt>
      <trkpt lat="44.18451" lon="6.03763">
        <ele>708.692</ele>
        <time>2019-11-10T14:53:29Z</time>
      </trkpt>
      <trkpt lat="44.18455" lon="6.03743">
        <ele>709.295</ele>
        <time>2019-11-10T14:53:34Z</time>
      </trkpt>
      <trkpt lat="44.18444" lon="6.0373">
        <ele>710.239</ele>
        <time>2019-11-10T14:53:40Z</time>
      </trkpt>
      <trkpt lat="44.18432" lon="6.03715">
        <ele>711.287</ele>
        <time>2019-11-10T14:53:45Z</time>
      </trkpt>
      <trkpt lat="44.1842" lon="6.03705">
        <ele>712.793</ele>
        <time>2019-11-10T14:53:51Z</time>
      </trkpt>
      <trkpt lat="44.18405" lon="6.03688">
        <ele>714.171</ele>
        <time>2019-11-10T14:53:57Z</time>
      </trkpt>
      <trkpt lat="44.18394" lon="6.03663">
        <ele>715.842</ele>
        <time>2019-11-10T14:54:03Z</time>
      </trkpt>
      <trkpt lat="44.1838" lon="6.03652">
        <ele>717.393</ele>
        <time>2019-11-10T14:54:09Z</time>
      </trkpt>
      <trkpt lat="44.18374" lon="6.0365">
        <ele>718.348</ele>
        <time>2019-11-10T14:54:14Z</time>
      </trkpt>
      <trkpt lat="44.18357" lon="6.0365">
        <ele>718.734</ele>
        <time>2019-11-10T14:54:20Z</time>
      </trkpt>
      <trkpt lat="44.18338" lon="6.03644">
        <ele>719.309</ele>
        <time>2019-11-10T14:54:25Z</time>
      </trkpt>
      <trkpt lat="44.18314" lon="6.03641">
        <ele>723.82</ele>
        <time>2019-11-10T14:54:31Z</time>
      </trkpt>
      <trkpt lat="44.18294" lon="6.03634">
        <ele>724.852</ele>
        <time>2019-11-10T14:54:37Z</time>
      </trkpt>
      <trkpt lat="44.18278" lon="6.0362">
        <ele>725.887</ele>
        <time>2019-11-10T14:54:43Z</time>
      </trkpt>
      <trkpt lat="44.18267" lon="6.03592">
        <ele>726.34</ele>
        <time>2019-11-10T14:54:49Z</time>
      </trkpt>
      <trkpt lat="44.18266" lon="6.03568">
        <ele>726.367</ele>
        <time>2019-11-10T14:54:55Z</time>
      </trkpt>
      <trkpt lat="44.18267" lon="6.03537">
        <ele>725.483</ele>
        <time>2019-11-10T14:55:01Z</time>
      </trkpt>
      <trkpt lat="44.18256" lon="6.035">
        <ele>730.86</ele>
        <time>2019-11-10T14:55:06Z</time>
      </trkpt>
      <trkpt lat="44.18239" lon="6.03453">
        <ele>731.83</ele>
        <time>2019-11-10T14:55:11Z</time>
      </trkpt>
      <trkpt lat="44.18222" lon="6.03382">
        <ele>724.089</ele>
        <time>2019-11-10T14:55:17Z</time>
      </trkpt>
      <trkpt lat="44.18214" lon="6.03311">
        <ele>719.943</ele>
        <time>2019-11-10T14:55:23Z</time>
      </trkpt>
      <trkpt lat="44.1823" lon="6.03261">
        <ele>714.011</ele>
        <time>2019-11-10T14:55:28Z</time>
      </trkpt>
      <trkpt lat="44.18194" lon="6.03221">
        <ele>712.226</ele>
        <time>2019-11-10T14:55:34Z</time>
      </trkpt>
      <trkpt lat="44.18202" lon="6.03166">
        <ele>705.833</ele>
        <time>2019-11-10T14:55:39Z</time>
      </trkpt>
      <trkpt lat="44.18206" lon="6.03094">
        <ele>702.151</ele>
        <time>2019-11-10T14:55:45Z</time>
      </trkpt>
      <trkpt lat="44.1821" lon="6.03042">
        <ele>698.478</ele>
        <time>2019-11-10T14:55:51Z</time>
      </trkpt>
      <trkpt lat="44.1818" lon="6.03009">
        <ele>696.264</ele>
        <time>2019-11-10T14:55:57Z</time>
      </trkpt>
      <trkpt lat="44.18168" lon="6.0296">
        <ele>693.453</ele>
        <time>2019-11-10T14:56:02Z</time>
      </trkpt>
      <trkpt lat="44.18139" lon="6.02914">
        <ele>691.555</ele>
        <time>2019-11-10T14:56:07Z</time>
      </trkpt>
      <trkpt lat="44.18105" lon="6.02877">
        <ele>689.293</ele>
        <time>2019-11-10T14:56:13Z</time>
      </trkpt>
      <trkpt lat="44.18126" lon="6.02831">
        <ele>685.029</ele>
        <time>2019-11-10T14:56:18Z</time>
      </trkpt>
      <trkpt lat="44.18119" lon="6.02769">
        <ele>681.199</ele>
        <time>2019-11-10T14:56:24Z</time>
      </trkpt>
      <trkpt lat="44.18093" lon="6.02714">
        <ele>677.856</ele>
        <time>2019-11-10T14:56:29Z</time>
      </trkpt>
      <trkpt lat="44.1808" lon="6.02679">
        <ele>674.812</ele>
        <time>2019-11-10T14:56:34Z</time>
      </trkpt>
      <trkpt lat="44.18107" lon="6.02658">
        <ele>671.734</ele>
        <time>2019-11-10T14:56:39Z</time>
      </trkpt>
      <trkpt lat="44.18148" lon="6.0265">
        <ele>667.957</ele>
        <time>2019-11-10T14:56:44Z</time>
      </trkpt>
      <trkpt lat="44.18201" lon="6.02675">
        <ele>666.263</ele>
        <time>2019-11-10T14:56:50Z</time>
      </trkpt>
      <trkpt lat="44.18222" lon="6.02726">
        <ele>662.398</ele>
        <time>2019-11-10T14:56:55Z</time>
      </trkpt>
      <trkpt lat="44.18258" lon="6.02736">
        <ele>660.11</ele>
        <time>2019-11-10T14:57:01Z</time>
      </trkpt>
      <trkpt lat="44.18268" lon="6.027">
        <ele>659.372</ele>
        <time>2019-11-10T14:57:06Z</time>
      </trkpt>
      <trkpt lat="44.18276" lon="6.02665">
        <ele>657.293</ele>
        <time>2019-11-10T14:57:11Z</time>
      </trkpt>
      <trkpt lat="44.18291" lon="6.02637">
        <ele>656.38</ele>
        <time>2019-11-10T14:57:16Z</time>
      </trkpt>
      <trkpt lat="44.1832" lon="6.02622">
        <ele>658.177</ele>
        <time>2019-11-10T14:57:22Z</time>
      </trkpt>
      <trkpt lat="44.18344" lon="6.02599">
        <ele>661.307</ele>
        <time>2019-11-10T14:57:28Z</time>
      </trkpt>
      <trkpt lat="44.18354" lon="6.0257">
        <ele>659.651</ele>
        <time>2019-11-10T14:57:33Z</time>
      </trkpt>
      <trkpt lat="44.18362" lon="6.02538">
        <ele>658.866</ele>
        <time>2019-11-10T14:57:38Z</time>
      </trkpt>
      <trkpt lat="44.18371" lon="6.02492">
        <ele>659.804</ele>
        <time>2019-11-10T14:57:44Z</time>
      </trkpt>
      <trkpt lat="44.18378" lon="6.02445">
        <ele>659.442</ele>
        <time>2019-11-10T14:57:49Z</time>
      </trkpt>
      <trkpt lat="44.18381" lon="6.02387">
        <ele>660.019</ele>
        <time>2019-11-10T14:57:54Z</time>
      </trkpt>
      <trkpt lat="44.18363" lon="6.02326">
        <ele>659.904</ele>
        <time>2019-11-10T14:57:59Z</time>
      </trkpt>
      <trkpt lat="44.18325" lon="6.02288">
        <ele>655.023</ele>
        <time>2019-11-10T14:58:05Z</time>
      </trkpt>
      <trkpt lat="44.18306" lon="6.02261">
        <ele>648.189</ele>
        <time>2019-11-10T14:58:10Z</time>
      </trkpt>
      <trkpt lat="44.1831" lon="6.02198">
        <ele>644.208</ele>
        <time>2019-11-10T14:58:16Z</time>
      </trkpt>
      <trkpt lat="44.18353" lon="6.02161">
        <ele>637.633</ele>
        <time>2019-11-10T14:58:22Z</time>
      </trkpt>
      <trkpt lat="44.18399" lon="6.02176">
        <ele>635.448</ele>
        <time>2019-11-10T14:58:27Z</time>
      </trkpt>
      <trkpt lat="44.18442" lon="6.02142">
        <ele>635.771</ele>
        <time>2019-11-10T14:58:33Z</time>
      </trkpt>
      <trkpt lat="44.18426" lon="6.02106">
        <ele>631.599</ele>
        <time>2019-11-10T14:58:39Z</time>
      </trkpt>
      <trkpt lat="44.18415" lon="6.02086">
        <ele>631.495</ele>
        <time>2019-11-10T14:58:44Z</time>
      </trkpt>
      <trkpt lat="44.18398" lon="6.02076">
        <ele>632.112</ele>
        <time>2019-11-10T14:58:50Z</time>
      </trkpt>
      <trkpt lat="44.18384" lon="6.02067">
        <ele>633.322</ele>
        <time>2019-11-10T14:58:55Z</time>
      </trkpt>
      <trkpt lat="44.18382" lon="6.02043">
        <ele>634.548</ele>
        <time>2019-11-10T14:59:01Z</time>
      </trkpt>
      <trkpt lat="44.18401" lon="6.02019">
        <ele>634.955</ele>
        <time>2019-11-10T14:59:07Z</time>
      </trkpt>
      <trkpt lat="44.18418" lon="6.02011">
        <ele>634.649</ele>
        <time>2019-11-10T14:59:12Z</time>
      </trkpt>
      <trkpt lat="44.18436" lon="6.0201">
        <ele>635.241</ele>
        <time>2019-11-10T14:59:18Z</time>
      </trkpt>
      <trkpt lat="44.18453" lon="6.01996">
        <ele>635.92</ele>
        <time>2019-11-10T14:59:24Z</time>
      </trkpt>
      <trkpt lat="44.18467" lon="6.01979">
        <ele>636.924</ele>
        <time>2019-11-10T14:59:30Z</time>
      </trkpt>
      <trkpt lat="44.18479" lon="6.01964">
        <ele>637.601</ele>
        <time>2019-11-10T14:59:35Z</time>
      </trkpt>
      <trkpt lat="44.18495" lon="6.01952">
        <ele>638.285</ele>
        <time>2019-11-10T14:59:41Z</time>
      </trkpt>
      <trkpt lat="44.18512" lon="6.01938">
        <ele>639.672</ele>
        <time>2019-11-10T14:59:47Z</time>
      </trkpt>
      <trkpt lat="44.1852" lon="6.01924">
        <ele>640.982</ele>
        <time>2019-11-10T14:59:53Z</time>
      </trkpt>
      <trkpt lat="44.18529" lon="6.01904">
        <ele>641.853</ele>
        <time>2019-11-10T14:59:59Z</time>
      </trkpt>
      <trkpt lat="44.18542" lon="6.0189">
        <ele>643.39</ele>
        <time>2019-11-10T15:00:05Z</time>
      </trkpt>
      <trkpt lat="44.18552" lon="6.01893">
        <ele>644.55</ele>
        <time>2019-11-10T15:00:10Z</time>
      </trkpt>
      <trkpt lat="44.18553" lon="6.01894">
        <ele>645.429</ele>
        <time>2019-11-10T15:00:15Z</time>
      </trkpt>
      <trkpt lat="44.18553" lon="6.01894">
        <ele>645.654</ele>
        <time>2019-11-10T15:00:21Z</time>
      </trkpt>
      <trkpt lat="44.18562" lon="6.01907">
        <ele>645.808</ele>
        <time>2019-11-10T15:00:26Z</time>
      </trkpt>
      <trkpt lat="44.18562" lon="6.01907">
        <ele>645.843</ele>
        <time>2019-11-10T15:00:32Z</time>
      </trkpt>
      <trkpt lat="44.18562" lon="6.01907">
        <ele>645.96</ele>
        <time>2019-11-10T15:00:38Z</time>
      </trkpt>
      <trkpt lat="44.18562" lon="6.01907">
        <ele>646.086</ele>
        <time>2019-11-10T15:00:44Z</time>
      </trkpt>
      <trkpt lat="44.18562" lon="6.01907">
        <ele>646.36</ele>
        <time>2019-11-10T15:00:50Z</time>
      </trkpt>
      <trkpt lat="44.18562" lon="6.01907">
        <ele>646.427</ele>
        <time>2019-11-10T15:00:56Z</time>
      </trkpt>
      <trkpt lat="44.18562" lon="6.01907">
        <ele>646.54</ele>
        <time>2019-11-10T15:01:02Z</time>
      </trkpt>
      <trkpt lat="44.18562" lon="6.01907">
        <ele>646.977</ele>
        <time>2019-11-10T15:01:08Z</time>
      </trkpt>
      <trkpt lat="44.18562" lon="6.01907">
        <ele>647.434</ele>
        <time>2019-11-10T15:01:13Z</time>
      </trkpt>
      <trkpt lat="44.18562" lon="6.01907">
        <ele>647.525</ele>
        <time>2019-11-10T15:01:19Z</time>
      </trkpt>
      <trkpt lat="44.18562" lon="6.01907">
        <ele>647.533</ele>
        <time>2019-11-10T15:01:24Z</time>
      </trkpt>
      <trkpt lat="44.18562" lon="6.01907">
        <ele>647.449</ele>
        <time>2019-11-10T15:01:30Z</time>
      </trkpt>
      <trkpt lat="44.18562" lon="6.01907">
        <ele>647.401</ele>
        <time>2019-11-10T15:01:36Z</time>
      </trkpt>
      <trkpt lat="44.18562" lon="6.01907">
        <ele>647.673</ele>
        <time>2019-11-10T15:01:42Z</time>
      </trkpt>
      <trkpt lat="44.18562" lon="6.01907">
        <ele>647.762</ele>
        <time>2019-11-10T15:01:48Z</time>
      </trkpt>
      <trkpt lat="44.18562" lon="6.01907">
        <ele>647.918</ele>
        <time>2019-11-10T15:01:54Z</time>
      </trkpt>
    </trkseg>
  </trk>
</gpx>